<?xml version="1.0" encoding="UTF-8" standalone="no" ?>
<gpx xmlns="http://www.topografix.com/GPX/1/1" xmlns:xsi="http://www.w3.org/2001/XMLSchema-instance" xsi:schemaLocation="http://www.topografix.com/GPX/1/1 http://www.topografix.com/GPX/1/1/gpx.xsd" version="1.1" creator="VisuGPX - https://www.visugpx.com">
  <metadata>
    <name>Randonnée du 03/09/26 Boucle depuis Schirmeck-côte du château-côte des vignes</name>
  </metadata>
  <trk>
    <name><![CDATA[Parcours du 03/09/2026 17h12]]></name>
    <trkseg>
      <trkpt lat="48.48052" lon="7.22043">
        <ele>309.17355</ele>
        <time>2026-09-03T12:10:48Z</time>
      </trkpt>
      <trkpt lat="48.48052" lon="7.22043">
        <ele>309.17355</ele>
        <time>2026-09-03T12:10:49Z</time>
      </trkpt>
      <trkpt lat="48.48048" lon="7.22041">
        <ele>309.17355</ele>
        <time>2026-09-03T12:10:56Z</time>
      </trkpt>
      <trkpt lat="48.48047" lon="7.22033">
        <ele>309.17355</ele>
        <time>2026-09-03T12:11:00Z</time>
      </trkpt>
      <trkpt lat="48.48044" lon="7.22028">
        <ele>309.17355</ele>
        <time>2026-09-03T12:11:05Z</time>
      </trkpt>
      <trkpt lat="48.48042" lon="7.22022">
        <ele>309.17355</ele>
        <time>2026-09-03T12:11:14Z</time>
      </trkpt>
      <trkpt lat="48.48039" lon="7.22016">
        <ele>309.17355</ele>
        <time>2026-09-03T12:11:20Z</time>
      </trkpt>
      <trkpt lat="48.48035" lon="7.2201">
        <ele>309.17355</ele>
        <time>2026-09-03T12:11:25Z</time>
      </trkpt>
      <trkpt lat="48.48032" lon="7.22006">
        <ele>309.17355</ele>
        <time>2026-09-03T12:11:28Z</time>
      </trkpt>
      <trkpt lat="48.48028" lon="7.22">
        <ele>309.17355</ele>
        <time>2026-09-03T12:11:32Z</time>
      </trkpt>
      <trkpt lat="48.48026" lon="7.21992">
        <ele>309.17355</ele>
        <time>2026-09-03T12:11:36Z</time>
      </trkpt>
      <trkpt lat="48.48023" lon="7.21986">
        <ele>309.17355</ele>
        <time>2026-09-03T12:11:48Z</time>
      </trkpt>
      <trkpt lat="48.48021" lon="7.2198">
        <ele>309.17355</ele>
        <time>2026-09-03T12:12:06Z</time>
      </trkpt>
      <trkpt lat="48.48018" lon="7.21975">
        <ele>309.17355</ele>
        <time>2026-09-03T12:12:13Z</time>
      </trkpt>
      <trkpt lat="48.48014" lon="7.2197">
        <ele>309.17355</ele>
        <time>2026-09-03T12:12:18Z</time>
      </trkpt>
      <trkpt lat="48.48011" lon="7.21964">
        <ele>309.17355</ele>
        <time>2026-09-03T12:12:25Z</time>
      </trkpt>
      <trkpt lat="48.48009" lon="7.21957">
        <ele>309.17355</ele>
        <time>2026-09-03T12:12:30Z</time>
      </trkpt>
      <trkpt lat="48.48006" lon="7.21951">
        <ele>309.17355</ele>
        <time>2026-09-03T12:12:33Z</time>
      </trkpt>
      <trkpt lat="48.48003" lon="7.21945">
        <ele>309.17355</ele>
        <time>2026-09-03T12:12:38Z</time>
      </trkpt>
      <trkpt lat="48.47999" lon="7.21939">
        <ele>309.17355</ele>
        <time>2026-09-03T12:12:42Z</time>
      </trkpt>
      <trkpt lat="48.47996" lon="7.21933">
        <ele>309.17355</ele>
        <time>2026-09-03T12:12:47Z</time>
      </trkpt>
      <trkpt lat="48.47993" lon="7.21926">
        <ele>309.17355</ele>
        <time>2026-09-03T12:12:52Z</time>
      </trkpt>
      <trkpt lat="48.4799" lon="7.21921">
        <ele>309.17355</ele>
        <time>2026-09-03T12:12:57Z</time>
      </trkpt>
      <trkpt lat="48.47989" lon="7.21914">
        <ele>309.17355</ele>
        <time>2026-09-03T12:13:01Z</time>
      </trkpt>
      <trkpt lat="48.47985" lon="7.21908">
        <ele>309.17355</ele>
        <time>2026-09-03T12:13:06Z</time>
      </trkpt>
      <trkpt lat="48.47982" lon="7.21903">
        <ele>309.17355</ele>
        <time>2026-09-03T12:13:11Z</time>
      </trkpt>
      <trkpt lat="48.47977" lon="7.21896">
        <ele>309.17355</ele>
        <time>2026-09-03T12:13:16Z</time>
      </trkpt>
      <trkpt lat="48.47976" lon="7.2189">
        <ele>309.17355</ele>
        <time>2026-09-03T12:13:21Z</time>
      </trkpt>
      <trkpt lat="48.47973" lon="7.21884">
        <ele>309.17355</ele>
        <time>2026-09-03T12:13:25Z</time>
      </trkpt>
      <trkpt lat="48.47971" lon="7.21877">
        <ele>309.17355</ele>
        <time>2026-09-03T12:13:29Z</time>
      </trkpt>
      <trkpt lat="48.47969" lon="7.2187">
        <ele>309.17355</ele>
        <time>2026-09-03T12:13:36Z</time>
      </trkpt>
      <trkpt lat="48.47968" lon="7.21864">
        <ele>309.17355</ele>
        <time>2026-09-03T12:13:45Z</time>
      </trkpt>
      <trkpt lat="48.47965" lon="7.21857">
        <ele>309.17355</ele>
        <time>2026-09-03T12:14:04Z</time>
      </trkpt>
      <trkpt lat="48.47963" lon="7.2185">
        <ele>309.17355</ele>
        <time>2026-09-03T12:14:10Z</time>
      </trkpt>
      <trkpt lat="48.47961" lon="7.21844">
        <ele>309.17355</ele>
        <time>2026-09-03T12:14:16Z</time>
      </trkpt>
      <trkpt lat="48.4796" lon="7.21837">
        <ele>309.17355</ele>
        <time>2026-09-03T12:14:19Z</time>
      </trkpt>
      <trkpt lat="48.47957" lon="7.21829">
        <ele>309.17355</ele>
        <time>2026-09-03T12:14:23Z</time>
      </trkpt>
      <trkpt lat="48.47954" lon="7.21823">
        <ele>309.17355</ele>
        <time>2026-09-03T12:14:29Z</time>
      </trkpt>
      <trkpt lat="48.47951" lon="7.21816">
        <ele>309.17355</ele>
        <time>2026-09-03T12:14:33Z</time>
      </trkpt>
      <trkpt lat="48.47949" lon="7.21809">
        <ele>309.17355</ele>
        <time>2026-09-03T12:14:37Z</time>
      </trkpt>
      <trkpt lat="48.47945" lon="7.21802">
        <ele>309.17355</ele>
        <time>2026-09-03T12:14:44Z</time>
      </trkpt>
      <trkpt lat="48.47942" lon="7.21797">
        <ele>309.17355</ele>
        <time>2026-09-03T12:14:49Z</time>
      </trkpt>
      <trkpt lat="48.47938" lon="7.21791">
        <ele>309.17355</ele>
        <time>2026-09-03T12:14:53Z</time>
      </trkpt>
      <trkpt lat="48.47933" lon="7.21785">
        <ele>309.17355</ele>
        <time>2026-09-03T12:14:58Z</time>
      </trkpt>
      <trkpt lat="48.47929" lon="7.21779">
        <ele>309.17355</ele>
        <time>2026-09-03T12:15:02Z</time>
      </trkpt>
      <trkpt lat="48.47925" lon="7.21775">
        <ele>309.17355</ele>
        <time>2026-09-03T12:15:08Z</time>
      </trkpt>
      <trkpt lat="48.47922" lon="7.21769">
        <ele>309.17355</ele>
        <time>2026-09-03T12:15:12Z</time>
      </trkpt>
      <trkpt lat="48.47918" lon="7.21762">
        <ele>309.17355</ele>
        <time>2026-09-03T12:15:17Z</time>
      </trkpt>
      <trkpt lat="48.47913" lon="7.21762">
        <ele>309.17355</ele>
        <time>2026-09-03T12:15:26Z</time>
      </trkpt>
      <trkpt lat="48.47907" lon="7.21771">
        <ele>309.17355</ele>
        <time>2026-09-03T12:15:29Z</time>
      </trkpt>
      <trkpt lat="48.47903" lon="7.21777">
        <ele>309.17355</ele>
        <time>2026-09-03T12:15:34Z</time>
      </trkpt>
      <trkpt lat="48.47901" lon="7.21783">
        <ele>309.17355</ele>
        <time>2026-09-03T12:15:38Z</time>
      </trkpt>
      <trkpt lat="48.47897" lon="7.21789">
        <ele>309.17355</ele>
        <time>2026-09-03T12:15:43Z</time>
      </trkpt>
      <trkpt lat="48.47892" lon="7.21794">
        <ele>309.17355</ele>
        <time>2026-09-03T12:15:55Z</time>
      </trkpt>
      <trkpt lat="48.47886" lon="7.21789">
        <ele>309.17355</ele>
        <time>2026-09-03T12:16:03Z</time>
      </trkpt>
      <trkpt lat="48.47888" lon="7.21796">
        <ele>309.17355</ele>
        <time>2026-09-03T12:16:17Z</time>
      </trkpt>
      <trkpt lat="48.47883" lon="7.21785">
        <ele>309.17355</ele>
        <time>2026-09-03T12:16:40Z</time>
      </trkpt>
      <trkpt lat="48.47886" lon="7.21793">
        <ele>309.17355</ele>
        <time>2026-09-03T12:16:52Z</time>
      </trkpt>
      <trkpt lat="48.47882" lon="7.21787">
        <ele>309.17355</ele>
        <time>2026-09-03T12:16:53Z</time>
      </trkpt>
      <trkpt lat="48.47879" lon="7.21795">
        <ele>309.17355</ele>
        <time>2026-09-03T12:17:08Z</time>
      </trkpt>
      <trkpt lat="48.47881" lon="7.21803">
        <ele>309.17355</ele>
        <time>2026-09-03T12:17:11Z</time>
      </trkpt>
      <trkpt lat="48.4788" lon="7.21814">
        <ele>309.17355</ele>
        <time>2026-09-03T12:17:15Z</time>
      </trkpt>
      <trkpt lat="48.47878" lon="7.21821">
        <ele>309.17355</ele>
        <time>2026-09-03T12:17:19Z</time>
      </trkpt>
      <trkpt lat="48.47873" lon="7.21822">
        <ele>309.17355</ele>
        <time>2026-09-03T12:17:25Z</time>
      </trkpt>
      <trkpt lat="48.47868" lon="7.21827">
        <ele>309.17355</ele>
        <time>2026-09-03T12:17:30Z</time>
      </trkpt>
      <trkpt lat="48.47864" lon="7.21831">
        <ele>309.17355</ele>
        <time>2026-09-03T12:17:36Z</time>
      </trkpt>
      <trkpt lat="48.47861" lon="7.21839">
        <ele>309.17355</ele>
        <time>2026-09-03T12:17:42Z</time>
      </trkpt>
      <trkpt lat="48.47858" lon="7.21846">
        <ele>309.17355</ele>
        <time>2026-09-03T12:17:46Z</time>
      </trkpt>
      <trkpt lat="48.47855" lon="7.21852">
        <ele>309.17355</ele>
        <time>2026-09-03T12:17:54Z</time>
      </trkpt>
      <trkpt lat="48.4785" lon="7.21857">
        <ele>309.17355</ele>
        <time>2026-09-03T12:18:01Z</time>
      </trkpt>
      <trkpt lat="48.47847" lon="7.21862">
        <ele>309.17355</ele>
        <time>2026-09-03T12:18:06Z</time>
      </trkpt>
      <trkpt lat="48.47842" lon="7.21862">
        <ele>309.17355</ele>
        <time>2026-09-03T12:18:11Z</time>
      </trkpt>
      <trkpt lat="48.47838" lon="7.21868">
        <ele>309.17355</ele>
        <time>2026-09-03T12:18:14Z</time>
      </trkpt>
      <trkpt lat="48.47834" lon="7.21873">
        <ele>309.17355</ele>
        <time>2026-09-03T12:18:21Z</time>
      </trkpt>
      <trkpt lat="48.47829" lon="7.21871">
        <ele>309.17355</ele>
        <time>2026-09-03T12:18:29Z</time>
      </trkpt>
      <trkpt lat="48.47824" lon="7.21868">
        <ele>309.17355</ele>
        <time>2026-09-03T12:18:32Z</time>
      </trkpt>
      <trkpt lat="48.47819" lon="7.21863">
        <ele>309.17355</ele>
        <time>2026-09-03T12:18:36Z</time>
      </trkpt>
      <trkpt lat="48.47816" lon="7.21855">
        <ele>309.17355</ele>
        <time>2026-09-03T12:18:42Z</time>
      </trkpt>
      <trkpt lat="48.47811" lon="7.21852">
        <ele>309.17355</ele>
        <time>2026-09-03T12:18:46Z</time>
      </trkpt>
      <trkpt lat="48.47808" lon="7.21846">
        <ele>309.17355</ele>
        <time>2026-09-03T12:18:49Z</time>
      </trkpt>
      <trkpt lat="48.47805" lon="7.21841">
        <ele>309.17355</ele>
        <time>2026-09-03T12:18:53Z</time>
      </trkpt>
      <trkpt lat="48.47804" lon="7.21834">
        <ele>309.17355</ele>
        <time>2026-09-03T12:18:57Z</time>
      </trkpt>
      <trkpt lat="48.47801" lon="7.2183">
        <ele>309.17355</ele>
        <time>2026-09-03T12:19:00Z</time>
      </trkpt>
      <trkpt lat="48.47797" lon="7.21825">
        <ele>309.17355</ele>
        <time>2026-09-03T12:19:04Z</time>
      </trkpt>
      <trkpt lat="48.47794" lon="7.21819">
        <ele>309.17355</ele>
        <time>2026-09-03T12:19:08Z</time>
      </trkpt>
      <trkpt lat="48.4779" lon="7.21816">
        <ele>309.17355</ele>
        <time>2026-09-03T12:19:12Z</time>
      </trkpt>
      <trkpt lat="48.47787" lon="7.21811">
        <ele>309.17355</ele>
        <time>2026-09-03T12:19:16Z</time>
      </trkpt>
      <trkpt lat="48.47783" lon="7.21807">
        <ele>309.17355</ele>
        <time>2026-09-03T12:19:20Z</time>
      </trkpt>
      <trkpt lat="48.47781" lon="7.218">
        <ele>309.17355</ele>
        <time>2026-09-03T12:19:24Z</time>
      </trkpt>
      <trkpt lat="48.47776" lon="7.21797">
        <ele>309.17355</ele>
        <time>2026-09-03T12:19:28Z</time>
      </trkpt>
      <trkpt lat="48.47771" lon="7.21794">
        <ele>309.17355</ele>
        <time>2026-09-03T12:19:33Z</time>
      </trkpt>
      <trkpt lat="48.47768" lon="7.21787">
        <ele>309.17355</ele>
        <time>2026-09-03T12:19:41Z</time>
      </trkpt>
      <trkpt lat="48.47765" lon="7.21781">
        <ele>309.17355</ele>
        <time>2026-09-03T12:19:44Z</time>
      </trkpt>
      <trkpt lat="48.47762" lon="7.21775">
        <ele>309.17355</ele>
        <time>2026-09-03T12:19:48Z</time>
      </trkpt>
      <trkpt lat="48.47758" lon="7.2177">
        <ele>309.17355</ele>
        <time>2026-09-03T12:19:52Z</time>
      </trkpt>
      <trkpt lat="48.47754" lon="7.21765">
        <ele>309.17355</ele>
        <time>2026-09-03T12:19:57Z</time>
      </trkpt>
      <trkpt lat="48.47748" lon="7.21765">
        <ele>309.17355</ele>
        <time>2026-09-03T12:20:00Z</time>
      </trkpt>
      <trkpt lat="48.47744" lon="7.21762">
        <ele>309.17355</ele>
        <time>2026-09-03T12:20:04Z</time>
      </trkpt>
      <trkpt lat="48.47739" lon="7.21763">
        <ele>309.17355</ele>
        <time>2026-09-03T12:20:07Z</time>
      </trkpt>
      <trkpt lat="48.47734" lon="7.21758">
        <ele>309.17355</ele>
        <time>2026-09-03T12:20:12Z</time>
      </trkpt>
      <trkpt lat="48.47732" lon="7.2175">
        <ele>309.17355</ele>
        <time>2026-09-03T12:20:15Z</time>
      </trkpt>
      <trkpt lat="48.47727" lon="7.21745">
        <ele>309.17355</ele>
        <time>2026-09-03T12:20:21Z</time>
      </trkpt>
      <trkpt lat="48.4772" lon="7.21743">
        <ele>309.17355</ele>
        <time>2026-09-03T12:20:28Z</time>
      </trkpt>
      <trkpt lat="48.47715" lon="7.21739">
        <ele>309.17355</ele>
        <time>2026-09-03T12:20:32Z</time>
      </trkpt>
      <trkpt lat="48.4771" lon="7.21741">
        <ele>309.17355</ele>
        <time>2026-09-03T12:20:35Z</time>
      </trkpt>
      <trkpt lat="48.47706" lon="7.21747">
        <ele>312.4932</ele>
        <time>2026-09-03T12:20:44Z</time>
      </trkpt>
      <trkpt lat="48.47704" lon="7.21753">
        <ele>315.81284</ele>
        <time>2026-09-03T12:20:51Z</time>
      </trkpt>
      <trkpt lat="48.47698" lon="7.21749">
        <ele>319.13248</ele>
        <time>2026-09-03T12:20:54Z</time>
      </trkpt>
      <trkpt lat="48.47694" lon="7.21747">
        <ele>322.45212</ele>
        <time>2026-09-03T12:20:56Z</time>
      </trkpt>
      <trkpt lat="48.47689" lon="7.21746">
        <ele>325.77176</ele>
        <time>2026-09-03T12:20:58Z</time>
      </trkpt>
      <trkpt lat="48.47685" lon="7.21746">
        <ele>325.77176</ele>
        <time>2026-09-03T12:21:01Z</time>
      </trkpt>
      <trkpt lat="48.4768" lon="7.21743">
        <ele>325.77176</ele>
        <time>2026-09-03T12:21:04Z</time>
      </trkpt>
      <trkpt lat="48.47677" lon="7.21751">
        <ele>325.77176</ele>
        <time>2026-09-03T12:21:10Z</time>
      </trkpt>
      <trkpt lat="48.47672" lon="7.21751">
        <ele>325.77176</ele>
        <time>2026-09-03T12:21:13Z</time>
      </trkpt>
      <trkpt lat="48.47667" lon="7.21751">
        <ele>325.77176</ele>
        <time>2026-09-03T12:21:17Z</time>
      </trkpt>
      <trkpt lat="48.47662" lon="7.21749">
        <ele>325.77176</ele>
        <time>2026-09-03T12:21:21Z</time>
      </trkpt>
      <trkpt lat="48.47656" lon="7.21747">
        <ele>325.77176</ele>
        <time>2026-09-03T12:21:25Z</time>
      </trkpt>
      <trkpt lat="48.47651" lon="7.21745">
        <ele>325.77176</ele>
        <time>2026-09-03T12:21:29Z</time>
      </trkpt>
      <trkpt lat="48.47646" lon="7.21746">
        <ele>325.77176</ele>
        <time>2026-09-03T12:21:33Z</time>
      </trkpt>
      <trkpt lat="48.47642" lon="7.21746">
        <ele>325.77176</ele>
        <time>2026-09-03T12:21:40Z</time>
      </trkpt>
      <trkpt lat="48.47637" lon="7.21745">
        <ele>325.77176</ele>
        <time>2026-09-03T12:21:50Z</time>
      </trkpt>
      <trkpt lat="48.47631" lon="7.21744">
        <ele>325.77176</ele>
        <time>2026-09-03T12:21:54Z</time>
      </trkpt>
      <trkpt lat="48.47626" lon="7.21743">
        <ele>325.77176</ele>
        <time>2026-09-03T12:21:57Z</time>
      </trkpt>
      <trkpt lat="48.47621" lon="7.21743">
        <ele>325.77176</ele>
        <time>2026-09-03T12:22:00Z</time>
      </trkpt>
      <trkpt lat="48.47615" lon="7.21743">
        <ele>325.77176</ele>
        <time>2026-09-03T12:22:04Z</time>
      </trkpt>
      <trkpt lat="48.47609" lon="7.21742">
        <ele>325.77176</ele>
        <time>2026-09-03T12:22:08Z</time>
      </trkpt>
      <trkpt lat="48.47604" lon="7.21741">
        <ele>325.77176</ele>
        <time>2026-09-03T12:22:11Z</time>
      </trkpt>
      <trkpt lat="48.476" lon="7.21736">
        <ele>325.77176</ele>
        <time>2026-09-03T12:22:14Z</time>
      </trkpt>
      <trkpt lat="48.47596" lon="7.2173">
        <ele>325.77176</ele>
        <time>2026-09-03T12:22:17Z</time>
      </trkpt>
      <trkpt lat="48.47591" lon="7.21731">
        <ele>325.77176</ele>
        <time>2026-09-03T12:22:21Z</time>
      </trkpt>
      <trkpt lat="48.47587" lon="7.21729">
        <ele>325.77176</ele>
        <time>2026-09-03T12:22:24Z</time>
      </trkpt>
      <trkpt lat="48.47582" lon="7.2173">
        <ele>325.77176</ele>
        <time>2026-09-03T12:22:30Z</time>
      </trkpt>
      <trkpt lat="48.47577" lon="7.21728">
        <ele>325.77176</ele>
        <time>2026-09-03T12:22:34Z</time>
      </trkpt>
      <trkpt lat="48.47574" lon="7.21733">
        <ele>325.77176</ele>
        <time>2026-09-03T12:22:39Z</time>
      </trkpt>
      <trkpt lat="48.47569" lon="7.21736">
        <ele>325.77176</ele>
        <time>2026-09-03T12:22:44Z</time>
      </trkpt>
      <trkpt lat="48.47564" lon="7.21737">
        <ele>325.77176</ele>
        <time>2026-09-03T12:22:51Z</time>
      </trkpt>
      <trkpt lat="48.4756" lon="7.21742">
        <ele>325.77176</ele>
        <time>2026-09-03T12:22:55Z</time>
      </trkpt>
      <trkpt lat="48.47556" lon="7.21746">
        <ele>325.77176</ele>
        <time>2026-09-03T12:22:59Z</time>
      </trkpt>
      <trkpt lat="48.47552" lon="7.21749">
        <ele>325.77176</ele>
        <time>2026-09-03T12:23:04Z</time>
      </trkpt>
      <trkpt lat="48.47546" lon="7.21753">
        <ele>325.77176</ele>
        <time>2026-09-03T12:23:09Z</time>
      </trkpt>
      <trkpt lat="48.47541" lon="7.21753">
        <ele>325.77176</ele>
        <time>2026-09-03T12:23:13Z</time>
      </trkpt>
      <trkpt lat="48.47535" lon="7.21756">
        <ele>325.77176</ele>
        <time>2026-09-03T12:23:17Z</time>
      </trkpt>
      <trkpt lat="48.4753" lon="7.21756">
        <ele>325.77176</ele>
        <time>2026-09-03T12:23:21Z</time>
      </trkpt>
      <trkpt lat="48.47526" lon="7.21758">
        <ele>325.77176</ele>
        <time>2026-09-03T12:23:26Z</time>
      </trkpt>
      <trkpt lat="48.47521" lon="7.21759">
        <ele>325.77176</ele>
        <time>2026-09-03T12:23:30Z</time>
      </trkpt>
      <trkpt lat="48.47515" lon="7.2176">
        <ele>325.77176</ele>
        <time>2026-09-03T12:23:34Z</time>
      </trkpt>
      <trkpt lat="48.4751" lon="7.21764">
        <ele>325.77176</ele>
        <time>2026-09-03T12:23:39Z</time>
      </trkpt>
      <trkpt lat="48.47506" lon="7.21765">
        <ele>325.77176</ele>
        <time>2026-09-03T12:23:44Z</time>
      </trkpt>
      <trkpt lat="48.47501" lon="7.21764">
        <ele>325.77176</ele>
        <time>2026-09-03T12:23:48Z</time>
      </trkpt>
      <trkpt lat="48.47497" lon="7.21762">
        <ele>325.77176</ele>
        <time>2026-09-03T12:23:53Z</time>
      </trkpt>
      <trkpt lat="48.47492" lon="7.2176">
        <ele>325.77176</ele>
        <time>2026-09-03T12:23:58Z</time>
      </trkpt>
      <trkpt lat="48.47487" lon="7.21764">
        <ele>325.77176</ele>
        <time>2026-09-03T12:24:01Z</time>
      </trkpt>
      <trkpt lat="48.47482" lon="7.21767">
        <ele>325.77176</ele>
        <time>2026-09-03T12:24:07Z</time>
      </trkpt>
      <trkpt lat="48.47477" lon="7.21767">
        <ele>325.77176</ele>
        <time>2026-09-03T12:24:11Z</time>
      </trkpt>
      <trkpt lat="48.47472" lon="7.21767">
        <ele>325.77176</ele>
        <time>2026-09-03T12:24:16Z</time>
      </trkpt>
      <trkpt lat="48.47467" lon="7.21765">
        <ele>325.77176</ele>
        <time>2026-09-03T12:24:20Z</time>
      </trkpt>
      <trkpt lat="48.47461" lon="7.21763">
        <ele>325.77176</ele>
        <time>2026-09-03T12:24:24Z</time>
      </trkpt>
      <trkpt lat="48.47455" lon="7.21764">
        <ele>325.77176</ele>
        <time>2026-09-03T12:24:29Z</time>
      </trkpt>
      <trkpt lat="48.4745" lon="7.21764">
        <ele>325.77176</ele>
        <time>2026-09-03T12:24:33Z</time>
      </trkpt>
      <trkpt lat="48.47445" lon="7.21764">
        <ele>325.77176</ele>
        <time>2026-09-03T12:24:38Z</time>
      </trkpt>
      <trkpt lat="48.47439" lon="7.21765">
        <ele>325.77176</ele>
        <time>2026-09-03T12:24:43Z</time>
      </trkpt>
      <trkpt lat="48.47434" lon="7.21766">
        <ele>325.77176</ele>
        <time>2026-09-03T12:24:49Z</time>
      </trkpt>
      <trkpt lat="48.47429" lon="7.21767">
        <ele>325.77176</ele>
        <time>2026-09-03T12:24:54Z</time>
      </trkpt>
      <trkpt lat="48.47424" lon="7.21769">
        <ele>325.77176</ele>
        <time>2026-09-03T12:24:58Z</time>
      </trkpt>
      <trkpt lat="48.47419" lon="7.21772">
        <ele>325.77176</ele>
        <time>2026-09-03T12:25:03Z</time>
      </trkpt>
      <trkpt lat="48.47416" lon="7.21768">
        <ele>325.77176</ele>
        <time>2026-09-03T12:25:06Z</time>
      </trkpt>
      <trkpt lat="48.47411" lon="7.21768">
        <ele>325.77176</ele>
        <time>2026-09-03T12:25:08Z</time>
      </trkpt>
      <trkpt lat="48.47405" lon="7.21771">
        <ele>325.77176</ele>
        <time>2026-09-03T12:25:17Z</time>
      </trkpt>
      <trkpt lat="48.47401" lon="7.21773">
        <ele>325.77176</ele>
        <time>2026-09-03T12:25:23Z</time>
      </trkpt>
      <trkpt lat="48.47396" lon="7.21776">
        <ele>325.77176</ele>
        <time>2026-09-03T12:25:30Z</time>
      </trkpt>
      <trkpt lat="48.47391" lon="7.21779">
        <ele>325.77176</ele>
        <time>2026-09-03T12:25:35Z</time>
      </trkpt>
      <trkpt lat="48.47387" lon="7.21781">
        <ele>325.77176</ele>
        <time>2026-09-03T12:25:42Z</time>
      </trkpt>
      <trkpt lat="48.47382" lon="7.21783">
        <ele>325.77176</ele>
        <time>2026-09-03T12:25:48Z</time>
      </trkpt>
      <trkpt lat="48.47377" lon="7.21786">
        <ele>325.77176</ele>
        <time>2026-09-03T12:25:51Z</time>
      </trkpt>
      <trkpt lat="48.47371" lon="7.21789">
        <ele>325.77176</ele>
        <time>2026-09-03T12:25:58Z</time>
      </trkpt>
      <trkpt lat="48.47365" lon="7.21791">
        <ele>325.77176</ele>
        <time>2026-09-03T12:26:03Z</time>
      </trkpt>
      <trkpt lat="48.47359" lon="7.21794">
        <ele>325.77176</ele>
        <time>2026-09-03T12:26:14Z</time>
      </trkpt>
      <trkpt lat="48.47354" lon="7.21797">
        <ele>325.77176</ele>
        <time>2026-09-03T12:26:20Z</time>
      </trkpt>
      <trkpt lat="48.4735" lon="7.21799">
        <ele>325.77176</ele>
        <time>2026-09-03T12:26:24Z</time>
      </trkpt>
      <trkpt lat="48.47345" lon="7.21802">
        <ele>325.77176</ele>
        <time>2026-09-03T12:26:32Z</time>
      </trkpt>
      <trkpt lat="48.47343" lon="7.2181">
        <ele>325.77176</ele>
        <time>2026-09-03T12:26:38Z</time>
      </trkpt>
      <trkpt lat="48.47337" lon="7.21807">
        <ele>325.77176</ele>
        <time>2026-09-03T12:26:41Z</time>
      </trkpt>
      <trkpt lat="48.47332" lon="7.21807">
        <ele>325.77176</ele>
        <time>2026-09-03T12:26:47Z</time>
      </trkpt>
      <trkpt lat="48.47328" lon="7.21808">
        <ele>325.77176</ele>
        <time>2026-09-03T12:26:51Z</time>
      </trkpt>
      <trkpt lat="48.47323" lon="7.2181">
        <ele>325.77176</ele>
        <time>2026-09-03T12:26:58Z</time>
      </trkpt>
      <trkpt lat="48.47317" lon="7.21812">
        <ele>325.77176</ele>
        <time>2026-09-03T12:27:04Z</time>
      </trkpt>
      <trkpt lat="48.47312" lon="7.21813">
        <ele>325.77176</ele>
        <time>2026-09-03T12:27:09Z</time>
      </trkpt>
      <trkpt lat="48.47309" lon="7.2182">
        <ele>325.77176</ele>
        <time>2026-09-03T12:27:15Z</time>
      </trkpt>
      <trkpt lat="48.47304" lon="7.21817">
        <ele>328.08398</ele>
        <time>2026-09-03T12:27:17Z</time>
      </trkpt>
      <trkpt lat="48.47298" lon="7.21816">
        <ele>330.3962</ele>
        <time>2026-09-03T12:27:23Z</time>
      </trkpt>
      <trkpt lat="48.47294" lon="7.21817">
        <ele>332.70844</ele>
        <time>2026-09-03T12:27:32Z</time>
      </trkpt>
      <trkpt lat="48.47291" lon="7.21825">
        <ele>335.02066</ele>
        <time>2026-09-03T12:27:38Z</time>
      </trkpt>
      <trkpt lat="48.4729" lon="7.21834">
        <ele>337.3329</ele>
        <time>2026-09-03T12:27:41Z</time>
      </trkpt>
      <trkpt lat="48.4729" lon="7.21841">
        <ele>337.3329</ele>
        <time>2026-09-03T12:27:51Z</time>
      </trkpt>
      <trkpt lat="48.47289" lon="7.21834">
        <ele>337.3329</ele>
        <time>2026-09-03T12:28:15Z</time>
      </trkpt>
      <trkpt lat="48.47294" lon="7.21835">
        <ele>337.3329</ele>
        <time>2026-09-03T12:28:59Z</time>
      </trkpt>
      <trkpt lat="48.47299" lon="7.21837">
        <ele>337.3329</ele>
        <time>2026-09-03T12:29:04Z</time>
      </trkpt>
      <trkpt lat="48.47304" lon="7.21838">
        <ele>337.3329</ele>
        <time>2026-09-03T12:29:09Z</time>
      </trkpt>
      <trkpt lat="48.47308" lon="7.21841">
        <ele>337.3329</ele>
        <time>2026-09-03T12:29:15Z</time>
      </trkpt>
      <trkpt lat="48.47312" lon="7.21838">
        <ele>337.3329</ele>
        <time>2026-09-03T12:29:22Z</time>
      </trkpt>
      <trkpt lat="48.47317" lon="7.21838">
        <ele>337.3329</ele>
        <time>2026-09-03T12:29:28Z</time>
      </trkpt>
      <trkpt lat="48.47322" lon="7.21838">
        <ele>337.3329</ele>
        <time>2026-09-03T12:29:36Z</time>
      </trkpt>
      <trkpt lat="48.47327" lon="7.21838">
        <ele>337.3329</ele>
        <time>2026-09-03T12:29:40Z</time>
      </trkpt>
      <trkpt lat="48.47332" lon="7.21837">
        <ele>337.3329</ele>
        <time>2026-09-03T12:29:46Z</time>
      </trkpt>
      <trkpt lat="48.47337" lon="7.21837">
        <ele>337.3329</ele>
        <time>2026-09-03T12:29:52Z</time>
      </trkpt>
      <trkpt lat="48.47343" lon="7.21836">
        <ele>337.3329</ele>
        <time>2026-09-03T12:30:00Z</time>
      </trkpt>
      <trkpt lat="48.47347" lon="7.21835">
        <ele>339.3732</ele>
        <time>2026-09-03T12:30:06Z</time>
      </trkpt>
      <trkpt lat="48.47352" lon="7.21835">
        <ele>341.4135</ele>
        <time>2026-09-03T12:30:10Z</time>
      </trkpt>
      <trkpt lat="48.47357" lon="7.21835">
        <ele>343.45383</ele>
        <time>2026-09-03T12:30:17Z</time>
      </trkpt>
      <trkpt lat="48.47361" lon="7.21835">
        <ele>345.49414</ele>
        <time>2026-09-03T12:30:21Z</time>
      </trkpt>
      <trkpt lat="48.47368" lon="7.21834">
        <ele>347.53445</ele>
        <time>2026-09-03T12:30:29Z</time>
      </trkpt>
      <trkpt lat="48.47372" lon="7.21834">
        <ele>347.53445</ele>
        <time>2026-09-03T12:30:35Z</time>
      </trkpt>
      <trkpt lat="48.47378" lon="7.21834">
        <ele>347.53445</ele>
        <time>2026-09-03T12:30:39Z</time>
      </trkpt>
      <trkpt lat="48.47382" lon="7.21833">
        <ele>347.53445</ele>
        <time>2026-09-03T12:30:47Z</time>
      </trkpt>
      <trkpt lat="48.47388" lon="7.21833">
        <ele>347.53445</ele>
        <time>2026-09-03T12:30:54Z</time>
      </trkpt>
      <trkpt lat="48.47393" lon="7.21833">
        <ele>347.53445</ele>
        <time>2026-09-03T12:30:59Z</time>
      </trkpt>
      <trkpt lat="48.47399" lon="7.21833">
        <ele>347.53445</ele>
        <time>2026-09-03T12:31:06Z</time>
      </trkpt>
      <trkpt lat="48.47403" lon="7.21833">
        <ele>347.53445</ele>
        <time>2026-09-03T12:31:12Z</time>
      </trkpt>
      <trkpt lat="48.47409" lon="7.21834">
        <ele>347.53445</ele>
        <time>2026-09-03T12:31:17Z</time>
      </trkpt>
      <trkpt lat="48.47415" lon="7.21841">
        <ele>347.53445</ele>
        <time>2026-09-03T12:33:05Z</time>
      </trkpt>
      <trkpt lat="48.4741" lon="7.21839">
        <ele>347.53445</ele>
        <time>2026-09-03T12:33:22Z</time>
      </trkpt>
      <trkpt lat="48.47414" lon="7.21833">
        <ele>347.53445</ele>
        <time>2026-09-03T12:33:26Z</time>
      </trkpt>
      <trkpt lat="48.47419" lon="7.21834">
        <ele>347.53445</ele>
        <time>2026-09-03T12:33:31Z</time>
      </trkpt>
      <trkpt lat="48.47424" lon="7.21837">
        <ele>347.53445</ele>
        <time>2026-09-03T12:33:35Z</time>
      </trkpt>
      <trkpt lat="48.47429" lon="7.21837">
        <ele>349.75778</ele>
        <time>2026-09-03T12:33:44Z</time>
      </trkpt>
      <trkpt lat="48.47434" lon="7.21837">
        <ele>351.9811</ele>
        <time>2026-09-03T12:33:49Z</time>
      </trkpt>
      <trkpt lat="48.47438" lon="7.21838">
        <ele>354.20444</ele>
        <time>2026-09-03T12:33:57Z</time>
      </trkpt>
      <trkpt lat="48.47443" lon="7.21839">
        <ele>356.42776</ele>
        <time>2026-09-03T12:34:00Z</time>
      </trkpt>
      <trkpt lat="48.47448" lon="7.2184">
        <ele>358.6511</ele>
        <time>2026-09-03T12:34:04Z</time>
      </trkpt>
      <trkpt lat="48.47453" lon="7.21843">
        <ele>358.6511</ele>
        <time>2026-09-03T12:34:10Z</time>
      </trkpt>
      <trkpt lat="48.47458" lon="7.21844">
        <ele>358.6511</ele>
        <time>2026-09-03T12:34:14Z</time>
      </trkpt>
      <trkpt lat="48.47465" lon="7.21846">
        <ele>358.6511</ele>
        <time>2026-09-03T12:34:20Z</time>
      </trkpt>
      <trkpt lat="48.4747" lon="7.21846">
        <ele>358.6511</ele>
        <time>2026-09-03T12:34:27Z</time>
      </trkpt>
      <trkpt lat="48.47474" lon="7.21847">
        <ele>358.6511</ele>
        <time>2026-09-03T12:34:31Z</time>
      </trkpt>
      <trkpt lat="48.47479" lon="7.21847">
        <ele>358.6511</ele>
        <time>2026-09-03T12:34:36Z</time>
      </trkpt>
      <trkpt lat="48.47484" lon="7.21849">
        <ele>358.6511</ele>
        <time>2026-09-03T12:34:44Z</time>
      </trkpt>
      <trkpt lat="48.47489" lon="7.21849">
        <ele>358.6511</ele>
        <time>2026-09-03T12:34:48Z</time>
      </trkpt>
      <trkpt lat="48.47494" lon="7.21849">
        <ele>358.6511</ele>
        <time>2026-09-03T12:34:54Z</time>
      </trkpt>
      <trkpt lat="48.47498" lon="7.2185">
        <ele>358.6511</ele>
        <time>2026-09-03T12:34:59Z</time>
      </trkpt>
      <trkpt lat="48.47503" lon="7.21851">
        <ele>360.89136</ele>
        <time>2026-09-03T12:35:04Z</time>
      </trkpt>
      <trkpt lat="48.47508" lon="7.21851">
        <ele>363.13162</ele>
        <time>2026-09-03T12:35:12Z</time>
      </trkpt>
      <trkpt lat="48.47513" lon="7.21852">
        <ele>365.37186</ele>
        <time>2026-09-03T12:35:17Z</time>
      </trkpt>
      <trkpt lat="48.47517" lon="7.21853">
        <ele>367.61212</ele>
        <time>2026-09-03T12:35:22Z</time>
      </trkpt>
      <trkpt lat="48.47523" lon="7.21854">
        <ele>369.8524</ele>
        <time>2026-09-03T12:35:27Z</time>
      </trkpt>
      <trkpt lat="48.47528" lon="7.21855">
        <ele>369.8524</ele>
        <time>2026-09-03T12:35:31Z</time>
      </trkpt>
      <trkpt lat="48.47533" lon="7.21856">
        <ele>369.8524</ele>
        <time>2026-09-03T12:35:38Z</time>
      </trkpt>
      <trkpt lat="48.47539" lon="7.21856">
        <ele>369.8524</ele>
        <time>2026-09-03T12:35:48Z</time>
      </trkpt>
      <trkpt lat="48.47544" lon="7.21858">
        <ele>369.8524</ele>
        <time>2026-09-03T12:35:53Z</time>
      </trkpt>
      <trkpt lat="48.47549" lon="7.2186">
        <ele>369.8524</ele>
        <time>2026-09-03T12:35:59Z</time>
      </trkpt>
      <trkpt lat="48.47554" lon="7.21864">
        <ele>369.8524</ele>
        <time>2026-09-03T12:36:05Z</time>
      </trkpt>
      <trkpt lat="48.47557" lon="7.21868">
        <ele>369.8524</ele>
        <time>2026-09-03T12:36:18Z</time>
      </trkpt>
      <trkpt lat="48.47562" lon="7.21873">
        <ele>369.8524</ele>
        <time>2026-09-03T12:36:24Z</time>
      </trkpt>
      <trkpt lat="48.47566" lon="7.21883">
        <ele>369.8524</ele>
        <time>2026-09-03T12:36:36Z</time>
      </trkpt>
      <trkpt lat="48.47565" lon="7.21875">
        <ele>369.8524</ele>
        <time>2026-09-03T12:38:16Z</time>
      </trkpt>
      <trkpt lat="48.4757" lon="7.21878">
        <ele>369.8524</ele>
        <time>2026-09-03T12:38:40Z</time>
      </trkpt>
      <trkpt lat="48.47564" lon="7.21884">
        <ele>369.8524</ele>
        <time>2026-09-03T12:39:05Z</time>
      </trkpt>
      <trkpt lat="48.47567" lon="7.21878">
        <ele>369.8524</ele>
        <time>2026-09-03T12:39:16Z</time>
      </trkpt>
      <trkpt lat="48.47567" lon="7.2187">
        <ele>369.8524</ele>
        <time>2026-09-03T12:39:22Z</time>
      </trkpt>
      <trkpt lat="48.4757" lon="7.21864">
        <ele>369.8524</ele>
        <time>2026-09-03T12:39:24Z</time>
      </trkpt>
      <trkpt lat="48.47575" lon="7.21867">
        <ele>369.8524</ele>
        <time>2026-09-03T12:39:30Z</time>
      </trkpt>
      <trkpt lat="48.47579" lon="7.21862">
        <ele>369.8524</ele>
        <time>2026-09-03T12:39:46Z</time>
      </trkpt>
      <trkpt lat="48.47585" lon="7.21858">
        <ele>369.8524</ele>
        <time>2026-09-03T12:39:59Z</time>
      </trkpt>
      <trkpt lat="48.47583" lon="7.21851">
        <ele>369.8524</ele>
        <time>2026-09-03T12:40:19Z</time>
      </trkpt>
      <trkpt lat="48.47586" lon="7.21846">
        <ele>369.8524</ele>
        <time>2026-09-03T12:40:26Z</time>
      </trkpt>
      <trkpt lat="48.4759" lon="7.21851">
        <ele>369.8524</ele>
        <time>2026-09-03T12:45:42Z</time>
      </trkpt>
      <trkpt lat="48.47582" lon="7.21853">
        <ele>369.8524</ele>
        <time>2026-09-03T12:47:04Z</time>
      </trkpt>
      <trkpt lat="48.47585" lon="7.21848">
        <ele>369.8524</ele>
        <time>2026-09-03T12:47:18Z</time>
      </trkpt>
      <trkpt lat="48.47584" lon="7.21854">
        <ele>369.8524</ele>
        <time>2026-09-03T12:47:34Z</time>
      </trkpt>
      <trkpt lat="48.4758" lon="7.21858">
        <ele>369.8524</ele>
        <time>2026-09-03T12:47:44Z</time>
      </trkpt>
      <trkpt lat="48.47578" lon="7.21865">
        <ele>369.8524</ele>
        <time>2026-09-03T12:47:51Z</time>
      </trkpt>
      <trkpt lat="48.47581" lon="7.21871">
        <ele>369.8524</ele>
        <time>2026-09-03T12:47:54Z</time>
      </trkpt>
      <trkpt lat="48.4758" lon="7.21878">
        <ele>369.8524</ele>
        <time>2026-09-03T12:48:01Z</time>
      </trkpt>
      <trkpt lat="48.47578" lon="7.21885">
        <ele>369.8524</ele>
        <time>2026-09-03T12:48:07Z</time>
      </trkpt>
      <trkpt lat="48.4758" lon="7.21893">
        <ele>369.8524</ele>
        <time>2026-09-03T12:48:09Z</time>
      </trkpt>
      <trkpt lat="48.47579" lon="7.21901">
        <ele>369.8524</ele>
        <time>2026-09-03T12:48:11Z</time>
      </trkpt>
      <trkpt lat="48.47574" lon="7.21898">
        <ele>369.8524</ele>
        <time>2026-09-03T12:48:18Z</time>
      </trkpt>
      <trkpt lat="48.47569" lon="7.21904">
        <ele>369.8524</ele>
        <time>2026-09-03T12:48:33Z</time>
      </trkpt>
      <trkpt lat="48.47574" lon="7.21901">
        <ele>369.8524</ele>
        <time>2026-09-03T12:48:35Z</time>
      </trkpt>
      <trkpt lat="48.47575" lon="7.21894">
        <ele>369.8524</ele>
        <time>2026-09-03T12:48:57Z</time>
      </trkpt>
      <trkpt lat="48.47569" lon="7.21886">
        <ele>369.8524</ele>
        <time>2026-09-03T12:49:01Z</time>
      </trkpt>
      <trkpt lat="48.47563" lon="7.21886">
        <ele>369.8524</ele>
        <time>2026-09-03T12:49:06Z</time>
      </trkpt>
      <trkpt lat="48.47559" lon="7.21876">
        <ele>369.8524</ele>
        <time>2026-09-03T12:49:10Z</time>
      </trkpt>
      <trkpt lat="48.47557" lon="7.21868">
        <ele>369.8524</ele>
        <time>2026-09-03T12:49:15Z</time>
      </trkpt>
      <trkpt lat="48.47553" lon="7.21864">
        <ele>369.8524</ele>
        <time>2026-09-03T12:49:26Z</time>
      </trkpt>
      <trkpt lat="48.47548" lon="7.21861">
        <ele>369.8524</ele>
        <time>2026-09-03T12:49:29Z</time>
      </trkpt>
      <trkpt lat="48.47544" lon="7.21859">
        <ele>369.8524</ele>
        <time>2026-09-03T12:49:35Z</time>
      </trkpt>
      <trkpt lat="48.4754" lon="7.21858">
        <ele>369.8524</ele>
        <time>2026-09-03T12:49:37Z</time>
      </trkpt>
      <trkpt lat="48.47533" lon="7.21858">
        <ele>369.8524</ele>
        <time>2026-09-03T12:49:39Z</time>
      </trkpt>
      <trkpt lat="48.47531" lon="7.21865">
        <ele>369.8524</ele>
        <time>2026-09-03T12:49:45Z</time>
      </trkpt>
      <trkpt lat="48.47529" lon="7.21871">
        <ele>369.8524</ele>
        <time>2026-09-03T12:49:51Z</time>
      </trkpt>
      <trkpt lat="48.47525" lon="7.21878">
        <ele>369.8524</ele>
        <time>2026-09-03T12:49:54Z</time>
      </trkpt>
      <trkpt lat="48.47519" lon="7.21874">
        <ele>369.8524</ele>
        <time>2026-09-03T12:49:59Z</time>
      </trkpt>
      <trkpt lat="48.47515" lon="7.21874">
        <ele>369.8524</ele>
        <time>2026-09-03T12:50:02Z</time>
      </trkpt>
      <trkpt lat="48.4751" lon="7.21875">
        <ele>369.8524</ele>
        <time>2026-09-03T12:50:06Z</time>
      </trkpt>
      <trkpt lat="48.47505" lon="7.21877">
        <ele>369.8524</ele>
        <time>2026-09-03T12:50:13Z</time>
      </trkpt>
      <trkpt lat="48.475" lon="7.21878">
        <ele>369.8524</ele>
        <time>2026-09-03T12:50:18Z</time>
      </trkpt>
      <trkpt lat="48.47495" lon="7.21878">
        <ele>369.8524</ele>
        <time>2026-09-03T12:50:25Z</time>
      </trkpt>
      <trkpt lat="48.47489" lon="7.21878">
        <ele>369.8524</ele>
        <time>2026-09-03T12:50:28Z</time>
      </trkpt>
      <trkpt lat="48.47485" lon="7.21879">
        <ele>369.8524</ele>
        <time>2026-09-03T12:50:36Z</time>
      </trkpt>
      <trkpt lat="48.4748" lon="7.21877">
        <ele>369.8524</ele>
        <time>2026-09-03T12:50:37Z</time>
      </trkpt>
      <trkpt lat="48.47474" lon="7.21876">
        <ele>369.8524</ele>
        <time>2026-09-03T12:50:40Z</time>
      </trkpt>
      <trkpt lat="48.47468" lon="7.21875">
        <ele>369.8524</ele>
        <time>2026-09-03T12:50:47Z</time>
      </trkpt>
      <trkpt lat="48.47463" lon="7.21875">
        <ele>369.8524</ele>
        <time>2026-09-03T12:50:51Z</time>
      </trkpt>
      <trkpt lat="48.47457" lon="7.21874">
        <ele>369.8524</ele>
        <time>2026-09-03T12:50:58Z</time>
      </trkpt>
      <trkpt lat="48.4745" lon="7.21873">
        <ele>369.8524</ele>
        <time>2026-09-03T12:51:03Z</time>
      </trkpt>
      <trkpt lat="48.47445" lon="7.21872">
        <ele>369.8524</ele>
        <time>2026-09-03T12:51:08Z</time>
      </trkpt>
      <trkpt lat="48.4744" lon="7.21872">
        <ele>369.8524</ele>
        <time>2026-09-03T12:51:15Z</time>
      </trkpt>
      <trkpt lat="48.47435" lon="7.21871">
        <ele>369.8524</ele>
        <time>2026-09-03T12:51:20Z</time>
      </trkpt>
      <trkpt lat="48.47429" lon="7.2187">
        <ele>369.8524</ele>
        <time>2026-09-03T12:51:23Z</time>
      </trkpt>
      <trkpt lat="48.47424" lon="7.21871">
        <ele>369.8524</ele>
        <time>2026-09-03T12:51:30Z</time>
      </trkpt>
      <trkpt lat="48.47418" lon="7.21871">
        <ele>369.8524</ele>
        <time>2026-09-03T12:51:35Z</time>
      </trkpt>
      <trkpt lat="48.47412" lon="7.21872">
        <ele>369.8524</ele>
        <time>2026-09-03T12:51:43Z</time>
      </trkpt>
      <trkpt lat="48.47407" lon="7.21872">
        <ele>369.8524</ele>
        <time>2026-09-03T12:51:48Z</time>
      </trkpt>
      <trkpt lat="48.47402" lon="7.21873">
        <ele>369.8524</ele>
        <time>2026-09-03T12:51:53Z</time>
      </trkpt>
      <trkpt lat="48.47396" lon="7.21874">
        <ele>369.8524</ele>
        <time>2026-09-03T12:52:00Z</time>
      </trkpt>
      <trkpt lat="48.47392" lon="7.21874">
        <ele>369.8524</ele>
        <time>2026-09-03T12:52:05Z</time>
      </trkpt>
      <trkpt lat="48.47387" lon="7.21875">
        <ele>369.8524</ele>
        <time>2026-09-03T12:52:07Z</time>
      </trkpt>
      <trkpt lat="48.47382" lon="7.21876">
        <ele>369.8524</ele>
        <time>2026-09-03T12:52:09Z</time>
      </trkpt>
      <trkpt lat="48.47377" lon="7.21877">
        <ele>369.8524</ele>
        <time>2026-09-03T12:52:18Z</time>
      </trkpt>
      <trkpt lat="48.47372" lon="7.21878">
        <ele>369.8524</ele>
        <time>2026-09-03T12:52:24Z</time>
      </trkpt>
      <trkpt lat="48.47367" lon="7.21878">
        <ele>369.8524</ele>
        <time>2026-09-03T12:52:28Z</time>
      </trkpt>
      <trkpt lat="48.47362" lon="7.2188">
        <ele>369.8524</ele>
        <time>2026-09-03T12:52:32Z</time>
      </trkpt>
      <trkpt lat="48.47355" lon="7.21882">
        <ele>372.33792</ele>
        <time>2026-09-03T12:52:40Z</time>
      </trkpt>
      <trkpt lat="48.4735" lon="7.21884">
        <ele>374.82346</ele>
        <time>2026-09-03T12:52:46Z</time>
      </trkpt>
      <trkpt lat="48.47344" lon="7.21885">
        <ele>377.30902</ele>
        <time>2026-09-03T12:52:50Z</time>
      </trkpt>
      <trkpt lat="48.47339" lon="7.21887">
        <ele>379.79456</ele>
        <time>2026-09-03T12:52:57Z</time>
      </trkpt>
      <trkpt lat="48.47334" lon="7.21889">
        <ele>382.2801</ele>
        <time>2026-09-03T12:53:02Z</time>
      </trkpt>
      <trkpt lat="48.47329" lon="7.21891">
        <ele>382.2801</ele>
        <time>2026-09-03T12:53:05Z</time>
      </trkpt>
      <trkpt lat="48.47324" lon="7.21892">
        <ele>382.2801</ele>
        <time>2026-09-03T12:53:13Z</time>
      </trkpt>
      <trkpt lat="48.47319" lon="7.21896">
        <ele>382.2801</ele>
        <time>2026-09-03T12:53:19Z</time>
      </trkpt>
      <trkpt lat="48.47314" lon="7.21899">
        <ele>382.2801</ele>
        <time>2026-09-03T12:53:24Z</time>
      </trkpt>
      <trkpt lat="48.4731" lon="7.21901">
        <ele>382.2801</ele>
        <time>2026-09-03T12:53:31Z</time>
      </trkpt>
      <trkpt lat="48.47305" lon="7.21906">
        <ele>382.2801</ele>
        <time>2026-09-03T12:53:37Z</time>
      </trkpt>
      <trkpt lat="48.47298" lon="7.21909">
        <ele>382.2801</ele>
        <time>2026-09-03T12:53:42Z</time>
      </trkpt>
      <trkpt lat="48.47293" lon="7.2191">
        <ele>382.2801</ele>
        <time>2026-09-03T12:53:45Z</time>
      </trkpt>
      <trkpt lat="48.47288" lon="7.21914">
        <ele>382.2801</ele>
        <time>2026-09-03T12:53:58Z</time>
      </trkpt>
      <trkpt lat="48.47284" lon="7.21918">
        <ele>382.2801</ele>
        <time>2026-09-03T12:54:03Z</time>
      </trkpt>
      <trkpt lat="48.4728" lon="7.21923">
        <ele>382.2801</ele>
        <time>2026-09-03T12:54:11Z</time>
      </trkpt>
      <trkpt lat="48.47278" lon="7.21929">
        <ele>382.2801</ele>
        <time>2026-09-03T12:54:16Z</time>
      </trkpt>
      <trkpt lat="48.47275" lon="7.21936">
        <ele>382.2801</ele>
        <time>2026-09-03T12:54:22Z</time>
      </trkpt>
      <trkpt lat="48.47274" lon="7.21943">
        <ele>382.2801</ele>
        <time>2026-09-03T12:54:25Z</time>
      </trkpt>
      <trkpt lat="48.47274" lon="7.2195">
        <ele>382.2801</ele>
        <time>2026-09-03T12:54:35Z</time>
      </trkpt>
      <trkpt lat="48.47274" lon="7.21957">
        <ele>382.2801</ele>
        <time>2026-09-03T12:54:40Z</time>
      </trkpt>
      <trkpt lat="48.47274" lon="7.21965">
        <ele>382.2801</ele>
        <time>2026-09-03T12:54:46Z</time>
      </trkpt>
      <trkpt lat="48.47274" lon="7.21972">
        <ele>382.2801</ele>
        <time>2026-09-03T12:54:53Z</time>
      </trkpt>
      <trkpt lat="48.47275" lon="7.2198">
        <ele>382.2801</ele>
        <time>2026-09-03T12:54:57Z</time>
      </trkpt>
      <trkpt lat="48.47275" lon="7.21988">
        <ele>382.2801</ele>
        <time>2026-09-03T12:55:06Z</time>
      </trkpt>
      <trkpt lat="48.47276" lon="7.21995">
        <ele>382.2801</ele>
        <time>2026-09-03T12:55:10Z</time>
      </trkpt>
      <trkpt lat="48.47276" lon="7.22002">
        <ele>384.3169</ele>
        <time>2026-09-03T12:55:14Z</time>
      </trkpt>
      <trkpt lat="48.47277" lon="7.22011">
        <ele>386.3537</ele>
        <time>2026-09-03T12:55:18Z</time>
      </trkpt>
      <trkpt lat="48.47278" lon="7.2202">
        <ele>388.39047</ele>
        <time>2026-09-03T12:55:27Z</time>
      </trkpt>
      <trkpt lat="48.47279" lon="7.22027">
        <ele>390.42728</ele>
        <time>2026-09-03T12:55:31Z</time>
      </trkpt>
      <trkpt lat="48.47279" lon="7.22034">
        <ele>392.46408</ele>
        <time>2026-09-03T12:55:38Z</time>
      </trkpt>
      <trkpt lat="48.47281" lon="7.22042">
        <ele>392.46408</ele>
        <time>2026-09-03T12:55:45Z</time>
      </trkpt>
      <trkpt lat="48.47285" lon="7.22045">
        <ele>392.46408</ele>
        <time>2026-09-03T12:56:10Z</time>
      </trkpt>
      <trkpt lat="48.4729" lon="7.22043">
        <ele>392.46408</ele>
        <time>2026-09-03T12:56:15Z</time>
      </trkpt>
      <trkpt lat="48.47287" lon="7.22048">
        <ele>392.46408</ele>
        <time>2026-09-03T12:56:30Z</time>
      </trkpt>
      <trkpt lat="48.47283" lon="7.22042">
        <ele>392.46408</ele>
        <time>2026-09-03T12:56:39Z</time>
      </trkpt>
      <trkpt lat="48.4729" lon="7.22047">
        <ele>392.46408</ele>
        <time>2026-09-03T12:57:07Z</time>
      </trkpt>
      <trkpt lat="48.47293" lon="7.22054">
        <ele>392.46408</ele>
        <time>2026-09-03T12:57:09Z</time>
      </trkpt>
      <trkpt lat="48.47289" lon="7.22049">
        <ele>392.46408</ele>
        <time>2026-09-03T12:57:42Z</time>
      </trkpt>
      <trkpt lat="48.47282" lon="7.2205">
        <ele>392.46408</ele>
        <time>2026-09-03T12:58:00Z</time>
      </trkpt>
      <trkpt lat="48.47289" lon="7.22052">
        <ele>392.46408</ele>
        <time>2026-09-03T12:58:08Z</time>
      </trkpt>
      <trkpt lat="48.47294" lon="7.22048">
        <ele>392.46408</ele>
        <time>2026-09-03T12:58:22Z</time>
      </trkpt>
      <trkpt lat="48.47289" lon="7.22047">
        <ele>392.46408</ele>
        <time>2026-09-03T12:59:01Z</time>
      </trkpt>
      <trkpt lat="48.47284" lon="7.22052">
        <ele>392.46408</ele>
        <time>2026-09-03T12:59:05Z</time>
      </trkpt>
      <trkpt lat="48.47287" lon="7.22061">
        <ele>392.46408</ele>
        <time>2026-09-03T12:59:43Z</time>
      </trkpt>
      <trkpt lat="48.4729" lon="7.22069">
        <ele>392.46408</ele>
        <time>2026-09-03T12:59:49Z</time>
      </trkpt>
      <trkpt lat="48.47292" lon="7.22077">
        <ele>392.46408</ele>
        <time>2026-09-03T12:59:53Z</time>
      </trkpt>
      <trkpt lat="48.47291" lon="7.22084">
        <ele>392.46408</ele>
        <time>2026-09-03T12:59:56Z</time>
      </trkpt>
      <trkpt lat="48.47287" lon="7.22089">
        <ele>392.46408</ele>
        <time>2026-09-03T13:00:05Z</time>
      </trkpt>
      <trkpt lat="48.47289" lon="7.22096">
        <ele>392.46408</ele>
        <time>2026-09-03T13:00:09Z</time>
      </trkpt>
      <trkpt lat="48.47291" lon="7.22104">
        <ele>392.46408</ele>
        <time>2026-09-03T13:00:11Z</time>
      </trkpt>
      <trkpt lat="48.47294" lon="7.22113">
        <ele>392.46408</ele>
        <time>2026-09-03T13:00:18Z</time>
      </trkpt>
      <trkpt lat="48.47295" lon="7.2212">
        <ele>392.46408</ele>
        <time>2026-09-03T13:00:24Z</time>
      </trkpt>
      <trkpt lat="48.47298" lon="7.22126">
        <ele>392.46408</ele>
        <time>2026-09-03T13:00:28Z</time>
      </trkpt>
      <trkpt lat="48.473" lon="7.22132">
        <ele>392.46408</ele>
        <time>2026-09-03T13:00:35Z</time>
      </trkpt>
      <trkpt lat="48.47303" lon="7.22139">
        <ele>394.52933</ele>
        <time>2026-09-03T13:00:42Z</time>
      </trkpt>
      <trkpt lat="48.47306" lon="7.22146">
        <ele>396.5946</ele>
        <time>2026-09-03T13:00:48Z</time>
      </trkpt>
      <trkpt lat="48.47308" lon="7.22152">
        <ele>398.65985</ele>
        <time>2026-09-03T13:00:51Z</time>
      </trkpt>
      <trkpt lat="48.4731" lon="7.22161">
        <ele>400.72513</ele>
        <time>2026-09-03T13:01:01Z</time>
      </trkpt>
      <trkpt lat="48.47311" lon="7.22168">
        <ele>402.79037</ele>
        <time>2026-09-03T13:01:10Z</time>
      </trkpt>
      <trkpt lat="48.47312" lon="7.22175">
        <ele>402.79037</ele>
        <time>2026-09-03T13:01:14Z</time>
      </trkpt>
      <trkpt lat="48.47313" lon="7.22183">
        <ele>402.79037</ele>
        <time>2026-09-03T13:01:20Z</time>
      </trkpt>
      <trkpt lat="48.47314" lon="7.2219">
        <ele>402.79037</ele>
        <time>2026-09-03T13:01:26Z</time>
      </trkpt>
      <trkpt lat="48.47314" lon="7.22198">
        <ele>402.79037</ele>
        <time>2026-09-03T13:01:32Z</time>
      </trkpt>
      <trkpt lat="48.47316" lon="7.22205">
        <ele>402.79037</ele>
        <time>2026-09-03T13:01:37Z</time>
      </trkpt>
      <trkpt lat="48.47316" lon="7.22212">
        <ele>402.79037</ele>
        <time>2026-09-03T13:01:42Z</time>
      </trkpt>
      <trkpt lat="48.47319" lon="7.22219">
        <ele>402.79037</ele>
        <time>2026-09-03T13:01:46Z</time>
      </trkpt>
      <trkpt lat="48.47321" lon="7.22226">
        <ele>402.79037</ele>
        <time>2026-09-03T13:01:53Z</time>
      </trkpt>
      <trkpt lat="48.47323" lon="7.22232">
        <ele>402.79037</ele>
        <time>2026-09-03T13:01:58Z</time>
      </trkpt>
      <trkpt lat="48.47326" lon="7.22238">
        <ele>402.79037</ele>
        <time>2026-09-03T13:02:06Z</time>
      </trkpt>
      <trkpt lat="48.47329" lon="7.22244">
        <ele>404.83707</ele>
        <time>2026-09-03T13:02:13Z</time>
      </trkpt>
      <trkpt lat="48.47332" lon="7.2225">
        <ele>406.88376</ele>
        <time>2026-09-03T13:02:18Z</time>
      </trkpt>
      <trkpt lat="48.47334" lon="7.22256">
        <ele>408.93042</ele>
        <time>2026-09-03T13:02:24Z</time>
      </trkpt>
      <trkpt lat="48.47336" lon="7.22263">
        <ele>410.9771</ele>
        <time>2026-09-03T13:02:30Z</time>
      </trkpt>
      <trkpt lat="48.47338" lon="7.22271">
        <ele>413.0238</ele>
        <time>2026-09-03T13:02:36Z</time>
      </trkpt>
      <trkpt lat="48.4734" lon="7.22277">
        <ele>413.0238</ele>
        <time>2026-09-03T13:02:41Z</time>
      </trkpt>
      <trkpt lat="48.47343" lon="7.22283">
        <ele>413.0238</ele>
        <time>2026-09-03T13:02:47Z</time>
      </trkpt>
      <trkpt lat="48.47346" lon="7.22289">
        <ele>413.0238</ele>
        <time>2026-09-03T13:02:52Z</time>
      </trkpt>
      <trkpt lat="48.4735" lon="7.22294">
        <ele>413.0238</ele>
        <time>2026-09-03T13:02:58Z</time>
      </trkpt>
      <trkpt lat="48.47354" lon="7.22297">
        <ele>413.0238</ele>
        <time>2026-09-03T13:07:56Z</time>
      </trkpt>
      <trkpt lat="48.47357" lon="7.22302">
        <ele>413.0238</ele>
        <time>2026-09-03T13:08:05Z</time>
      </trkpt>
      <trkpt lat="48.47361" lon="7.22306">
        <ele>413.0238</ele>
        <time>2026-09-03T13:08:13Z</time>
      </trkpt>
      <trkpt lat="48.47365" lon="7.22311">
        <ele>413.0238</ele>
        <time>2026-09-03T13:08:19Z</time>
      </trkpt>
      <trkpt lat="48.47369" lon="7.22314">
        <ele>413.0238</ele>
        <time>2026-09-03T13:08:24Z</time>
      </trkpt>
      <trkpt lat="48.47373" lon="7.22319">
        <ele>413.0238</ele>
        <time>2026-09-03T13:08:29Z</time>
      </trkpt>
      <trkpt lat="48.47377" lon="7.22323">
        <ele>413.0238</ele>
        <time>2026-09-03T13:08:35Z</time>
      </trkpt>
      <trkpt lat="48.47382" lon="7.22328">
        <ele>413.0238</ele>
        <time>2026-09-03T13:08:41Z</time>
      </trkpt>
      <trkpt lat="48.47385" lon="7.22333">
        <ele>413.0238</ele>
        <time>2026-09-03T13:08:46Z</time>
      </trkpt>
      <trkpt lat="48.47389" lon="7.22337">
        <ele>413.0238</ele>
        <time>2026-09-03T13:08:52Z</time>
      </trkpt>
      <trkpt lat="48.47392" lon="7.22343">
        <ele>413.0238</ele>
        <time>2026-09-03T13:08:58Z</time>
      </trkpt>
      <trkpt lat="48.47397" lon="7.22343">
        <ele>413.0238</ele>
        <time>2026-09-03T13:09:12Z</time>
      </trkpt>
      <trkpt lat="48.47401" lon="7.22342">
        <ele>413.0238</ele>
        <time>2026-09-03T13:09:21Z</time>
      </trkpt>
      <trkpt lat="48.47402" lon="7.2235">
        <ele>413.0238</ele>
        <time>2026-09-03T13:11:20Z</time>
      </trkpt>
      <trkpt lat="48.47397" lon="7.22352">
        <ele>413.0238</ele>
        <time>2026-09-03T13:11:26Z</time>
      </trkpt>
      <trkpt lat="48.47395" lon="7.22358">
        <ele>413.0238</ele>
        <time>2026-09-03T13:11:58Z</time>
      </trkpt>
      <trkpt lat="48.47399" lon="7.22357">
        <ele>413.0238</ele>
        <time>2026-09-03T13:12:02Z</time>
      </trkpt>
      <trkpt lat="48.47401" lon="7.22364">
        <ele>413.0238</ele>
        <time>2026-09-03T13:12:17Z</time>
      </trkpt>
      <trkpt lat="48.47405" lon="7.22369">
        <ele>413.0238</ele>
        <time>2026-09-03T13:12:23Z</time>
      </trkpt>
      <trkpt lat="48.47407" lon="7.22376">
        <ele>413.0238</ele>
        <time>2026-09-03T13:12:29Z</time>
      </trkpt>
      <trkpt lat="48.47408" lon="7.22383">
        <ele>413.0238</ele>
        <time>2026-09-03T13:12:37Z</time>
      </trkpt>
      <trkpt lat="48.47411" lon="7.22389">
        <ele>413.0238</ele>
        <time>2026-09-03T13:12:43Z</time>
      </trkpt>
      <trkpt lat="48.47413" lon="7.22396">
        <ele>413.0238</ele>
        <time>2026-09-03T13:12:49Z</time>
      </trkpt>
      <trkpt lat="48.47414" lon="7.22402">
        <ele>413.0238</ele>
        <time>2026-09-03T13:12:54Z</time>
      </trkpt>
      <trkpt lat="48.47416" lon="7.22409">
        <ele>413.0238</ele>
        <time>2026-09-03T13:13:01Z</time>
      </trkpt>
      <trkpt lat="48.47418" lon="7.22415">
        <ele>413.0238</ele>
        <time>2026-09-03T13:13:05Z</time>
      </trkpt>
      <trkpt lat="48.47418" lon="7.22424">
        <ele>413.0238</ele>
        <time>2026-09-03T13:13:12Z</time>
      </trkpt>
      <trkpt lat="48.4742" lon="7.22431">
        <ele>413.0238</ele>
        <time>2026-09-03T13:13:18Z</time>
      </trkpt>
      <trkpt lat="48.47421" lon="7.22437">
        <ele>413.0238</ele>
        <time>2026-09-03T13:13:24Z</time>
      </trkpt>
      <trkpt lat="48.47422" lon="7.22445">
        <ele>413.0238</ele>
        <time>2026-09-03T13:13:31Z</time>
      </trkpt>
      <trkpt lat="48.47422" lon="7.22452">
        <ele>413.0238</ele>
        <time>2026-09-03T13:13:37Z</time>
      </trkpt>
      <trkpt lat="48.47422" lon="7.22459">
        <ele>413.0238</ele>
        <time>2026-09-03T13:13:42Z</time>
      </trkpt>
      <trkpt lat="48.47423" lon="7.22466">
        <ele>413.0238</ele>
        <time>2026-09-03T13:13:48Z</time>
      </trkpt>
      <trkpt lat="48.47424" lon="7.22474">
        <ele>413.0238</ele>
        <time>2026-09-03T13:13:54Z</time>
      </trkpt>
      <trkpt lat="48.47425" lon="7.22482">
        <ele>413.0238</ele>
        <time>2026-09-03T13:14:00Z</time>
      </trkpt>
      <trkpt lat="48.47426" lon="7.22491">
        <ele>413.0238</ele>
        <time>2026-09-03T13:14:06Z</time>
      </trkpt>
      <trkpt lat="48.47427" lon="7.22498">
        <ele>413.0238</ele>
        <time>2026-09-03T13:14:12Z</time>
      </trkpt>
      <trkpt lat="48.47428" lon="7.22506">
        <ele>413.0238</ele>
        <time>2026-09-03T13:14:18Z</time>
      </trkpt>
      <trkpt lat="48.47429" lon="7.22514">
        <ele>413.0238</ele>
        <time>2026-09-03T13:14:24Z</time>
      </trkpt>
      <trkpt lat="48.47429" lon="7.22521">
        <ele>413.0238</ele>
        <time>2026-09-03T13:14:29Z</time>
      </trkpt>
      <trkpt lat="48.4743" lon="7.22527">
        <ele>413.0238</ele>
        <time>2026-09-03T13:14:35Z</time>
      </trkpt>
      <trkpt lat="48.47431" lon="7.22534">
        <ele>413.0238</ele>
        <time>2026-09-03T13:14:40Z</time>
      </trkpt>
      <trkpt lat="48.47432" lon="7.22542">
        <ele>413.0238</ele>
        <time>2026-09-03T13:14:45Z</time>
      </trkpt>
      <trkpt lat="48.47432" lon="7.22549">
        <ele>413.0238</ele>
        <time>2026-09-03T13:14:51Z</time>
      </trkpt>
      <trkpt lat="48.47433" lon="7.22556">
        <ele>413.0238</ele>
        <time>2026-09-03T13:14:56Z</time>
      </trkpt>
      <trkpt lat="48.47432" lon="7.22564">
        <ele>413.0238</ele>
        <time>2026-09-03T13:15:02Z</time>
      </trkpt>
      <trkpt lat="48.47433" lon="7.22571">
        <ele>413.0238</ele>
        <time>2026-09-03T13:15:06Z</time>
      </trkpt>
      <trkpt lat="48.47434" lon="7.22578">
        <ele>413.0238</ele>
        <time>2026-09-03T13:15:12Z</time>
      </trkpt>
      <trkpt lat="48.47434" lon="7.22586">
        <ele>413.0238</ele>
        <time>2026-09-03T13:15:18Z</time>
      </trkpt>
      <trkpt lat="48.47435" lon="7.22593">
        <ele>413.0238</ele>
        <time>2026-09-03T13:15:23Z</time>
      </trkpt>
      <trkpt lat="48.47435" lon="7.22601">
        <ele>413.0238</ele>
        <time>2026-09-03T13:15:29Z</time>
      </trkpt>
      <trkpt lat="48.47436" lon="7.22609">
        <ele>413.0238</ele>
        <time>2026-09-03T13:15:35Z</time>
      </trkpt>
      <trkpt lat="48.47437" lon="7.22616">
        <ele>413.0238</ele>
        <time>2026-09-03T13:15:40Z</time>
      </trkpt>
      <trkpt lat="48.47438" lon="7.22623">
        <ele>413.0238</ele>
        <time>2026-09-03T13:15:46Z</time>
      </trkpt>
      <trkpt lat="48.47438" lon="7.22631">
        <ele>413.0238</ele>
        <time>2026-09-03T13:15:52Z</time>
      </trkpt>
      <trkpt lat="48.4744" lon="7.22638">
        <ele>413.0238</ele>
        <time>2026-09-03T13:15:58Z</time>
      </trkpt>
      <trkpt lat="48.47441" lon="7.22645">
        <ele>413.0238</ele>
        <time>2026-09-03T13:16:04Z</time>
      </trkpt>
      <trkpt lat="48.47442" lon="7.22652">
        <ele>410.93103</ele>
        <time>2026-09-03T13:16:10Z</time>
      </trkpt>
      <trkpt lat="48.47443" lon="7.22659">
        <ele>408.83823</ele>
        <time>2026-09-03T13:16:15Z</time>
      </trkpt>
      <trkpt lat="48.47445" lon="7.22667">
        <ele>406.74545</ele>
        <time>2026-09-03T13:16:21Z</time>
      </trkpt>
      <trkpt lat="48.47447" lon="7.22674">
        <ele>404.65265</ele>
        <time>2026-09-03T13:16:29Z</time>
      </trkpt>
      <trkpt lat="48.47449" lon="7.22682">
        <ele>402.55988</ele>
        <time>2026-09-03T13:16:35Z</time>
      </trkpt>
      <trkpt lat="48.47451" lon="7.22689">
        <ele>402.55988</ele>
        <time>2026-09-03T13:16:41Z</time>
      </trkpt>
      <trkpt lat="48.47452" lon="7.22696">
        <ele>402.55988</ele>
        <time>2026-09-03T13:16:47Z</time>
      </trkpt>
      <trkpt lat="48.47453" lon="7.22703">
        <ele>402.55988</ele>
        <time>2026-09-03T13:16:53Z</time>
      </trkpt>
      <trkpt lat="48.47455" lon="7.2271">
        <ele>402.55988</ele>
        <time>2026-09-03T13:16:58Z</time>
      </trkpt>
      <trkpt lat="48.47457" lon="7.22717">
        <ele>402.55988</ele>
        <time>2026-09-03T13:17:04Z</time>
      </trkpt>
      <trkpt lat="48.47458" lon="7.22724">
        <ele>402.55988</ele>
        <time>2026-09-03T13:17:10Z</time>
      </trkpt>
      <trkpt lat="48.4746" lon="7.22731">
        <ele>402.55988</ele>
        <time>2026-09-03T13:17:16Z</time>
      </trkpt>
      <trkpt lat="48.47461" lon="7.22739">
        <ele>402.55988</ele>
        <time>2026-09-03T13:17:22Z</time>
      </trkpt>
      <trkpt lat="48.47462" lon="7.22746">
        <ele>402.55988</ele>
        <time>2026-09-03T13:17:27Z</time>
      </trkpt>
      <trkpt lat="48.47463" lon="7.22753">
        <ele>402.55988</ele>
        <time>2026-09-03T13:17:32Z</time>
      </trkpt>
      <trkpt lat="48.47463" lon="7.2276">
        <ele>400.39447</ele>
        <time>2026-09-03T13:17:37Z</time>
      </trkpt>
      <trkpt lat="48.47463" lon="7.22767">
        <ele>398.22906</ele>
        <time>2026-09-03T13:17:43Z</time>
      </trkpt>
      <trkpt lat="48.47464" lon="7.22775">
        <ele>396.06366</ele>
        <time>2026-09-03T13:17:49Z</time>
      </trkpt>
      <trkpt lat="48.47465" lon="7.22782">
        <ele>393.89825</ele>
        <time>2026-09-03T13:17:55Z</time>
      </trkpt>
      <trkpt lat="48.47466" lon="7.22789">
        <ele>391.73285</ele>
        <time>2026-09-03T13:18:01Z</time>
      </trkpt>
      <trkpt lat="48.47467" lon="7.22796">
        <ele>391.73285</ele>
        <time>2026-09-03T13:18:08Z</time>
      </trkpt>
      <trkpt lat="48.47469" lon="7.22803">
        <ele>391.73285</ele>
        <time>2026-09-03T13:18:14Z</time>
      </trkpt>
      <trkpt lat="48.47471" lon="7.22809">
        <ele>391.73285</ele>
        <time>2026-09-03T13:18:22Z</time>
      </trkpt>
      <trkpt lat="48.47473" lon="7.22815">
        <ele>391.73285</ele>
        <time>2026-09-03T13:18:28Z</time>
      </trkpt>
      <trkpt lat="48.47475" lon="7.22822">
        <ele>391.73285</ele>
        <time>2026-09-03T13:18:34Z</time>
      </trkpt>
      <trkpt lat="48.47478" lon="7.22828">
        <ele>391.73285</ele>
        <time>2026-09-03T13:18:42Z</time>
      </trkpt>
      <trkpt lat="48.47481" lon="7.22834">
        <ele>391.73285</ele>
        <time>2026-09-03T13:18:48Z</time>
      </trkpt>
      <trkpt lat="48.47483" lon="7.2284">
        <ele>389.72772</ele>
        <time>2026-09-03T13:18:55Z</time>
      </trkpt>
      <trkpt lat="48.47486" lon="7.22845">
        <ele>387.72256</ele>
        <time>2026-09-03T13:19:01Z</time>
      </trkpt>
      <trkpt lat="48.47489" lon="7.2285">
        <ele>385.71744</ele>
        <time>2026-09-03T13:19:08Z</time>
      </trkpt>
      <trkpt lat="48.47493" lon="7.22856">
        <ele>383.71228</ele>
        <time>2026-09-03T13:19:16Z</time>
      </trkpt>
      <trkpt lat="48.47496" lon="7.2286">
        <ele>381.70715</ele>
        <time>2026-09-03T13:19:23Z</time>
      </trkpt>
      <trkpt lat="48.475" lon="7.22865">
        <ele>381.70715</ele>
        <time>2026-09-03T13:19:30Z</time>
      </trkpt>
      <trkpt lat="48.47504" lon="7.2287">
        <ele>381.70715</ele>
        <time>2026-09-03T13:19:37Z</time>
      </trkpt>
      <trkpt lat="48.47506" lon="7.22875">
        <ele>381.70715</ele>
        <time>2026-09-03T13:19:43Z</time>
      </trkpt>
      <trkpt lat="48.47507" lon="7.22883">
        <ele>381.70715</ele>
        <time>2026-09-03T13:19:48Z</time>
      </trkpt>
      <trkpt lat="48.47505" lon="7.2289">
        <ele>381.70715</ele>
        <time>2026-09-03T13:19:54Z</time>
      </trkpt>
      <trkpt lat="48.47502" lon="7.22896">
        <ele>381.70715</ele>
        <time>2026-09-03T13:20:02Z</time>
      </trkpt>
      <trkpt lat="48.47498" lon="7.229">
        <ele>381.70715</ele>
        <time>2026-09-03T13:20:07Z</time>
      </trkpt>
      <trkpt lat="48.47493" lon="7.22904">
        <ele>381.70715</ele>
        <time>2026-09-03T13:20:13Z</time>
      </trkpt>
      <trkpt lat="48.47489" lon="7.22908">
        <ele>381.70715</ele>
        <time>2026-09-03T13:20:19Z</time>
      </trkpt>
      <trkpt lat="48.47485" lon="7.22911">
        <ele>381.70715</ele>
        <time>2026-09-03T13:20:25Z</time>
      </trkpt>
      <trkpt lat="48.4748" lon="7.22914">
        <ele>381.70715</ele>
        <time>2026-09-03T13:20:31Z</time>
      </trkpt>
      <trkpt lat="48.47475" lon="7.22917">
        <ele>381.70715</ele>
        <time>2026-09-03T13:20:37Z</time>
      </trkpt>
      <trkpt lat="48.4747" lon="7.2292">
        <ele>381.70715</ele>
        <time>2026-09-03T13:20:41Z</time>
      </trkpt>
      <trkpt lat="48.47466" lon="7.22922">
        <ele>381.70715</ele>
        <time>2026-09-03T13:20:46Z</time>
      </trkpt>
      <trkpt lat="48.47461" lon="7.22925">
        <ele>381.70715</ele>
        <time>2026-09-03T13:20:51Z</time>
      </trkpt>
      <trkpt lat="48.47456" lon="7.22928">
        <ele>381.70715</ele>
        <time>2026-09-03T13:20:56Z</time>
      </trkpt>
      <trkpt lat="48.47451" lon="7.2293">
        <ele>381.70715</ele>
        <time>2026-09-03T13:21:01Z</time>
      </trkpt>
      <trkpt lat="48.47447" lon="7.22933">
        <ele>381.70715</ele>
        <time>2026-09-03T13:21:06Z</time>
      </trkpt>
      <trkpt lat="48.47443" lon="7.22936">
        <ele>381.70715</ele>
        <time>2026-09-03T13:21:12Z</time>
      </trkpt>
      <trkpt lat="48.47438" lon="7.22939">
        <ele>381.70715</ele>
        <time>2026-09-03T13:21:18Z</time>
      </trkpt>
      <trkpt lat="48.47433" lon="7.22942">
        <ele>381.70715</ele>
        <time>2026-09-03T13:21:37Z</time>
      </trkpt>
      <trkpt lat="48.47428" lon="7.22945">
        <ele>381.70715</ele>
        <time>2026-09-03T13:21:42Z</time>
      </trkpt>
      <trkpt lat="48.47424" lon="7.22949">
        <ele>381.70715</ele>
        <time>2026-09-03T13:21:48Z</time>
      </trkpt>
      <trkpt lat="48.47419" lon="7.22953">
        <ele>381.70715</ele>
        <time>2026-09-03T13:21:52Z</time>
      </trkpt>
      <trkpt lat="48.47415" lon="7.22956">
        <ele>381.70715</ele>
        <time>2026-09-03T13:21:57Z</time>
      </trkpt>
      <trkpt lat="48.47411" lon="7.22958">
        <ele>381.70715</ele>
        <time>2026-09-03T13:22:02Z</time>
      </trkpt>
      <trkpt lat="48.47406" lon="7.22961">
        <ele>381.70715</ele>
        <time>2026-09-03T13:22:07Z</time>
      </trkpt>
      <trkpt lat="48.47401" lon="7.22962">
        <ele>381.70715</ele>
        <time>2026-09-03T13:22:11Z</time>
      </trkpt>
      <trkpt lat="48.47397" lon="7.22965">
        <ele>381.70715</ele>
        <time>2026-09-03T13:22:16Z</time>
      </trkpt>
      <trkpt lat="48.47392" lon="7.2297">
        <ele>381.70715</ele>
        <time>2026-09-03T13:22:21Z</time>
      </trkpt>
      <trkpt lat="48.47389" lon="7.22974">
        <ele>381.70715</ele>
        <time>2026-09-03T13:22:26Z</time>
      </trkpt>
      <trkpt lat="48.47384" lon="7.22977">
        <ele>381.70715</ele>
        <time>2026-09-03T13:22:31Z</time>
      </trkpt>
      <trkpt lat="48.47379" lon="7.2298">
        <ele>381.70715</ele>
        <time>2026-09-03T13:22:37Z</time>
      </trkpt>
      <trkpt lat="48.47374" lon="7.22983">
        <ele>381.70715</ele>
        <time>2026-09-03T13:22:42Z</time>
      </trkpt>
      <trkpt lat="48.4737" lon="7.22985">
        <ele>381.70715</ele>
        <time>2026-09-03T13:22:46Z</time>
      </trkpt>
      <trkpt lat="48.47365" lon="7.22989">
        <ele>381.70715</ele>
        <time>2026-09-03T13:22:51Z</time>
      </trkpt>
      <trkpt lat="48.47361" lon="7.22993">
        <ele>381.70715</ele>
        <time>2026-09-03T13:22:56Z</time>
      </trkpt>
      <trkpt lat="48.47356" lon="7.22997">
        <ele>381.70715</ele>
        <time>2026-09-03T13:23:01Z</time>
      </trkpt>
      <trkpt lat="48.47352" lon="7.23001">
        <ele>381.70715</ele>
        <time>2026-09-03T13:23:05Z</time>
      </trkpt>
      <trkpt lat="48.47348" lon="7.23003">
        <ele>381.70715</ele>
        <time>2026-09-03T13:23:11Z</time>
      </trkpt>
      <trkpt lat="48.47344" lon="7.23">
        <ele>381.70715</ele>
        <time>2026-09-03T13:23:15Z</time>
      </trkpt>
      <trkpt lat="48.47339" lon="7.22998">
        <ele>381.70715</ele>
        <time>2026-09-03T13:23:20Z</time>
      </trkpt>
      <trkpt lat="48.47334" lon="7.22997">
        <ele>381.70715</ele>
        <time>2026-09-03T13:23:25Z</time>
      </trkpt>
      <trkpt lat="48.4733" lon="7.22995">
        <ele>381.70715</ele>
        <time>2026-09-03T13:23:30Z</time>
      </trkpt>
      <trkpt lat="48.47324" lon="7.22995">
        <ele>381.70715</ele>
        <time>2026-09-03T13:23:35Z</time>
      </trkpt>
      <trkpt lat="48.4732" lon="7.22993">
        <ele>381.70715</ele>
        <time>2026-09-03T13:23:40Z</time>
      </trkpt>
      <trkpt lat="48.47315" lon="7.22992">
        <ele>381.70715</ele>
        <time>2026-09-03T13:23:46Z</time>
      </trkpt>
      <trkpt lat="48.4731" lon="7.22989">
        <ele>381.70715</ele>
        <time>2026-09-03T13:23:51Z</time>
      </trkpt>
      <trkpt lat="48.47305" lon="7.22989">
        <ele>381.70715</ele>
        <time>2026-09-03T13:23:55Z</time>
      </trkpt>
      <trkpt lat="48.473" lon="7.22987">
        <ele>381.70715</ele>
        <time>2026-09-03T13:24:00Z</time>
      </trkpt>
      <trkpt lat="48.47295" lon="7.22987">
        <ele>381.70715</ele>
        <time>2026-09-03T13:24:05Z</time>
      </trkpt>
      <trkpt lat="48.4729" lon="7.22985">
        <ele>381.70715</ele>
        <time>2026-09-03T13:24:11Z</time>
      </trkpt>
      <trkpt lat="48.47285" lon="7.22983">
        <ele>381.70715</ele>
        <time>2026-09-03T13:24:17Z</time>
      </trkpt>
      <trkpt lat="48.47281" lon="7.22982">
        <ele>381.70715</ele>
        <time>2026-09-03T13:24:23Z</time>
      </trkpt>
      <trkpt lat="48.47276" lon="7.22981">
        <ele>381.70715</ele>
        <time>2026-09-03T13:24:28Z</time>
      </trkpt>
      <trkpt lat="48.47272" lon="7.22977">
        <ele>381.70715</ele>
        <time>2026-09-03T13:24:34Z</time>
      </trkpt>
      <trkpt lat="48.47267" lon="7.22976">
        <ele>381.70715</ele>
        <time>2026-09-03T13:24:39Z</time>
      </trkpt>
      <trkpt lat="48.47262" lon="7.22974">
        <ele>381.70715</ele>
        <time>2026-09-03T13:24:44Z</time>
      </trkpt>
      <trkpt lat="48.47258" lon="7.22973">
        <ele>381.70715</ele>
        <time>2026-09-03T13:24:49Z</time>
      </trkpt>
      <trkpt lat="48.47253" lon="7.2297">
        <ele>381.70715</ele>
        <time>2026-09-03T13:24:55Z</time>
      </trkpt>
      <trkpt lat="48.47248" lon="7.2297">
        <ele>381.70715</ele>
        <time>2026-09-03T13:25:01Z</time>
      </trkpt>
      <trkpt lat="48.47243" lon="7.22969">
        <ele>381.70715</ele>
        <time>2026-09-03T13:25:09Z</time>
      </trkpt>
      <trkpt lat="48.47238" lon="7.22969">
        <ele>381.70715</ele>
        <time>2026-09-03T13:25:14Z</time>
      </trkpt>
      <trkpt lat="48.47234" lon="7.22965">
        <ele>381.70715</ele>
        <time>2026-09-03T13:25:20Z</time>
      </trkpt>
      <trkpt lat="48.47228" lon="7.22966">
        <ele>381.70715</ele>
        <time>2026-09-03T13:25:25Z</time>
      </trkpt>
      <trkpt lat="48.47223" lon="7.22966">
        <ele>381.70715</ele>
        <time>2026-09-03T13:25:30Z</time>
      </trkpt>
      <trkpt lat="48.47219" lon="7.22966">
        <ele>381.70715</ele>
        <time>2026-09-03T13:25:36Z</time>
      </trkpt>
      <trkpt lat="48.47214" lon="7.22963">
        <ele>381.70715</ele>
        <time>2026-09-03T13:25:42Z</time>
      </trkpt>
      <trkpt lat="48.47209" lon="7.22962">
        <ele>381.70715</ele>
        <time>2026-09-03T13:25:48Z</time>
      </trkpt>
      <trkpt lat="48.47205" lon="7.2296">
        <ele>381.70715</ele>
        <time>2026-09-03T13:26:00Z</time>
      </trkpt>
      <trkpt lat="48.472" lon="7.22959">
        <ele>381.70715</ele>
        <time>2026-09-03T13:26:05Z</time>
      </trkpt>
      <trkpt lat="48.47195" lon="7.22958">
        <ele>383.75836</ele>
        <time>2026-09-03T13:26:10Z</time>
      </trkpt>
      <trkpt lat="48.47191" lon="7.22955">
        <ele>385.8096</ele>
        <time>2026-09-03T13:26:16Z</time>
      </trkpt>
      <trkpt lat="48.47186" lon="7.22956">
        <ele>387.8608</ele>
        <time>2026-09-03T13:26:21Z</time>
      </trkpt>
      <trkpt lat="48.47181" lon="7.22955">
        <ele>389.91205</ele>
        <time>2026-09-03T13:26:26Z</time>
      </trkpt>
      <trkpt lat="48.47175" lon="7.22954">
        <ele>391.96326</ele>
        <time>2026-09-03T13:26:31Z</time>
      </trkpt>
      <trkpt lat="48.47171" lon="7.22953">
        <ele>391.96326</ele>
        <time>2026-09-03T13:26:36Z</time>
      </trkpt>
      <trkpt lat="48.47166" lon="7.22953">
        <ele>391.96326</ele>
        <time>2026-09-03T13:26:41Z</time>
      </trkpt>
      <trkpt lat="48.47161" lon="7.22952">
        <ele>391.96326</ele>
        <time>2026-09-03T13:26:46Z</time>
      </trkpt>
      <trkpt lat="48.47156" lon="7.22952">
        <ele>391.96326</ele>
        <time>2026-09-03T13:26:51Z</time>
      </trkpt>
      <trkpt lat="48.47151" lon="7.22952">
        <ele>391.96326</ele>
        <time>2026-09-03T13:26:56Z</time>
      </trkpt>
      <trkpt lat="48.47147" lon="7.22953">
        <ele>391.96326</ele>
        <time>2026-09-03T13:27:02Z</time>
      </trkpt>
      <trkpt lat="48.47142" lon="7.22952">
        <ele>391.96326</ele>
        <time>2026-09-03T13:27:07Z</time>
      </trkpt>
      <trkpt lat="48.47137" lon="7.22952">
        <ele>391.96326</ele>
        <time>2026-09-03T13:27:12Z</time>
      </trkpt>
      <trkpt lat="48.47132" lon="7.22951">
        <ele>391.96326</ele>
        <time>2026-09-03T13:27:17Z</time>
      </trkpt>
      <trkpt lat="48.47127" lon="7.22951">
        <ele>391.96326</ele>
        <time>2026-09-03T13:27:22Z</time>
      </trkpt>
      <trkpt lat="48.47123" lon="7.2295">
        <ele>394.1915</ele>
        <time>2026-09-03T13:27:27Z</time>
      </trkpt>
      <trkpt lat="48.47118" lon="7.22952">
        <ele>396.41977</ele>
        <time>2026-09-03T13:27:32Z</time>
      </trkpt>
      <trkpt lat="48.47113" lon="7.22953">
        <ele>398.648</ele>
        <time>2026-09-03T13:27:37Z</time>
      </trkpt>
      <trkpt lat="48.47108" lon="7.22954">
        <ele>400.87628</ele>
        <time>2026-09-03T13:27:42Z</time>
      </trkpt>
      <trkpt lat="48.47103" lon="7.22954">
        <ele>403.10452</ele>
        <time>2026-09-03T13:27:47Z</time>
      </trkpt>
      <trkpt lat="48.47098" lon="7.22953">
        <ele>403.10452</ele>
        <time>2026-09-03T13:27:52Z</time>
      </trkpt>
      <trkpt lat="48.47092" lon="7.22956">
        <ele>403.10452</ele>
        <time>2026-09-03T13:27:58Z</time>
      </trkpt>
      <trkpt lat="48.47088" lon="7.22959">
        <ele>403.10452</ele>
        <time>2026-09-03T13:28:03Z</time>
      </trkpt>
      <trkpt lat="48.47083" lon="7.2296">
        <ele>403.10452</ele>
        <time>2026-09-03T13:28:10Z</time>
      </trkpt>
      <trkpt lat="48.47078" lon="7.2296">
        <ele>403.10452</ele>
        <time>2026-09-03T13:28:16Z</time>
      </trkpt>
      <trkpt lat="48.47073" lon="7.2296">
        <ele>403.10452</ele>
        <time>2026-09-03T13:28:20Z</time>
      </trkpt>
      <trkpt lat="48.47068" lon="7.2296">
        <ele>403.10452</ele>
        <time>2026-09-03T13:28:25Z</time>
      </trkpt>
      <trkpt lat="48.47063" lon="7.22961">
        <ele>403.10452</ele>
        <time>2026-09-03T13:28:30Z</time>
      </trkpt>
      <trkpt lat="48.47059" lon="7.22964">
        <ele>403.10452</ele>
        <time>2026-09-03T13:28:35Z</time>
      </trkpt>
      <trkpt lat="48.47054" lon="7.22966">
        <ele>403.10452</ele>
        <time>2026-09-03T13:28:41Z</time>
      </trkpt>
      <trkpt lat="48.4705" lon="7.2297">
        <ele>403.10452</ele>
        <time>2026-09-03T13:28:48Z</time>
      </trkpt>
      <trkpt lat="48.47048" lon="7.22977">
        <ele>405.1817</ele>
        <time>2026-09-03T13:28:53Z</time>
      </trkpt>
      <trkpt lat="48.47046" lon="7.22983">
        <ele>407.25885</ele>
        <time>2026-09-03T13:28:59Z</time>
      </trkpt>
      <trkpt lat="48.47044" lon="7.22977">
        <ele>409.33603</ele>
        <time>2026-09-03T13:30:14Z</time>
      </trkpt>
      <trkpt lat="48.47043" lon="7.22966">
        <ele>411.41318</ele>
        <time>2026-09-03T13:31:18Z</time>
      </trkpt>
      <trkpt lat="48.47043" lon="7.22973">
        <ele>413.49036</ele>
        <time>2026-09-03T13:31:33Z</time>
      </trkpt>
      <trkpt lat="48.47042" lon="7.22981">
        <ele>413.49036</ele>
        <time>2026-09-03T13:32:03Z</time>
      </trkpt>
      <trkpt lat="48.47041" lon="7.22991">
        <ele>413.49036</ele>
        <time>2026-09-03T13:33:50Z</time>
      </trkpt>
      <trkpt lat="48.47046" lon="7.22986">
        <ele>413.49036</ele>
        <time>2026-09-03T13:33:54Z</time>
      </trkpt>
      <trkpt lat="48.47051" lon="7.22985">
        <ele>413.49036</ele>
        <time>2026-09-03T13:33:58Z</time>
      </trkpt>
      <trkpt lat="48.47055" lon="7.22982">
        <ele>413.49036</ele>
        <time>2026-09-03T13:34:03Z</time>
      </trkpt>
      <trkpt lat="48.4706" lon="7.22981">
        <ele>413.49036</ele>
        <time>2026-09-03T13:34:07Z</time>
      </trkpt>
      <trkpt lat="48.47066" lon="7.22981">
        <ele>413.49036</ele>
        <time>2026-09-03T13:34:12Z</time>
      </trkpt>
      <trkpt lat="48.47071" lon="7.22981">
        <ele>413.49036</ele>
        <time>2026-09-03T13:34:18Z</time>
      </trkpt>
      <trkpt lat="48.47075" lon="7.22981">
        <ele>413.49036</ele>
        <time>2026-09-03T13:34:24Z</time>
      </trkpt>
      <trkpt lat="48.4708" lon="7.22982">
        <ele>413.49036</ele>
        <time>2026-09-03T13:34:30Z</time>
      </trkpt>
      <trkpt lat="48.47084" lon="7.22983">
        <ele>413.49036</ele>
        <time>2026-09-03T13:34:42Z</time>
      </trkpt>
      <trkpt lat="48.47089" lon="7.22986">
        <ele>413.49036</ele>
        <time>2026-09-03T13:34:48Z</time>
      </trkpt>
      <trkpt lat="48.47094" lon="7.22987">
        <ele>413.49036</ele>
        <time>2026-09-03T13:34:58Z</time>
      </trkpt>
      <trkpt lat="48.47099" lon="7.22989">
        <ele>413.49036</ele>
        <time>2026-09-03T13:35:04Z</time>
      </trkpt>
      <trkpt lat="48.47104" lon="7.22991">
        <ele>413.49036</ele>
        <time>2026-09-03T13:35:10Z</time>
      </trkpt>
      <trkpt lat="48.47108" lon="7.22992">
        <ele>413.49036</ele>
        <time>2026-09-03T13:35:18Z</time>
      </trkpt>
      <trkpt lat="48.47112" lon="7.22995">
        <ele>413.49036</ele>
        <time>2026-09-03T13:35:29Z</time>
      </trkpt>
      <trkpt lat="48.47117" lon="7.22998">
        <ele>413.49036</ele>
        <time>2026-09-03T13:35:35Z</time>
      </trkpt>
      <trkpt lat="48.47123" lon="7.23">
        <ele>413.49036</ele>
        <time>2026-09-03T13:35:41Z</time>
      </trkpt>
      <trkpt lat="48.47127" lon="7.23003">
        <ele>413.49036</ele>
        <time>2026-09-03T13:35:47Z</time>
      </trkpt>
      <trkpt lat="48.47132" lon="7.23005">
        <ele>413.49036</ele>
        <time>2026-09-03T13:35:53Z</time>
      </trkpt>
      <trkpt lat="48.47137" lon="7.23008">
        <ele>413.49036</ele>
        <time>2026-09-03T13:35:59Z</time>
      </trkpt>
      <trkpt lat="48.47142" lon="7.23009">
        <ele>413.49036</ele>
        <time>2026-09-03T13:36:04Z</time>
      </trkpt>
      <trkpt lat="48.47146" lon="7.23011">
        <ele>413.49036</ele>
        <time>2026-09-03T13:36:10Z</time>
      </trkpt>
      <trkpt lat="48.47151" lon="7.23014">
        <ele>413.49036</ele>
        <time>2026-09-03T13:36:15Z</time>
      </trkpt>
      <trkpt lat="48.47155" lon="7.23015">
        <ele>413.49036</ele>
        <time>2026-09-03T13:36:21Z</time>
      </trkpt>
      <trkpt lat="48.4716" lon="7.23017">
        <ele>413.49036</ele>
        <time>2026-09-03T13:36:25Z</time>
      </trkpt>
      <trkpt lat="48.47165" lon="7.23019">
        <ele>413.49036</ele>
        <time>2026-09-03T13:36:31Z</time>
      </trkpt>
      <trkpt lat="48.47169" lon="7.23022">
        <ele>413.49036</ele>
        <time>2026-09-03T13:36:37Z</time>
      </trkpt>
      <trkpt lat="48.47174" lon="7.23025">
        <ele>413.49036</ele>
        <time>2026-09-03T13:36:42Z</time>
      </trkpt>
      <trkpt lat="48.47178" lon="7.23027">
        <ele>413.49036</ele>
        <time>2026-09-03T13:36:46Z</time>
      </trkpt>
      <trkpt lat="48.47183" lon="7.2303">
        <ele>413.49036</ele>
        <time>2026-09-03T13:36:52Z</time>
      </trkpt>
      <trkpt lat="48.47188" lon="7.23033">
        <ele>413.49036</ele>
        <time>2026-09-03T13:36:57Z</time>
      </trkpt>
      <trkpt lat="48.47192" lon="7.23036">
        <ele>413.49036</ele>
        <time>2026-09-03T13:37:02Z</time>
      </trkpt>
      <trkpt lat="48.47198" lon="7.23039">
        <ele>413.49036</ele>
        <time>2026-09-03T13:37:08Z</time>
      </trkpt>
      <trkpt lat="48.47202" lon="7.23044">
        <ele>413.49036</ele>
        <time>2026-09-03T13:37:13Z</time>
      </trkpt>
      <trkpt lat="48.47207" lon="7.23047">
        <ele>413.49036</ele>
        <time>2026-09-03T13:37:19Z</time>
      </trkpt>
      <trkpt lat="48.47212" lon="7.23051">
        <ele>413.49036</ele>
        <time>2026-09-03T13:37:24Z</time>
      </trkpt>
      <trkpt lat="48.47216" lon="7.23055">
        <ele>413.49036</ele>
        <time>2026-09-03T13:37:29Z</time>
      </trkpt>
      <trkpt lat="48.4722" lon="7.23059">
        <ele>413.49036</ele>
        <time>2026-09-03T13:37:34Z</time>
      </trkpt>
      <trkpt lat="48.47225" lon="7.23059">
        <ele>413.49036</ele>
        <time>2026-09-03T13:37:42Z</time>
      </trkpt>
      <trkpt lat="48.4723" lon="7.23063">
        <ele>413.49036</ele>
        <time>2026-09-03T13:37:55Z</time>
      </trkpt>
      <trkpt lat="48.47235" lon="7.23067">
        <ele>413.49036</ele>
        <time>2026-09-03T13:38:20Z</time>
      </trkpt>
      <trkpt lat="48.4724" lon="7.23068">
        <ele>413.49036</ele>
        <time>2026-09-03T13:38:45Z</time>
      </trkpt>
      <trkpt lat="48.47243" lon="7.23073">
        <ele>413.49036</ele>
        <time>2026-09-03T13:38:51Z</time>
      </trkpt>
      <trkpt lat="48.47247" lon="7.23075">
        <ele>413.49036</ele>
        <time>2026-09-03T13:39:27Z</time>
      </trkpt>
      <trkpt lat="48.47251" lon="7.23081">
        <ele>413.49036</ele>
        <time>2026-09-03T13:39:33Z</time>
      </trkpt>
      <trkpt lat="48.47257" lon="7.23083">
        <ele>413.49036</ele>
        <time>2026-09-03T13:39:38Z</time>
      </trkpt>
      <trkpt lat="48.47262" lon="7.23085">
        <ele>413.49036</ele>
        <time>2026-09-03T13:39:43Z</time>
      </trkpt>
      <trkpt lat="48.47267" lon="7.23087">
        <ele>413.49036</ele>
        <time>2026-09-03T13:39:47Z</time>
      </trkpt>
      <trkpt lat="48.47271" lon="7.23091">
        <ele>413.49036</ele>
        <time>2026-09-03T13:39:52Z</time>
      </trkpt>
      <trkpt lat="48.47276" lon="7.23093">
        <ele>413.49036</ele>
        <time>2026-09-03T13:39:57Z</time>
      </trkpt>
      <trkpt lat="48.47281" lon="7.23094">
        <ele>413.49036</ele>
        <time>2026-09-03T13:40:02Z</time>
      </trkpt>
      <trkpt lat="48.47286" lon="7.23097">
        <ele>413.49036</ele>
        <time>2026-09-03T13:40:07Z</time>
      </trkpt>
      <trkpt lat="48.47291" lon="7.231">
        <ele>413.49036</ele>
        <time>2026-09-03T13:40:12Z</time>
      </trkpt>
      <trkpt lat="48.47295" lon="7.23103">
        <ele>413.49036</ele>
        <time>2026-09-03T13:40:17Z</time>
      </trkpt>
      <trkpt lat="48.473" lon="7.23107">
        <ele>413.49036</ele>
        <time>2026-09-03T13:40:22Z</time>
      </trkpt>
      <trkpt lat="48.47304" lon="7.2311">
        <ele>413.49036</ele>
        <time>2026-09-03T13:40:27Z</time>
      </trkpt>
      <trkpt lat="48.47308" lon="7.23113">
        <ele>413.49036</ele>
        <time>2026-09-03T13:40:31Z</time>
      </trkpt>
      <trkpt lat="48.47313" lon="7.23117">
        <ele>413.49036</ele>
        <time>2026-09-03T13:40:37Z</time>
      </trkpt>
      <trkpt lat="48.47317" lon="7.23121">
        <ele>413.49036</ele>
        <time>2026-09-03T13:40:41Z</time>
      </trkpt>
      <trkpt lat="48.47322" lon="7.23126">
        <ele>413.49036</ele>
        <time>2026-09-03T13:40:46Z</time>
      </trkpt>
      <trkpt lat="48.47326" lon="7.23131">
        <ele>413.49036</ele>
        <time>2026-09-03T13:40:51Z</time>
      </trkpt>
      <trkpt lat="48.47329" lon="7.23137">
        <ele>413.49036</ele>
        <time>2026-09-03T13:40:56Z</time>
      </trkpt>
      <trkpt lat="48.47333" lon="7.23143">
        <ele>413.49036</ele>
        <time>2026-09-03T13:41:02Z</time>
      </trkpt>
      <trkpt lat="48.47337" lon="7.2315">
        <ele>413.49036</ele>
        <time>2026-09-03T13:41:07Z</time>
      </trkpt>
      <trkpt lat="48.4734" lon="7.23155">
        <ele>413.49036</ele>
        <time>2026-09-03T13:41:12Z</time>
      </trkpt>
      <trkpt lat="48.47343" lon="7.23161">
        <ele>413.49036</ele>
        <time>2026-09-03T13:41:17Z</time>
      </trkpt>
      <trkpt lat="48.47347" lon="7.23166">
        <ele>413.49036</ele>
        <time>2026-09-03T13:41:21Z</time>
      </trkpt>
      <trkpt lat="48.4735" lon="7.23172">
        <ele>413.49036</ele>
        <time>2026-09-03T13:41:26Z</time>
      </trkpt>
      <trkpt lat="48.47354" lon="7.23176">
        <ele>413.49036</ele>
        <time>2026-09-03T13:41:31Z</time>
      </trkpt>
      <trkpt lat="48.47358" lon="7.2318">
        <ele>413.49036</ele>
        <time>2026-09-03T13:41:35Z</time>
      </trkpt>
      <trkpt lat="48.47362" lon="7.23185">
        <ele>413.49036</ele>
        <time>2026-09-03T13:41:40Z</time>
      </trkpt>
      <trkpt lat="48.47365" lon="7.23191">
        <ele>413.49036</ele>
        <time>2026-09-03T13:41:46Z</time>
      </trkpt>
      <trkpt lat="48.47369" lon="7.23196">
        <ele>413.49036</ele>
        <time>2026-09-03T13:41:51Z</time>
      </trkpt>
      <trkpt lat="48.47372" lon="7.23202">
        <ele>413.49036</ele>
        <time>2026-09-03T13:41:56Z</time>
      </trkpt>
      <trkpt lat="48.47375" lon="7.23208">
        <ele>413.49036</ele>
        <time>2026-09-03T13:42:01Z</time>
      </trkpt>
      <trkpt lat="48.47377" lon="7.23215">
        <ele>413.49036</ele>
        <time>2026-09-03T13:42:06Z</time>
      </trkpt>
      <trkpt lat="48.47379" lon="7.23222">
        <ele>413.49036</ele>
        <time>2026-09-03T13:42:49Z</time>
      </trkpt>
      <trkpt lat="48.4738" lon="7.23228">
        <ele>413.49036</ele>
        <time>2026-09-03T13:42:52Z</time>
      </trkpt>
      <trkpt lat="48.47382" lon="7.23237">
        <ele>413.49036</ele>
        <time>2026-09-03T13:42:57Z</time>
      </trkpt>
      <trkpt lat="48.47382" lon="7.23244">
        <ele>413.49036</ele>
        <time>2026-09-03T13:43:01Z</time>
      </trkpt>
      <trkpt lat="48.47382" lon="7.23252">
        <ele>413.49036</ele>
        <time>2026-09-03T13:43:06Z</time>
      </trkpt>
      <trkpt lat="48.47382" lon="7.2326">
        <ele>413.49036</ele>
        <time>2026-09-03T13:43:11Z</time>
      </trkpt>
      <trkpt lat="48.47382" lon="7.23268">
        <ele>413.49036</ele>
        <time>2026-09-03T13:43:16Z</time>
      </trkpt>
      <trkpt lat="48.47381" lon="7.23277">
        <ele>413.49036</ele>
        <time>2026-09-03T13:43:22Z</time>
      </trkpt>
      <trkpt lat="48.4738" lon="7.23284">
        <ele>413.49036</ele>
        <time>2026-09-03T13:43:27Z</time>
      </trkpt>
      <trkpt lat="48.47379" lon="7.23292">
        <ele>413.49036</ele>
        <time>2026-09-03T13:43:31Z</time>
      </trkpt>
      <trkpt lat="48.4738" lon="7.23299">
        <ele>413.49036</ele>
        <time>2026-09-03T13:43:37Z</time>
      </trkpt>
      <trkpt lat="48.47379" lon="7.23306">
        <ele>413.49036</ele>
        <time>2026-09-03T13:43:41Z</time>
      </trkpt>
      <trkpt lat="48.47379" lon="7.23313">
        <ele>413.49036</ele>
        <time>2026-09-03T13:43:45Z</time>
      </trkpt>
      <trkpt lat="48.47378" lon="7.23321">
        <ele>413.49036</ele>
        <time>2026-09-03T13:43:50Z</time>
      </trkpt>
      <trkpt lat="48.47379" lon="7.23328">
        <ele>413.49036</ele>
        <time>2026-09-03T13:43:54Z</time>
      </trkpt>
      <trkpt lat="48.47379" lon="7.23335">
        <ele>413.49036</ele>
        <time>2026-09-03T13:43:58Z</time>
      </trkpt>
      <trkpt lat="48.47379" lon="7.23343">
        <ele>413.49036</ele>
        <time>2026-09-03T13:44:03Z</time>
      </trkpt>
      <trkpt lat="48.47379" lon="7.23351">
        <ele>413.49036</ele>
        <time>2026-09-03T13:44:08Z</time>
      </trkpt>
      <trkpt lat="48.4738" lon="7.23357">
        <ele>413.49036</ele>
        <time>2026-09-03T13:44:11Z</time>
      </trkpt>
      <trkpt lat="48.47381" lon="7.23366">
        <ele>413.49036</ele>
        <time>2026-09-03T13:44:18Z</time>
      </trkpt>
      <trkpt lat="48.47381" lon="7.23374">
        <ele>413.49036</ele>
        <time>2026-09-03T13:44:23Z</time>
      </trkpt>
      <trkpt lat="48.47379" lon="7.23381">
        <ele>413.49036</ele>
        <time>2026-09-03T13:44:27Z</time>
      </trkpt>
      <trkpt lat="48.47377" lon="7.23388">
        <ele>413.49036</ele>
        <time>2026-09-03T13:44:32Z</time>
      </trkpt>
      <trkpt lat="48.47374" lon="7.23394">
        <ele>413.49036</ele>
        <time>2026-09-03T13:44:37Z</time>
      </trkpt>
      <trkpt lat="48.4737" lon="7.234">
        <ele>413.49036</ele>
        <time>2026-09-03T13:44:42Z</time>
      </trkpt>
      <trkpt lat="48.47366" lon="7.23405">
        <ele>413.49036</ele>
        <time>2026-09-03T13:44:47Z</time>
      </trkpt>
      <trkpt lat="48.47364" lon="7.23412">
        <ele>411.4547</ele>
        <time>2026-09-03T13:44:52Z</time>
      </trkpt>
      <trkpt lat="48.47361" lon="7.23419">
        <ele>409.41907</ele>
        <time>2026-09-03T13:44:57Z</time>
      </trkpt>
      <trkpt lat="48.47359" lon="7.23425">
        <ele>407.38342</ele>
        <time>2026-09-03T13:45:02Z</time>
      </trkpt>
      <trkpt lat="48.47356" lon="7.23433">
        <ele>405.34778</ele>
        <time>2026-09-03T13:45:08Z</time>
      </trkpt>
      <trkpt lat="48.47354" lon="7.2344">
        <ele>403.31213</ele>
        <time>2026-09-03T13:45:13Z</time>
      </trkpt>
      <trkpt lat="48.47351" lon="7.23447">
        <ele>403.31213</ele>
        <time>2026-09-03T13:45:18Z</time>
      </trkpt>
      <trkpt lat="48.47348" lon="7.23452">
        <ele>403.31213</ele>
        <time>2026-09-03T13:45:23Z</time>
      </trkpt>
      <trkpt lat="48.47347" lon="7.23459">
        <ele>403.31213</ele>
        <time>2026-09-03T13:45:28Z</time>
      </trkpt>
      <trkpt lat="48.47343" lon="7.23465">
        <ele>403.31213</ele>
        <time>2026-09-03T13:45:33Z</time>
      </trkpt>
      <trkpt lat="48.47341" lon="7.23472">
        <ele>403.31213</ele>
        <time>2026-09-03T13:45:38Z</time>
      </trkpt>
      <trkpt lat="48.47339" lon="7.23478">
        <ele>403.31213</ele>
        <time>2026-09-03T13:45:44Z</time>
      </trkpt>
      <trkpt lat="48.47337" lon="7.23485">
        <ele>403.31213</ele>
        <time>2026-09-03T13:45:48Z</time>
      </trkpt>
      <trkpt lat="48.47335" lon="7.23491">
        <ele>403.31213</ele>
        <time>2026-09-03T13:45:52Z</time>
      </trkpt>
      <trkpt lat="48.47333" lon="7.23499">
        <ele>403.31213</ele>
        <time>2026-09-03T13:45:57Z</time>
      </trkpt>
      <trkpt lat="48.47331" lon="7.23506">
        <ele>403.31213</ele>
        <time>2026-09-03T13:46:02Z</time>
      </trkpt>
      <trkpt lat="48.47329" lon="7.23513">
        <ele>403.31213</ele>
        <time>2026-09-03T13:46:07Z</time>
      </trkpt>
      <trkpt lat="48.47327" lon="7.2352">
        <ele>403.31213</ele>
        <time>2026-09-03T13:46:12Z</time>
      </trkpt>
      <trkpt lat="48.47325" lon="7.23527">
        <ele>403.31213</ele>
        <time>2026-09-03T13:46:17Z</time>
      </trkpt>
      <trkpt lat="48.47324" lon="7.23533">
        <ele>403.31213</ele>
        <time>2026-09-03T13:46:22Z</time>
      </trkpt>
      <trkpt lat="48.47322" lon="7.2354">
        <ele>403.31213</ele>
        <time>2026-09-03T13:46:26Z</time>
      </trkpt>
      <trkpt lat="48.47319" lon="7.23547">
        <ele>403.31213</ele>
        <time>2026-09-03T13:46:32Z</time>
      </trkpt>
      <trkpt lat="48.47318" lon="7.23554">
        <ele>403.31213</ele>
        <time>2026-09-03T13:46:37Z</time>
      </trkpt>
      <trkpt lat="48.47316" lon="7.23562">
        <ele>403.31213</ele>
        <time>2026-09-03T13:46:42Z</time>
      </trkpt>
      <trkpt lat="48.47313" lon="7.23569">
        <ele>403.31213</ele>
        <time>2026-09-03T13:46:47Z</time>
      </trkpt>
      <trkpt lat="48.47311" lon="7.23575">
        <ele>403.31213</ele>
        <time>2026-09-03T13:46:52Z</time>
      </trkpt>
      <trkpt lat="48.47308" lon="7.23581">
        <ele>403.31213</ele>
        <time>2026-09-03T13:46:57Z</time>
      </trkpt>
      <trkpt lat="48.47306" lon="7.23588">
        <ele>403.31213</ele>
        <time>2026-09-03T13:47:02Z</time>
      </trkpt>
      <trkpt lat="48.47303" lon="7.23595">
        <ele>403.31213</ele>
        <time>2026-09-03T13:47:08Z</time>
      </trkpt>
      <trkpt lat="48.47301" lon="7.23601">
        <ele>403.31213</ele>
        <time>2026-09-03T13:47:13Z</time>
      </trkpt>
      <trkpt lat="48.47298" lon="7.23608">
        <ele>403.31213</ele>
        <time>2026-09-03T13:47:18Z</time>
      </trkpt>
      <trkpt lat="48.47297" lon="7.23616">
        <ele>403.31213</ele>
        <time>2026-09-03T13:47:24Z</time>
      </trkpt>
      <trkpt lat="48.47295" lon="7.23624">
        <ele>403.31213</ele>
        <time>2026-09-03T13:47:30Z</time>
      </trkpt>
      <trkpt lat="48.47294" lon="7.23631">
        <ele>403.31213</ele>
        <time>2026-09-03T13:47:35Z</time>
      </trkpt>
      <trkpt lat="48.47292" lon="7.23638">
        <ele>403.31213</ele>
        <time>2026-09-03T13:47:40Z</time>
      </trkpt>
      <trkpt lat="48.4729" lon="7.23645">
        <ele>403.31213</ele>
        <time>2026-09-03T13:47:45Z</time>
      </trkpt>
      <trkpt lat="48.47289" lon="7.23652">
        <ele>403.31213</ele>
        <time>2026-09-03T13:47:51Z</time>
      </trkpt>
      <trkpt lat="48.47287" lon="7.23659">
        <ele>403.31213</ele>
        <time>2026-09-03T13:47:55Z</time>
      </trkpt>
      <trkpt lat="48.47286" lon="7.23667">
        <ele>403.31213</ele>
        <time>2026-09-03T13:48:00Z</time>
      </trkpt>
      <trkpt lat="48.47284" lon="7.23673">
        <ele>401.3109</ele>
        <time>2026-09-03T13:48:04Z</time>
      </trkpt>
      <trkpt lat="48.47283" lon="7.2368">
        <ele>399.30972</ele>
        <time>2026-09-03T13:48:08Z</time>
      </trkpt>
      <trkpt lat="48.47282" lon="7.23688">
        <ele>397.3085</ele>
        <time>2026-09-03T13:48:14Z</time>
      </trkpt>
      <trkpt lat="48.47281" lon="7.23695">
        <ele>395.3073</ele>
        <time>2026-09-03T13:48:18Z</time>
      </trkpt>
      <trkpt lat="48.47279" lon="7.23701">
        <ele>393.3061</ele>
        <time>2026-09-03T13:48:23Z</time>
      </trkpt>
      <trkpt lat="48.47278" lon="7.23709">
        <ele>393.3061</ele>
        <time>2026-09-03T13:48:27Z</time>
      </trkpt>
      <trkpt lat="48.47277" lon="7.23715">
        <ele>393.3061</ele>
        <time>2026-09-03T13:48:31Z</time>
      </trkpt>
      <trkpt lat="48.47275" lon="7.23721">
        <ele>393.3061</ele>
        <time>2026-09-03T13:48:37Z</time>
      </trkpt>
      <trkpt lat="48.47274" lon="7.23729">
        <ele>393.3061</ele>
        <time>2026-09-03T13:48:42Z</time>
      </trkpt>
      <trkpt lat="48.47273" lon="7.23738">
        <ele>393.3061</ele>
        <time>2026-09-03T13:48:47Z</time>
      </trkpt>
      <trkpt lat="48.47272" lon="7.23745">
        <ele>393.3061</ele>
        <time>2026-09-03T13:48:52Z</time>
      </trkpt>
      <trkpt lat="48.47271" lon="7.23752">
        <ele>393.3061</ele>
        <time>2026-09-03T13:48:57Z</time>
      </trkpt>
      <trkpt lat="48.47269" lon="7.23759">
        <ele>393.3061</ele>
        <time>2026-09-03T13:49:02Z</time>
      </trkpt>
      <trkpt lat="48.47268" lon="7.23767">
        <ele>393.3061</ele>
        <time>2026-09-03T13:49:07Z</time>
      </trkpt>
      <trkpt lat="48.47267" lon="7.23775">
        <ele>393.3061</ele>
        <time>2026-09-03T13:49:12Z</time>
      </trkpt>
      <trkpt lat="48.47266" lon="7.23781">
        <ele>393.3061</ele>
        <time>2026-09-03T13:49:17Z</time>
      </trkpt>
      <trkpt lat="48.47268" lon="7.23773">
        <ele>393.3061</ele>
        <time>2026-09-03T13:50:09Z</time>
      </trkpt>
      <trkpt lat="48.47269" lon="7.23766">
        <ele>393.3061</ele>
        <time>2026-09-03T13:50:18Z</time>
      </trkpt>
      <trkpt lat="48.47273" lon="7.23765">
        <ele>393.3061</ele>
        <time>2026-09-03T13:50:22Z</time>
      </trkpt>
      <trkpt lat="48.47279" lon="7.23764">
        <ele>393.3061</ele>
        <time>2026-09-03T13:50:26Z</time>
      </trkpt>
      <trkpt lat="48.47284" lon="7.23762">
        <ele>393.3061</ele>
        <time>2026-09-03T13:50:31Z</time>
      </trkpt>
      <trkpt lat="48.47287" lon="7.23756">
        <ele>391.23227</ele>
        <time>2026-09-03T13:50:37Z</time>
      </trkpt>
      <trkpt lat="48.4729" lon="7.23751">
        <ele>389.15845</ele>
        <time>2026-09-03T13:50:43Z</time>
      </trkpt>
      <trkpt lat="48.47293" lon="7.23743">
        <ele>387.08463</ele>
        <time>2026-09-03T13:50:54Z</time>
      </trkpt>
      <trkpt lat="48.47297" lon="7.23737">
        <ele>385.0108</ele>
        <time>2026-09-03T13:51:15Z</time>
      </trkpt>
      <trkpt lat="48.47299" lon="7.2373">
        <ele>382.93698</ele>
        <time>2026-09-03T13:51:22Z</time>
      </trkpt>
      <trkpt lat="48.47301" lon="7.23723">
        <ele>382.93698</ele>
        <time>2026-09-03T13:51:27Z</time>
      </trkpt>
      <trkpt lat="48.47304" lon="7.23718">
        <ele>382.93698</ele>
        <time>2026-09-03T13:51:32Z</time>
      </trkpt>
      <trkpt lat="48.47307" lon="7.23712">
        <ele>382.93698</ele>
        <time>2026-09-03T13:51:38Z</time>
      </trkpt>
      <trkpt lat="48.4731" lon="7.23707">
        <ele>382.93698</ele>
        <time>2026-09-03T13:51:43Z</time>
      </trkpt>
      <trkpt lat="48.47312" lon="7.237">
        <ele>382.93698</ele>
        <time>2026-09-03T13:51:48Z</time>
      </trkpt>
      <trkpt lat="48.47315" lon="7.23695">
        <ele>382.93698</ele>
        <time>2026-09-03T13:51:53Z</time>
      </trkpt>
      <trkpt lat="48.47319" lon="7.23689">
        <ele>382.93698</ele>
        <time>2026-09-03T13:51:58Z</time>
      </trkpt>
      <trkpt lat="48.47322" lon="7.23685">
        <ele>382.93698</ele>
        <time>2026-09-03T13:52:03Z</time>
      </trkpt>
      <trkpt lat="48.47326" lon="7.23679">
        <ele>382.93698</ele>
        <time>2026-09-03T13:52:08Z</time>
      </trkpt>
      <trkpt lat="48.4733" lon="7.23673">
        <ele>382.93698</ele>
        <time>2026-09-03T13:52:13Z</time>
      </trkpt>
      <trkpt lat="48.47333" lon="7.23667">
        <ele>382.93698</ele>
        <time>2026-09-03T13:52:19Z</time>
      </trkpt>
      <trkpt lat="48.47336" lon="7.23662">
        <ele>382.93698</ele>
        <time>2026-09-03T13:52:23Z</time>
      </trkpt>
      <trkpt lat="48.4734" lon="7.23657">
        <ele>382.93698</ele>
        <time>2026-09-03T13:52:28Z</time>
      </trkpt>
      <trkpt lat="48.47344" lon="7.23652">
        <ele>382.93698</ele>
        <time>2026-09-03T13:52:32Z</time>
      </trkpt>
      <trkpt lat="48.47348" lon="7.23646">
        <ele>382.93698</ele>
        <time>2026-09-03T13:52:37Z</time>
      </trkpt>
      <trkpt lat="48.47351" lon="7.23641">
        <ele>382.93698</ele>
        <time>2026-09-03T13:52:42Z</time>
      </trkpt>
      <trkpt lat="48.47354" lon="7.23635">
        <ele>382.93698</ele>
        <time>2026-09-03T13:52:47Z</time>
      </trkpt>
      <trkpt lat="48.47357" lon="7.23629">
        <ele>382.93698</ele>
        <time>2026-09-03T13:52:52Z</time>
      </trkpt>
      <trkpt lat="48.47359" lon="7.23622">
        <ele>382.93698</ele>
        <time>2026-09-03T13:52:57Z</time>
      </trkpt>
      <trkpt lat="48.47362" lon="7.23615">
        <ele>382.93698</ele>
        <time>2026-09-03T13:53:02Z</time>
      </trkpt>
      <trkpt lat="48.47367" lon="7.23612">
        <ele>382.93698</ele>
        <time>2026-09-03T13:53:10Z</time>
      </trkpt>
      <trkpt lat="48.47372" lon="7.23611">
        <ele>382.93698</ele>
        <time>2026-09-03T13:53:15Z</time>
      </trkpt>
      <trkpt lat="48.47377" lon="7.2361">
        <ele>382.93698</ele>
        <time>2026-09-03T13:53:19Z</time>
      </trkpt>
      <trkpt lat="48.47381" lon="7.23611">
        <ele>382.93698</ele>
        <time>2026-09-03T13:53:22Z</time>
      </trkpt>
      <trkpt lat="48.47386" lon="7.23611">
        <ele>382.93698</ele>
        <time>2026-09-03T13:53:26Z</time>
      </trkpt>
      <trkpt lat="48.47391" lon="7.2361">
        <ele>382.93698</ele>
        <time>2026-09-03T13:53:31Z</time>
      </trkpt>
      <trkpt lat="48.47396" lon="7.23608">
        <ele>382.93698</ele>
        <time>2026-09-03T13:53:35Z</time>
      </trkpt>
      <trkpt lat="48.474" lon="7.23606">
        <ele>382.93698</ele>
        <time>2026-09-03T13:53:41Z</time>
      </trkpt>
      <trkpt lat="48.47405" lon="7.23604">
        <ele>382.93698</ele>
        <time>2026-09-03T13:53:45Z</time>
      </trkpt>
      <trkpt lat="48.4741" lon="7.23602">
        <ele>382.93698</ele>
        <time>2026-09-03T13:53:50Z</time>
      </trkpt>
      <trkpt lat="48.47414" lon="7.23599">
        <ele>382.93698</ele>
        <time>2026-09-03T13:53:55Z</time>
      </trkpt>
      <trkpt lat="48.47419" lon="7.23596">
        <ele>382.93698</ele>
        <time>2026-09-03T13:54:01Z</time>
      </trkpt>
      <trkpt lat="48.47423" lon="7.23593">
        <ele>382.93698</ele>
        <time>2026-09-03T13:54:06Z</time>
      </trkpt>
      <trkpt lat="48.47427" lon="7.2359">
        <ele>382.93698</ele>
        <time>2026-09-03T13:54:11Z</time>
      </trkpt>
      <trkpt lat="48.47432" lon="7.23587">
        <ele>382.93698</ele>
        <time>2026-09-03T13:54:15Z</time>
      </trkpt>
      <trkpt lat="48.47435" lon="7.23582">
        <ele>382.93698</ele>
        <time>2026-09-03T13:54:19Z</time>
      </trkpt>
      <trkpt lat="48.4744" lon="7.2358">
        <ele>382.93698</ele>
        <time>2026-09-03T13:54:24Z</time>
      </trkpt>
      <trkpt lat="48.47443" lon="7.23585">
        <ele>382.93698</ele>
        <time>2026-09-03T13:54:30Z</time>
      </trkpt>
      <trkpt lat="48.47442" lon="7.23592">
        <ele>382.93698</ele>
        <time>2026-09-03T13:54:36Z</time>
      </trkpt>
      <trkpt lat="48.47441" lon="7.236">
        <ele>382.93698</ele>
        <time>2026-09-03T13:54:41Z</time>
      </trkpt>
      <trkpt lat="48.47437" lon="7.23604">
        <ele>382.93698</ele>
        <time>2026-09-03T13:54:46Z</time>
      </trkpt>
      <trkpt lat="48.47435" lon="7.2361">
        <ele>382.93698</ele>
        <time>2026-09-03T13:54:51Z</time>
      </trkpt>
      <trkpt lat="48.47432" lon="7.23616">
        <ele>382.93698</ele>
        <time>2026-09-03T13:55:20Z</time>
      </trkpt>
      <trkpt lat="48.4743" lon="7.23623">
        <ele>382.93698</ele>
        <time>2026-09-03T13:55:26Z</time>
      </trkpt>
      <trkpt lat="48.47426" lon="7.23626">
        <ele>382.93698</ele>
        <time>2026-09-03T13:55:32Z</time>
      </trkpt>
      <trkpt lat="48.47423" lon="7.23631">
        <ele>382.93698</ele>
        <time>2026-09-03T13:55:38Z</time>
      </trkpt>
      <trkpt lat="48.47419" lon="7.23636">
        <ele>382.93698</ele>
        <time>2026-09-03T13:55:44Z</time>
      </trkpt>
      <trkpt lat="48.47416" lon="7.23641">
        <ele>382.93698</ele>
        <time>2026-09-03T13:55:50Z</time>
      </trkpt>
      <trkpt lat="48.47412" lon="7.23647">
        <ele>382.93698</ele>
        <time>2026-09-03T13:55:55Z</time>
      </trkpt>
      <trkpt lat="48.47409" lon="7.23652">
        <ele>382.93698</ele>
        <time>2026-09-03T13:56:00Z</time>
      </trkpt>
      <trkpt lat="48.47406" lon="7.23659">
        <ele>382.93698</ele>
        <time>2026-09-03T13:56:05Z</time>
      </trkpt>
      <trkpt lat="48.47403" lon="7.23664">
        <ele>382.93698</ele>
        <time>2026-09-03T13:56:10Z</time>
      </trkpt>
      <trkpt lat="48.474" lon="7.2367">
        <ele>382.93698</ele>
        <time>2026-09-03T13:56:15Z</time>
      </trkpt>
      <trkpt lat="48.47397" lon="7.23676">
        <ele>382.93698</ele>
        <time>2026-09-03T13:56:19Z</time>
      </trkpt>
      <trkpt lat="48.47393" lon="7.23682">
        <ele>382.93698</ele>
        <time>2026-09-03T13:56:24Z</time>
      </trkpt>
      <trkpt lat="48.47391" lon="7.23688">
        <ele>382.93698</ele>
        <time>2026-09-03T13:56:29Z</time>
      </trkpt>
      <trkpt lat="48.47387" lon="7.23693">
        <ele>382.93698</ele>
        <time>2026-09-03T13:56:34Z</time>
      </trkpt>
      <trkpt lat="48.47384" lon="7.23699">
        <ele>382.93698</ele>
        <time>2026-09-03T13:56:39Z</time>
      </trkpt>
      <trkpt lat="48.4738" lon="7.23704">
        <ele>382.93698</ele>
        <time>2026-09-03T13:56:45Z</time>
      </trkpt>
      <trkpt lat="48.47376" lon="7.2371">
        <ele>382.93698</ele>
        <time>2026-09-03T13:56:51Z</time>
      </trkpt>
      <trkpt lat="48.47373" lon="7.23715">
        <ele>382.93698</ele>
        <time>2026-09-03T13:56:56Z</time>
      </trkpt>
      <trkpt lat="48.4737" lon="7.2372">
        <ele>382.93698</ele>
        <time>2026-09-03T13:57:01Z</time>
      </trkpt>
      <trkpt lat="48.47367" lon="7.23726">
        <ele>382.93698</ele>
        <time>2026-09-03T13:57:09Z</time>
      </trkpt>
      <trkpt lat="48.47364" lon="7.23732">
        <ele>382.93698</ele>
        <time>2026-09-03T13:57:15Z</time>
      </trkpt>
      <trkpt lat="48.4736" lon="7.23738">
        <ele>382.93698</ele>
        <time>2026-09-03T13:57:22Z</time>
      </trkpt>
      <trkpt lat="48.47358" lon="7.23744">
        <ele>382.93698</ele>
        <time>2026-09-03T13:57:28Z</time>
      </trkpt>
      <trkpt lat="48.47355" lon="7.23751">
        <ele>382.93698</ele>
        <time>2026-09-03T13:57:33Z</time>
      </trkpt>
      <trkpt lat="48.47353" lon="7.23757">
        <ele>382.93698</ele>
        <time>2026-09-03T13:57:38Z</time>
      </trkpt>
      <trkpt lat="48.4735" lon="7.23764">
        <ele>382.93698</ele>
        <time>2026-09-03T13:57:44Z</time>
      </trkpt>
      <trkpt lat="48.4735" lon="7.2377">
        <ele>382.93698</ele>
        <time>2026-09-03T13:57:50Z</time>
      </trkpt>
      <trkpt lat="48.47348" lon="7.23778">
        <ele>382.93698</ele>
        <time>2026-09-03T13:57:56Z</time>
      </trkpt>
      <trkpt lat="48.47347" lon="7.23785">
        <ele>382.93698</ele>
        <time>2026-09-03T13:58:02Z</time>
      </trkpt>
      <trkpt lat="48.47347" lon="7.23792">
        <ele>382.93698</ele>
        <time>2026-09-03T13:58:08Z</time>
      </trkpt>
      <trkpt lat="48.47346" lon="7.23799">
        <ele>382.93698</ele>
        <time>2026-09-03T13:58:14Z</time>
      </trkpt>
      <trkpt lat="48.47346" lon="7.23808">
        <ele>382.93698</ele>
        <time>2026-09-03T13:58:57Z</time>
      </trkpt>
      <trkpt lat="48.47345" lon="7.23814">
        <ele>384.962</ele>
        <time>2026-09-03T13:59:02Z</time>
      </trkpt>
      <trkpt lat="48.47343" lon="7.2382">
        <ele>386.98703</ele>
        <time>2026-09-03T13:59:07Z</time>
      </trkpt>
      <trkpt lat="48.47342" lon="7.23827">
        <ele>389.01202</ele>
        <time>2026-09-03T13:59:12Z</time>
      </trkpt>
      <trkpt lat="48.47339" lon="7.23833">
        <ele>391.03705</ele>
        <time>2026-09-03T13:59:18Z</time>
      </trkpt>
      <trkpt lat="48.47337" lon="7.2384">
        <ele>393.06207</ele>
        <time>2026-09-03T13:59:24Z</time>
      </trkpt>
      <trkpt lat="48.47334" lon="7.23847">
        <ele>393.06207</ele>
        <time>2026-09-03T13:59:30Z</time>
      </trkpt>
      <trkpt lat="48.47333" lon="7.23855">
        <ele>393.06207</ele>
        <time>2026-09-03T13:59:38Z</time>
      </trkpt>
      <trkpt lat="48.47331" lon="7.23862">
        <ele>393.06207</ele>
        <time>2026-09-03T13:59:44Z</time>
      </trkpt>
      <trkpt lat="48.47331" lon="7.23869">
        <ele>393.06207</ele>
        <time>2026-09-03T13:59:59Z</time>
      </trkpt>
      <trkpt lat="48.47329" lon="7.23876">
        <ele>393.06207</ele>
        <time>2026-09-03T14:00:06Z</time>
      </trkpt>
      <trkpt lat="48.47329" lon="7.23883">
        <ele>393.06207</ele>
        <time>2026-09-03T14:00:23Z</time>
      </trkpt>
      <trkpt lat="48.47326" lon="7.23889">
        <ele>393.06207</ele>
        <time>2026-09-03T14:00:29Z</time>
      </trkpt>
      <trkpt lat="48.47325" lon="7.23896">
        <ele>393.06207</ele>
        <time>2026-09-03T14:00:35Z</time>
      </trkpt>
      <trkpt lat="48.47323" lon="7.23903">
        <ele>393.06207</ele>
        <time>2026-09-03T14:00:41Z</time>
      </trkpt>
      <trkpt lat="48.47323" lon="7.2391">
        <ele>393.06207</ele>
        <time>2026-09-03T14:00:46Z</time>
      </trkpt>
      <trkpt lat="48.47321" lon="7.23917">
        <ele>395.24905</ele>
        <time>2026-09-03T14:00:52Z</time>
      </trkpt>
      <trkpt lat="48.47318" lon="7.23923">
        <ele>397.43604</ele>
        <time>2026-09-03T14:01:02Z</time>
      </trkpt>
      <trkpt lat="48.47317" lon="7.23931">
        <ele>399.62302</ele>
        <time>2026-09-03T14:01:08Z</time>
      </trkpt>
      <trkpt lat="48.47316" lon="7.23938">
        <ele>401.81</ele>
        <time>2026-09-03T14:01:15Z</time>
      </trkpt>
      <trkpt lat="48.47315" lon="7.23946">
        <ele>403.99698</ele>
        <time>2026-09-03T14:01:22Z</time>
      </trkpt>
      <trkpt lat="48.47315" lon="7.23952">
        <ele>403.99698</ele>
        <time>2026-09-03T14:01:28Z</time>
      </trkpt>
      <trkpt lat="48.47312" lon="7.23958">
        <ele>403.99698</ele>
        <time>2026-09-03T14:01:34Z</time>
      </trkpt>
      <trkpt lat="48.4731" lon="7.23966">
        <ele>406.10336</ele>
        <time>2026-09-03T14:01:40Z</time>
      </trkpt>
      <trkpt lat="48.47308" lon="7.23972">
        <ele>408.20978</ele>
        <time>2026-09-03T14:01:44Z</time>
      </trkpt>
      <trkpt lat="48.47306" lon="7.23979">
        <ele>410.31616</ele>
        <time>2026-09-03T14:01:51Z</time>
      </trkpt>
      <trkpt lat="48.47305" lon="7.23986">
        <ele>412.42258</ele>
        <time>2026-09-03T14:01:57Z</time>
      </trkpt>
      <trkpt lat="48.47301" lon="7.23992">
        <ele>414.52896</ele>
        <time>2026-09-03T14:02:08Z</time>
      </trkpt>
      <trkpt lat="48.47299" lon="7.24">
        <ele>414.52896</ele>
        <time>2026-09-03T14:02:14Z</time>
      </trkpt>
      <trkpt lat="48.47297" lon="7.24007">
        <ele>414.52896</ele>
        <time>2026-09-03T14:02:20Z</time>
      </trkpt>
      <trkpt lat="48.47298" lon="7.24014">
        <ele>414.52896</ele>
        <time>2026-09-03T14:02:31Z</time>
      </trkpt>
      <trkpt lat="48.47303" lon="7.24014">
        <ele>414.52896</ele>
        <time>2026-09-03T14:04:10Z</time>
      </trkpt>
      <trkpt lat="48.47308" lon="7.24021">
        <ele>414.52896</ele>
        <time>2026-09-03T14:05:17Z</time>
      </trkpt>
      <trkpt lat="48.47303" lon="7.24019">
        <ele>414.52896</ele>
        <time>2026-09-03T14:06:46Z</time>
      </trkpt>
      <trkpt lat="48.47301" lon="7.24014">
        <ele>414.52896</ele>
        <time>2026-09-03T14:07:20Z</time>
      </trkpt>
      <trkpt lat="48.47301" lon="7.24005">
        <ele>414.52896</ele>
        <time>2026-09-03T14:07:26Z</time>
      </trkpt>
      <trkpt lat="48.47304" lon="7.24">
        <ele>414.52896</ele>
        <time>2026-09-03T14:07:33Z</time>
      </trkpt>
      <trkpt lat="48.47307" lon="7.23994">
        <ele>414.52896</ele>
        <time>2026-09-03T14:07:39Z</time>
      </trkpt>
      <trkpt lat="48.4731" lon="7.23989">
        <ele>414.52896</ele>
        <time>2026-09-03T14:07:45Z</time>
      </trkpt>
      <trkpt lat="48.47316" lon="7.23984">
        <ele>414.52896</ele>
        <time>2026-09-03T14:07:52Z</time>
      </trkpt>
      <trkpt lat="48.4732" lon="7.23982">
        <ele>414.52896</ele>
        <time>2026-09-03T14:07:59Z</time>
      </trkpt>
      <trkpt lat="48.47325" lon="7.23983">
        <ele>414.52896</ele>
        <time>2026-09-03T14:08:07Z</time>
      </trkpt>
      <trkpt lat="48.47326" lon="7.23975">
        <ele>416.54706</ele>
        <time>2026-09-03T14:08:16Z</time>
      </trkpt>
      <trkpt lat="48.4733" lon="7.2397">
        <ele>418.56512</ele>
        <time>2026-09-03T14:08:22Z</time>
      </trkpt>
      <trkpt lat="48.47334" lon="7.23964">
        <ele>420.58322</ele>
        <time>2026-09-03T14:08:28Z</time>
      </trkpt>
      <trkpt lat="48.47337" lon="7.2396">
        <ele>422.6013</ele>
        <time>2026-09-03T14:08:33Z</time>
      </trkpt>
      <trkpt lat="48.47341" lon="7.23955">
        <ele>424.6194</ele>
        <time>2026-09-03T14:08:39Z</time>
      </trkpt>
      <trkpt lat="48.47345" lon="7.2395">
        <ele>424.6194</ele>
        <time>2026-09-03T14:08:49Z</time>
      </trkpt>
      <trkpt lat="48.47348" lon="7.23957">
        <ele>424.6194</ele>
        <time>2026-09-03T14:09:07Z</time>
      </trkpt>
      <trkpt lat="48.47343" lon="7.23955">
        <ele>424.6194</ele>
        <time>2026-09-03T14:09:24Z</time>
      </trkpt>
      <trkpt lat="48.47346" lon="7.23949">
        <ele>424.6194</ele>
        <time>2026-09-03T14:09:28Z</time>
      </trkpt>
      <trkpt lat="48.47348" lon="7.23942">
        <ele>424.6194</ele>
        <time>2026-09-03T14:09:36Z</time>
      </trkpt>
      <trkpt lat="48.47352" lon="7.23938">
        <ele>424.6194</ele>
        <time>2026-09-03T14:09:41Z</time>
      </trkpt>
      <trkpt lat="48.47356" lon="7.23934">
        <ele>424.6194</ele>
        <time>2026-09-03T14:09:47Z</time>
      </trkpt>
      <trkpt lat="48.47359" lon="7.23928">
        <ele>424.6194</ele>
        <time>2026-09-03T14:09:53Z</time>
      </trkpt>
      <trkpt lat="48.47363" lon="7.23923">
        <ele>424.6194</ele>
        <time>2026-09-03T14:10:00Z</time>
      </trkpt>
      <trkpt lat="48.47367" lon="7.23915">
        <ele>424.6194</ele>
        <time>2026-09-03T14:10:07Z</time>
      </trkpt>
      <trkpt lat="48.47369" lon="7.23909">
        <ele>424.6194</ele>
        <time>2026-09-03T14:10:15Z</time>
      </trkpt>
      <trkpt lat="48.47372" lon="7.23905">
        <ele>424.6194</ele>
        <time>2026-09-03T14:10:20Z</time>
      </trkpt>
      <trkpt lat="48.47377" lon="7.239">
        <ele>424.6194</ele>
        <time>2026-09-03T14:10:25Z</time>
      </trkpt>
      <trkpt lat="48.4738" lon="7.23897">
        <ele>424.6194</ele>
        <time>2026-09-03T14:10:32Z</time>
      </trkpt>
      <trkpt lat="48.47382" lon="7.2389">
        <ele>424.6194</ele>
        <time>2026-09-03T14:10:39Z</time>
      </trkpt>
      <trkpt lat="48.47386" lon="7.23886">
        <ele>424.6194</ele>
        <time>2026-09-03T14:10:45Z</time>
      </trkpt>
      <trkpt lat="48.47389" lon="7.2388">
        <ele>426.65018</ele>
        <time>2026-09-03T14:10:50Z</time>
      </trkpt>
      <trkpt lat="48.47392" lon="7.23874">
        <ele>428.68094</ele>
        <time>2026-09-03T14:10:57Z</time>
      </trkpt>
      <trkpt lat="48.47396" lon="7.23869">
        <ele>430.71173</ele>
        <time>2026-09-03T14:11:02Z</time>
      </trkpt>
      <trkpt lat="48.47397" lon="7.23861">
        <ele>432.7425</ele>
        <time>2026-09-03T14:11:10Z</time>
      </trkpt>
      <trkpt lat="48.47401" lon="7.23858">
        <ele>434.7733</ele>
        <time>2026-09-03T14:11:15Z</time>
      </trkpt>
      <trkpt lat="48.47405" lon="7.23852">
        <ele>434.7733</ele>
        <time>2026-09-03T14:11:21Z</time>
      </trkpt>
      <trkpt lat="48.4741" lon="7.23846">
        <ele>434.7733</ele>
        <time>2026-09-03T14:11:25Z</time>
      </trkpt>
      <trkpt lat="48.47414" lon="7.23842">
        <ele>434.7733</ele>
        <time>2026-09-03T14:11:31Z</time>
      </trkpt>
      <trkpt lat="48.47418" lon="7.23839">
        <ele>434.7733</ele>
        <time>2026-09-03T14:11:38Z</time>
      </trkpt>
      <trkpt lat="48.47422" lon="7.23835">
        <ele>434.7733</ele>
        <time>2026-09-03T14:11:46Z</time>
      </trkpt>
      <trkpt lat="48.47426" lon="7.2383">
        <ele>434.7733</ele>
        <time>2026-09-03T14:11:50Z</time>
      </trkpt>
      <trkpt lat="48.47428" lon="7.23824">
        <ele>434.7733</ele>
        <time>2026-09-03T14:11:56Z</time>
      </trkpt>
      <trkpt lat="48.47431" lon="7.23819">
        <ele>434.7733</ele>
        <time>2026-09-03T14:12:00Z</time>
      </trkpt>
      <trkpt lat="48.47435" lon="7.23814">
        <ele>434.7733</ele>
        <time>2026-09-03T14:12:04Z</time>
      </trkpt>
      <trkpt lat="48.4744" lon="7.23812">
        <ele>434.7733</ele>
        <time>2026-09-03T14:12:11Z</time>
      </trkpt>
      <trkpt lat="48.47445" lon="7.23808">
        <ele>434.7733</ele>
        <time>2026-09-03T14:12:16Z</time>
      </trkpt>
      <trkpt lat="48.4745" lon="7.23804">
        <ele>434.7733</ele>
        <time>2026-09-03T14:12:22Z</time>
      </trkpt>
      <trkpt lat="48.47454" lon="7.23799">
        <ele>434.7733</ele>
        <time>2026-09-03T14:12:28Z</time>
      </trkpt>
      <trkpt lat="48.47458" lon="7.23794">
        <ele>434.7733</ele>
        <time>2026-09-03T14:12:34Z</time>
      </trkpt>
      <trkpt lat="48.47462" lon="7.23791">
        <ele>434.7733</ele>
        <time>2026-09-03T14:12:39Z</time>
      </trkpt>
      <trkpt lat="48.47467" lon="7.23788">
        <ele>434.7733</ele>
        <time>2026-09-03T14:12:44Z</time>
      </trkpt>
      <trkpt lat="48.47471" lon="7.23784">
        <ele>434.7733</ele>
        <time>2026-09-03T14:12:50Z</time>
      </trkpt>
      <trkpt lat="48.47475" lon="7.23781">
        <ele>434.7733</ele>
        <time>2026-09-03T14:12:55Z</time>
      </trkpt>
      <trkpt lat="48.47479" lon="7.23778">
        <ele>434.7733</ele>
        <time>2026-09-03T14:13:02Z</time>
      </trkpt>
      <trkpt lat="48.47483" lon="7.23773">
        <ele>434.7733</ele>
        <time>2026-09-03T14:13:09Z</time>
      </trkpt>
      <trkpt lat="48.47487" lon="7.23768">
        <ele>434.7733</ele>
        <time>2026-09-03T14:13:13Z</time>
      </trkpt>
      <trkpt lat="48.47492" lon="7.23763">
        <ele>434.7733</ele>
        <time>2026-09-03T14:13:19Z</time>
      </trkpt>
      <trkpt lat="48.47496" lon="7.2376">
        <ele>434.7733</ele>
        <time>2026-09-03T14:13:23Z</time>
      </trkpt>
      <trkpt lat="48.47501" lon="7.23757">
        <ele>434.7733</ele>
        <time>2026-09-03T14:13:29Z</time>
      </trkpt>
      <trkpt lat="48.47506" lon="7.23753">
        <ele>436.84314</ele>
        <time>2026-09-03T14:13:34Z</time>
      </trkpt>
      <trkpt lat="48.47509" lon="7.23757">
        <ele>438.913</ele>
        <time>2026-09-03T14:13:53Z</time>
      </trkpt>
      <trkpt lat="48.47514" lon="7.23763">
        <ele>440.98285</ele>
        <time>2026-09-03T14:14:19Z</time>
      </trkpt>
      <trkpt lat="48.47513" lon="7.23756">
        <ele>443.0527</ele>
        <time>2026-09-03T14:14:33Z</time>
      </trkpt>
      <trkpt lat="48.47515" lon="7.23748">
        <ele>445.12256</ele>
        <time>2026-09-03T14:14:38Z</time>
      </trkpt>
      <trkpt lat="48.47518" lon="7.23743">
        <ele>445.12256</ele>
        <time>2026-09-03T14:14:44Z</time>
      </trkpt>
      <trkpt lat="48.47522" lon="7.23739">
        <ele>445.12256</ele>
        <time>2026-09-03T14:14:48Z</time>
      </trkpt>
      <trkpt lat="48.47525" lon="7.23734">
        <ele>445.12256</ele>
        <time>2026-09-03T14:14:54Z</time>
      </trkpt>
      <trkpt lat="48.4753" lon="7.23728">
        <ele>445.12256</ele>
        <time>2026-09-03T14:15:01Z</time>
      </trkpt>
      <trkpt lat="48.47534" lon="7.23723">
        <ele>445.12256</ele>
        <time>2026-09-03T14:15:07Z</time>
      </trkpt>
      <trkpt lat="48.47537" lon="7.23718">
        <ele>445.12256</ele>
        <time>2026-09-03T14:15:11Z</time>
      </trkpt>
      <trkpt lat="48.47541" lon="7.23714">
        <ele>445.12256</ele>
        <time>2026-09-03T14:15:17Z</time>
      </trkpt>
      <trkpt lat="48.47545" lon="7.23709">
        <ele>445.12256</ele>
        <time>2026-09-03T14:15:22Z</time>
      </trkpt>
      <trkpt lat="48.47548" lon="7.23704">
        <ele>445.12256</ele>
        <time>2026-09-03T14:15:26Z</time>
      </trkpt>
      <trkpt lat="48.47551" lon="7.23698">
        <ele>445.12256</ele>
        <time>2026-09-03T14:15:31Z</time>
      </trkpt>
      <trkpt lat="48.47554" lon="7.23692">
        <ele>445.12256</ele>
        <time>2026-09-03T14:15:39Z</time>
      </trkpt>
      <trkpt lat="48.47558" lon="7.23685">
        <ele>445.12256</ele>
        <time>2026-09-03T14:15:45Z</time>
      </trkpt>
      <trkpt lat="48.47561" lon="7.23679">
        <ele>445.12256</ele>
        <time>2026-09-03T14:15:50Z</time>
      </trkpt>
      <trkpt lat="48.47565" lon="7.23673">
        <ele>445.12256</ele>
        <time>2026-09-03T14:15:56Z</time>
      </trkpt>
      <trkpt lat="48.47568" lon="7.23667">
        <ele>445.12256</ele>
        <time>2026-09-03T14:16:01Z</time>
      </trkpt>
      <trkpt lat="48.47571" lon="7.23661">
        <ele>445.12256</ele>
        <time>2026-09-03T14:16:09Z</time>
      </trkpt>
      <trkpt lat="48.47574" lon="7.23656">
        <ele>445.12256</ele>
        <time>2026-09-03T14:16:14Z</time>
      </trkpt>
      <trkpt lat="48.47578" lon="7.23649">
        <ele>445.12256</ele>
        <time>2026-09-03T14:16:20Z</time>
      </trkpt>
      <trkpt lat="48.47581" lon="7.23643">
        <ele>445.12256</ele>
        <time>2026-09-03T14:16:24Z</time>
      </trkpt>
      <trkpt lat="48.47584" lon="7.23638">
        <ele>445.12256</ele>
        <time>2026-09-03T14:16:29Z</time>
      </trkpt>
      <trkpt lat="48.47587" lon="7.23632">
        <ele>445.12256</ele>
        <time>2026-09-03T14:16:36Z</time>
      </trkpt>
      <trkpt lat="48.47591" lon="7.23626">
        <ele>445.12256</ele>
        <time>2026-09-03T14:16:42Z</time>
      </trkpt>
      <trkpt lat="48.47594" lon="7.23621">
        <ele>445.12256</ele>
        <time>2026-09-03T14:16:48Z</time>
      </trkpt>
      <trkpt lat="48.47597" lon="7.23615">
        <ele>445.12256</ele>
        <time>2026-09-03T14:16:51Z</time>
      </trkpt>
      <trkpt lat="48.47599" lon="7.23609">
        <ele>445.12256</ele>
        <time>2026-09-03T14:16:57Z</time>
      </trkpt>
      <trkpt lat="48.47602" lon="7.23601">
        <ele>445.12256</ele>
        <time>2026-09-03T14:17:03Z</time>
      </trkpt>
      <trkpt lat="48.47604" lon="7.23595">
        <ele>445.12256</ele>
        <time>2026-09-03T14:17:10Z</time>
      </trkpt>
      <trkpt lat="48.47606" lon="7.23587">
        <ele>445.12256</ele>
        <time>2026-09-03T14:17:17Z</time>
      </trkpt>
      <trkpt lat="48.47609" lon="7.2358">
        <ele>445.12256</ele>
        <time>2026-09-03T14:17:23Z</time>
      </trkpt>
      <trkpt lat="48.47611" lon="7.23573">
        <ele>445.12256</ele>
        <time>2026-09-03T14:17:30Z</time>
      </trkpt>
      <trkpt lat="48.47612" lon="7.23565">
        <ele>445.12256</ele>
        <time>2026-09-03T14:17:34Z</time>
      </trkpt>
      <trkpt lat="48.47613" lon="7.23557">
        <ele>445.12256</ele>
        <time>2026-09-03T14:17:39Z</time>
      </trkpt>
      <trkpt lat="48.47614" lon="7.2355">
        <ele>445.12256</ele>
        <time>2026-09-03T14:17:43Z</time>
      </trkpt>
      <trkpt lat="48.47615" lon="7.23543">
        <ele>445.12256</ele>
        <time>2026-09-03T14:17:49Z</time>
      </trkpt>
      <trkpt lat="48.47615" lon="7.23536">
        <ele>445.12256</ele>
        <time>2026-09-03T14:17:54Z</time>
      </trkpt>
      <trkpt lat="48.47616" lon="7.23528">
        <ele>443.02386</ele>
        <time>2026-09-03T14:17:59Z</time>
      </trkpt>
      <trkpt lat="48.47617" lon="7.2352">
        <ele>440.92517</ele>
        <time>2026-09-03T14:18:05Z</time>
      </trkpt>
      <trkpt lat="48.47618" lon="7.23513">
        <ele>438.8265</ele>
        <time>2026-09-03T14:18:11Z</time>
      </trkpt>
      <trkpt lat="48.47617" lon="7.23506">
        <ele>436.7278</ele>
        <time>2026-09-03T14:18:16Z</time>
      </trkpt>
      <trkpt lat="48.47617" lon="7.23499">
        <ele>434.62912</ele>
        <time>2026-09-03T14:18:21Z</time>
      </trkpt>
      <trkpt lat="48.47617" lon="7.23492">
        <ele>434.62912</ele>
        <time>2026-09-03T14:18:26Z</time>
      </trkpt>
      <trkpt lat="48.47617" lon="7.23484">
        <ele>434.62912</ele>
        <time>2026-09-03T14:18:33Z</time>
      </trkpt>
      <trkpt lat="48.47616" lon="7.23477">
        <ele>434.62912</ele>
        <time>2026-09-03T14:18:40Z</time>
      </trkpt>
      <trkpt lat="48.47616" lon="7.2347">
        <ele>434.62912</ele>
        <time>2026-09-03T14:18:45Z</time>
      </trkpt>
      <trkpt lat="48.47618" lon="7.23461">
        <ele>434.62912</ele>
        <time>2026-09-03T14:18:50Z</time>
      </trkpt>
      <trkpt lat="48.47621" lon="7.23457">
        <ele>434.62912</ele>
        <time>2026-09-03T14:18:53Z</time>
      </trkpt>
      <trkpt lat="48.47625" lon="7.23448">
        <ele>434.62912</ele>
        <time>2026-09-03T14:18:55Z</time>
      </trkpt>
      <trkpt lat="48.4763" lon="7.23442">
        <ele>434.62912</ele>
        <time>2026-09-03T14:19:02Z</time>
      </trkpt>
      <trkpt lat="48.47628" lon="7.23434">
        <ele>434.62912</ele>
        <time>2026-09-03T14:19:06Z</time>
      </trkpt>
      <trkpt lat="48.47626" lon="7.23428">
        <ele>434.62912</ele>
        <time>2026-09-03T14:19:08Z</time>
      </trkpt>
      <trkpt lat="48.47628" lon="7.23421">
        <ele>434.62912</ele>
        <time>2026-09-03T14:19:13Z</time>
      </trkpt>
      <trkpt lat="48.47631" lon="7.23415">
        <ele>434.62912</ele>
        <time>2026-09-03T14:19:17Z</time>
      </trkpt>
      <trkpt lat="48.47634" lon="7.23409">
        <ele>434.62912</ele>
        <time>2026-09-03T14:19:24Z</time>
      </trkpt>
      <trkpt lat="48.47637" lon="7.23404">
        <ele>432.53647</ele>
        <time>2026-09-03T14:19:40Z</time>
      </trkpt>
      <trkpt lat="48.4764" lon="7.23397">
        <ele>430.44382</ele>
        <time>2026-09-03T14:19:48Z</time>
      </trkpt>
      <trkpt lat="48.47643" lon="7.23392">
        <ele>428.35117</ele>
        <time>2026-09-03T14:19:53Z</time>
      </trkpt>
      <trkpt lat="48.47646" lon="7.23386">
        <ele>426.2585</ele>
        <time>2026-09-03T14:20:00Z</time>
      </trkpt>
      <trkpt lat="48.47649" lon="7.2338">
        <ele>424.16586</ele>
        <time>2026-09-03T14:20:05Z</time>
      </trkpt>
      <trkpt lat="48.47653" lon="7.23375">
        <ele>424.16586</ele>
        <time>2026-09-03T14:20:09Z</time>
      </trkpt>
      <trkpt lat="48.47656" lon="7.23371">
        <ele>424.16586</ele>
        <time>2026-09-03T14:20:14Z</time>
      </trkpt>
      <trkpt lat="48.47659" lon="7.23365">
        <ele>424.16586</ele>
        <time>2026-09-03T14:20:25Z</time>
      </trkpt>
      <trkpt lat="48.47662" lon="7.23358">
        <ele>424.16586</ele>
        <time>2026-09-03T14:20:31Z</time>
      </trkpt>
      <trkpt lat="48.47664" lon="7.23352">
        <ele>424.16586</ele>
        <time>2026-09-03T14:20:36Z</time>
      </trkpt>
      <trkpt lat="48.47666" lon="7.23345">
        <ele>424.16586</ele>
        <time>2026-09-03T14:20:41Z</time>
      </trkpt>
      <trkpt lat="48.4767" lon="7.23339">
        <ele>424.16586</ele>
        <time>2026-09-03T14:20:47Z</time>
      </trkpt>
      <trkpt lat="48.47674" lon="7.23334">
        <ele>424.16586</ele>
        <time>2026-09-03T14:20:52Z</time>
      </trkpt>
      <trkpt lat="48.47678" lon="7.23329">
        <ele>424.16586</ele>
        <time>2026-09-03T14:20:57Z</time>
      </trkpt>
      <trkpt lat="48.47681" lon="7.23323">
        <ele>424.16586</ele>
        <time>2026-09-03T14:21:02Z</time>
      </trkpt>
      <trkpt lat="48.47684" lon="7.23318">
        <ele>424.16586</ele>
        <time>2026-09-03T14:21:08Z</time>
      </trkpt>
      <trkpt lat="48.47687" lon="7.23312">
        <ele>424.16586</ele>
        <time>2026-09-03T14:21:13Z</time>
      </trkpt>
      <trkpt lat="48.4769" lon="7.23307">
        <ele>424.16586</ele>
        <time>2026-09-03T14:21:19Z</time>
      </trkpt>
      <trkpt lat="48.47694" lon="7.23301">
        <ele>424.16586</ele>
        <time>2026-09-03T14:21:25Z</time>
      </trkpt>
      <trkpt lat="48.47696" lon="7.23294">
        <ele>424.16586</ele>
        <time>2026-09-03T14:21:30Z</time>
      </trkpt>
      <trkpt lat="48.477" lon="7.23287">
        <ele>424.16586</ele>
        <time>2026-09-03T14:21:37Z</time>
      </trkpt>
      <trkpt lat="48.47703" lon="7.23281">
        <ele>424.16586</ele>
        <time>2026-09-03T14:21:43Z</time>
      </trkpt>
      <trkpt lat="48.47699" lon="7.23277">
        <ele>421.871</ele>
        <time>2026-09-03T14:23:19Z</time>
      </trkpt>
      <trkpt lat="48.47703" lon="7.23281">
        <ele>419.57614</ele>
        <time>2026-09-03T14:23:54Z</time>
      </trkpt>
      <trkpt lat="48.47707" lon="7.23283">
        <ele>417.28128</ele>
        <time>2026-09-03T14:24:11Z</time>
      </trkpt>
      <trkpt lat="48.47703" lon="7.23281">
        <ele>414.98642</ele>
        <time>2026-09-03T14:26:22Z</time>
      </trkpt>
      <trkpt lat="48.47708" lon="7.23281">
        <ele>412.69156</ele>
        <time>2026-09-03T14:27:03Z</time>
      </trkpt>
      <trkpt lat="48.4771" lon="7.23275">
        <ele>412.69156</ele>
        <time>2026-09-03T14:27:14Z</time>
      </trkpt>
      <trkpt lat="48.47713" lon="7.23269">
        <ele>412.69156</ele>
        <time>2026-09-03T14:27:27Z</time>
      </trkpt>
      <trkpt lat="48.47714" lon="7.23263">
        <ele>412.69156</ele>
        <time>2026-09-03T14:27:32Z</time>
      </trkpt>
      <trkpt lat="48.47717" lon="7.23256">
        <ele>412.69156</ele>
        <time>2026-09-03T14:27:37Z</time>
      </trkpt>
      <trkpt lat="48.47719" lon="7.2325">
        <ele>412.69156</ele>
        <time>2026-09-03T14:27:41Z</time>
      </trkpt>
      <trkpt lat="48.47722" lon="7.23243">
        <ele>412.69156</ele>
        <time>2026-09-03T14:27:48Z</time>
      </trkpt>
      <trkpt lat="48.47724" lon="7.23237">
        <ele>412.69156</ele>
        <time>2026-09-03T14:27:53Z</time>
      </trkpt>
      <trkpt lat="48.47728" lon="7.23231">
        <ele>412.69156</ele>
        <time>2026-09-03T14:28:01Z</time>
      </trkpt>
      <trkpt lat="48.47731" lon="7.23226">
        <ele>412.69156</ele>
        <time>2026-09-03T14:28:16Z</time>
      </trkpt>
      <trkpt lat="48.47735" lon="7.23219">
        <ele>412.69156</ele>
        <time>2026-09-03T14:28:21Z</time>
      </trkpt>
      <trkpt lat="48.47739" lon="7.23215">
        <ele>412.69156</ele>
        <time>2026-09-03T14:28:28Z</time>
      </trkpt>
      <trkpt lat="48.47743" lon="7.23211">
        <ele>412.69156</ele>
        <time>2026-09-03T14:28:31Z</time>
      </trkpt>
      <trkpt lat="48.47747" lon="7.23207">
        <ele>412.69156</ele>
        <time>2026-09-03T14:28:35Z</time>
      </trkpt>
      <trkpt lat="48.47751" lon="7.23204">
        <ele>412.69156</ele>
        <time>2026-09-03T14:28:40Z</time>
      </trkpt>
      <trkpt lat="48.47755" lon="7.23201">
        <ele>412.69156</ele>
        <time>2026-09-03T14:28:47Z</time>
      </trkpt>
      <trkpt lat="48.4776" lon="7.23202">
        <ele>412.69156</ele>
        <time>2026-09-03T14:28:53Z</time>
      </trkpt>
      <trkpt lat="48.47765" lon="7.23204">
        <ele>412.69156</ele>
        <time>2026-09-03T14:29:02Z</time>
      </trkpt>
      <trkpt lat="48.4777" lon="7.23208">
        <ele>412.69156</ele>
        <time>2026-09-03T14:29:08Z</time>
      </trkpt>
      <trkpt lat="48.47773" lon="7.23212">
        <ele>412.69156</ele>
        <time>2026-09-03T14:29:17Z</time>
      </trkpt>
      <trkpt lat="48.47777" lon="7.23209">
        <ele>412.69156</ele>
        <time>2026-09-03T14:29:30Z</time>
      </trkpt>
      <trkpt lat="48.47782" lon="7.23211">
        <ele>412.69156</ele>
        <time>2026-09-03T14:29:39Z</time>
      </trkpt>
      <trkpt lat="48.47787" lon="7.23214">
        <ele>412.69156</ele>
        <time>2026-09-03T14:29:45Z</time>
      </trkpt>
      <trkpt lat="48.47791" lon="7.23216">
        <ele>410.6768</ele>
        <time>2026-09-03T14:29:51Z</time>
      </trkpt>
      <trkpt lat="48.47797" lon="7.23218">
        <ele>408.66205</ele>
        <time>2026-09-03T14:29:58Z</time>
      </trkpt>
      <trkpt lat="48.47802" lon="7.23221">
        <ele>406.64728</ele>
        <time>2026-09-03T14:30:04Z</time>
      </trkpt>
      <trkpt lat="48.47806" lon="7.23224">
        <ele>404.63254</ele>
        <time>2026-09-03T14:30:10Z</time>
      </trkpt>
      <trkpt lat="48.4781" lon="7.23227">
        <ele>402.61777</ele>
        <time>2026-09-03T14:30:16Z</time>
      </trkpt>
      <trkpt lat="48.47814" lon="7.23232">
        <ele>402.61777</ele>
        <time>2026-09-03T14:30:23Z</time>
      </trkpt>
      <trkpt lat="48.47817" lon="7.23238">
        <ele>402.61777</ele>
        <time>2026-09-03T14:30:30Z</time>
      </trkpt>
      <trkpt lat="48.4782" lon="7.23245">
        <ele>402.61777</ele>
        <time>2026-09-03T14:30:37Z</time>
      </trkpt>
      <trkpt lat="48.47825" lon="7.23246">
        <ele>402.61777</ele>
        <time>2026-09-03T14:30:49Z</time>
      </trkpt>
      <trkpt lat="48.47829" lon="7.23253">
        <ele>400.5378</ele>
        <time>2026-09-03T14:30:58Z</time>
      </trkpt>
      <trkpt lat="48.47833" lon="7.23259">
        <ele>398.4579</ele>
        <time>2026-09-03T14:31:06Z</time>
      </trkpt>
      <trkpt lat="48.47836" lon="7.23263">
        <ele>396.37793</ele>
        <time>2026-09-03T14:31:11Z</time>
      </trkpt>
      <trkpt lat="48.47841" lon="7.23266">
        <ele>394.298</ele>
        <time>2026-09-03T14:31:19Z</time>
      </trkpt>
      <trkpt lat="48.47846" lon="7.23273">
        <ele>392.21805</ele>
        <time>2026-09-03T14:31:28Z</time>
      </trkpt>
      <trkpt lat="48.4785" lon="7.23277">
        <ele>392.21805</ele>
        <time>2026-09-03T14:31:34Z</time>
      </trkpt>
      <trkpt lat="48.47854" lon="7.23282">
        <ele>392.21805</ele>
        <time>2026-09-03T14:31:40Z</time>
      </trkpt>
      <trkpt lat="48.47858" lon="7.23287">
        <ele>392.21805</ele>
        <time>2026-09-03T14:31:45Z</time>
      </trkpt>
      <trkpt lat="48.47863" lon="7.23289">
        <ele>392.21805</ele>
        <time>2026-09-03T14:31:52Z</time>
      </trkpt>
      <trkpt lat="48.47866" lon="7.23292">
        <ele>392.21805</ele>
        <time>2026-09-03T14:31:57Z</time>
      </trkpt>
      <trkpt lat="48.47871" lon="7.23297">
        <ele>392.21805</ele>
        <time>2026-09-03T14:32:02Z</time>
      </trkpt>
      <trkpt lat="48.47875" lon="7.233">
        <ele>392.21805</ele>
        <time>2026-09-03T14:32:08Z</time>
      </trkpt>
      <trkpt lat="48.47879" lon="7.23303">
        <ele>392.21805</ele>
        <time>2026-09-03T14:32:14Z</time>
      </trkpt>
      <trkpt lat="48.47883" lon="7.23307">
        <ele>392.21805</ele>
        <time>2026-09-03T14:32:20Z</time>
      </trkpt>
      <trkpt lat="48.47888" lon="7.23311">
        <ele>392.21805</ele>
        <time>2026-09-03T14:32:26Z</time>
      </trkpt>
      <trkpt lat="48.47892" lon="7.23315">
        <ele>392.21805</ele>
        <time>2026-09-03T14:32:31Z</time>
      </trkpt>
      <trkpt lat="48.47895" lon="7.23319">
        <ele>392.21805</ele>
        <time>2026-09-03T14:32:36Z</time>
      </trkpt>
      <trkpt lat="48.47901" lon="7.23322">
        <ele>392.21805</ele>
        <time>2026-09-03T14:32:41Z</time>
      </trkpt>
      <trkpt lat="48.47904" lon="7.23326">
        <ele>392.21805</ele>
        <time>2026-09-03T14:32:46Z</time>
      </trkpt>
      <trkpt lat="48.47908" lon="7.23332">
        <ele>390.12482</ele>
        <time>2026-09-03T14:32:51Z</time>
      </trkpt>
      <trkpt lat="48.47911" lon="7.23338">
        <ele>388.03162</ele>
        <time>2026-09-03T14:32:56Z</time>
      </trkpt>
      <trkpt lat="48.47915" lon="7.23344">
        <ele>385.9384</ele>
        <time>2026-09-03T14:33:00Z</time>
      </trkpt>
      <trkpt lat="48.47919" lon="7.23345">
        <ele>383.84518</ele>
        <time>2026-09-03T14:33:06Z</time>
      </trkpt>
      <trkpt lat="48.47922" lon="7.23352">
        <ele>381.75195</ele>
        <time>2026-09-03T14:33:11Z</time>
      </trkpt>
      <trkpt lat="48.47926" lon="7.23357">
        <ele>381.75195</ele>
        <time>2026-09-03T14:33:18Z</time>
      </trkpt>
      <trkpt lat="48.47929" lon="7.23362">
        <ele>381.75195</ele>
        <time>2026-09-03T14:33:22Z</time>
      </trkpt>
      <trkpt lat="48.47933" lon="7.23367">
        <ele>381.75195</ele>
        <time>2026-09-03T14:33:26Z</time>
      </trkpt>
      <trkpt lat="48.47936" lon="7.23373">
        <ele>381.75195</ele>
        <time>2026-09-03T14:33:32Z</time>
      </trkpt>
      <trkpt lat="48.47939" lon="7.23379">
        <ele>381.75195</ele>
        <time>2026-09-03T14:33:38Z</time>
      </trkpt>
      <trkpt lat="48.47943" lon="7.23385">
        <ele>381.75195</ele>
        <time>2026-09-03T14:33:42Z</time>
      </trkpt>
      <trkpt lat="48.47947" lon="7.2339">
        <ele>381.75195</ele>
        <time>2026-09-03T14:33:47Z</time>
      </trkpt>
      <trkpt lat="48.4795" lon="7.23394">
        <ele>381.75195</ele>
        <time>2026-09-03T14:33:52Z</time>
      </trkpt>
      <trkpt lat="48.47954" lon="7.234">
        <ele>381.75195</ele>
        <time>2026-09-03T14:33:57Z</time>
      </trkpt>
      <trkpt lat="48.47957" lon="7.23405">
        <ele>381.75195</ele>
        <time>2026-09-03T14:34:03Z</time>
      </trkpt>
      <trkpt lat="48.4796" lon="7.23412">
        <ele>381.75195</ele>
        <time>2026-09-03T14:34:09Z</time>
      </trkpt>
      <trkpt lat="48.47961" lon="7.2342">
        <ele>381.75195</ele>
        <time>2026-09-03T14:34:14Z</time>
      </trkpt>
      <trkpt lat="48.47963" lon="7.23429">
        <ele>381.75195</ele>
        <time>2026-09-03T14:34:20Z</time>
      </trkpt>
      <trkpt lat="48.47966" lon="7.23436">
        <ele>379.66815</ele>
        <time>2026-09-03T14:34:25Z</time>
      </trkpt>
      <trkpt lat="48.47968" lon="7.23443">
        <ele>377.58435</ele>
        <time>2026-09-03T14:34:31Z</time>
      </trkpt>
      <trkpt lat="48.4797" lon="7.23449">
        <ele>375.50052</ele>
        <time>2026-09-03T14:34:35Z</time>
      </trkpt>
      <trkpt lat="48.47971" lon="7.23456">
        <ele>373.41672</ele>
        <time>2026-09-03T14:34:41Z</time>
      </trkpt>
      <trkpt lat="48.47974" lon="7.23462">
        <ele>371.33292</ele>
        <time>2026-09-03T14:34:45Z</time>
      </trkpt>
      <trkpt lat="48.47975" lon="7.23469">
        <ele>371.33292</ele>
        <time>2026-09-03T14:34:51Z</time>
      </trkpt>
      <trkpt lat="48.47978" lon="7.23476">
        <ele>371.33292</ele>
        <time>2026-09-03T14:34:57Z</time>
      </trkpt>
      <trkpt lat="48.47979" lon="7.23483">
        <ele>371.33292</ele>
        <time>2026-09-03T14:35:02Z</time>
      </trkpt>
      <trkpt lat="48.47981" lon="7.23489">
        <ele>371.33292</ele>
        <time>2026-09-03T14:35:07Z</time>
      </trkpt>
      <trkpt lat="48.47983" lon="7.23496">
        <ele>371.33292</ele>
        <time>2026-09-03T14:35:12Z</time>
      </trkpt>
      <trkpt lat="48.47985" lon="7.23502">
        <ele>371.33292</ele>
        <time>2026-09-03T14:35:17Z</time>
      </trkpt>
      <trkpt lat="48.47987" lon="7.23509">
        <ele>371.33292</ele>
        <time>2026-09-03T14:35:22Z</time>
      </trkpt>
      <trkpt lat="48.47989" lon="7.23517">
        <ele>371.33292</ele>
        <time>2026-09-03T14:35:28Z</time>
      </trkpt>
      <trkpt lat="48.47991" lon="7.23524">
        <ele>371.33292</ele>
        <time>2026-09-03T14:35:34Z</time>
      </trkpt>
      <trkpt lat="48.47994" lon="7.23531">
        <ele>371.33292</ele>
        <time>2026-09-03T14:35:39Z</time>
      </trkpt>
      <trkpt lat="48.47996" lon="7.23539">
        <ele>371.33292</ele>
        <time>2026-09-03T14:35:45Z</time>
      </trkpt>
      <trkpt lat="48.47998" lon="7.23547">
        <ele>371.33292</ele>
        <time>2026-09-03T14:35:51Z</time>
      </trkpt>
      <trkpt lat="48.48" lon="7.23554">
        <ele>371.33292</ele>
        <time>2026-09-03T14:35:56Z</time>
      </trkpt>
      <trkpt lat="48.48002" lon="7.2356">
        <ele>371.33292</ele>
        <time>2026-09-03T14:36:01Z</time>
      </trkpt>
      <trkpt lat="48.48004" lon="7.23566">
        <ele>371.33292</ele>
        <time>2026-09-03T14:36:06Z</time>
      </trkpt>
      <trkpt lat="48.48006" lon="7.23573">
        <ele>371.33292</ele>
        <time>2026-09-03T14:36:11Z</time>
      </trkpt>
      <trkpt lat="48.48008" lon="7.2358">
        <ele>371.33292</ele>
        <time>2026-09-03T14:36:16Z</time>
      </trkpt>
      <trkpt lat="48.4801" lon="7.23587">
        <ele>369.30524</ele>
        <time>2026-09-03T14:36:21Z</time>
      </trkpt>
      <trkpt lat="48.48013" lon="7.23593">
        <ele>367.27756</ele>
        <time>2026-09-03T14:36:26Z</time>
      </trkpt>
      <trkpt lat="48.48015" lon="7.23599">
        <ele>365.24985</ele>
        <time>2026-09-03T14:36:32Z</time>
      </trkpt>
      <trkpt lat="48.48016" lon="7.23606">
        <ele>363.22217</ele>
        <time>2026-09-03T14:36:37Z</time>
      </trkpt>
      <trkpt lat="48.48018" lon="7.23613">
        <ele>361.1945</ele>
        <time>2026-09-03T14:36:42Z</time>
      </trkpt>
      <trkpt lat="48.4802" lon="7.2362">
        <ele>361.1945</ele>
        <time>2026-09-03T14:36:48Z</time>
      </trkpt>
      <trkpt lat="48.48021" lon="7.23629">
        <ele>361.1945</ele>
        <time>2026-09-03T14:36:54Z</time>
      </trkpt>
      <trkpt lat="48.48023" lon="7.23636">
        <ele>361.1945</ele>
        <time>2026-09-03T14:36:58Z</time>
      </trkpt>
      <trkpt lat="48.48024" lon="7.23644">
        <ele>361.1945</ele>
        <time>2026-09-03T14:37:04Z</time>
      </trkpt>
      <trkpt lat="48.48028" lon="7.2365">
        <ele>361.1945</ele>
        <time>2026-09-03T14:37:10Z</time>
      </trkpt>
      <trkpt lat="48.48032" lon="7.23652">
        <ele>361.1945</ele>
        <time>2026-09-03T14:37:14Z</time>
      </trkpt>
      <trkpt lat="48.48036" lon="7.23648">
        <ele>361.1945</ele>
        <time>2026-09-03T14:37:18Z</time>
      </trkpt>
      <trkpt lat="48.48038" lon="7.2364">
        <ele>361.1945</ele>
        <time>2026-09-03T14:37:24Z</time>
      </trkpt>
      <trkpt lat="48.48038" lon="7.23632">
        <ele>361.1945</ele>
        <time>2026-09-03T14:37:29Z</time>
      </trkpt>
      <trkpt lat="48.48038" lon="7.23625">
        <ele>361.1945</ele>
        <time>2026-09-03T14:37:35Z</time>
      </trkpt>
      <trkpt lat="48.48038" lon="7.23618">
        <ele>361.1945</ele>
        <time>2026-09-03T14:37:39Z</time>
      </trkpt>
      <trkpt lat="48.48039" lon="7.2361">
        <ele>361.1945</ele>
        <time>2026-09-03T14:37:45Z</time>
      </trkpt>
      <trkpt lat="48.48039" lon="7.23602">
        <ele>361.1945</ele>
        <time>2026-09-03T14:37:50Z</time>
      </trkpt>
      <trkpt lat="48.48041" lon="7.23595">
        <ele>361.1945</ele>
        <time>2026-09-03T14:37:55Z</time>
      </trkpt>
      <trkpt lat="48.48042" lon="7.23588">
        <ele>361.1945</ele>
        <time>2026-09-03T14:38:00Z</time>
      </trkpt>
      <trkpt lat="48.48043" lon="7.23581">
        <ele>361.1945</ele>
        <time>2026-09-03T14:38:05Z</time>
      </trkpt>
      <trkpt lat="48.48044" lon="7.23574">
        <ele>361.1945</ele>
        <time>2026-09-03T14:38:10Z</time>
      </trkpt>
      <trkpt lat="48.48045" lon="7.23567">
        <ele>361.1945</ele>
        <time>2026-09-03T14:38:14Z</time>
      </trkpt>
      <trkpt lat="48.48047" lon="7.23561">
        <ele>361.1945</ele>
        <time>2026-09-03T14:38:19Z</time>
      </trkpt>
      <trkpt lat="48.48048" lon="7.23554">
        <ele>361.1945</ele>
        <time>2026-09-03T14:38:25Z</time>
      </trkpt>
      <trkpt lat="48.4805" lon="7.23546">
        <ele>361.1945</ele>
        <time>2026-09-03T14:38:30Z</time>
      </trkpt>
      <trkpt lat="48.48052" lon="7.23538">
        <ele>361.1945</ele>
        <time>2026-09-03T14:38:36Z</time>
      </trkpt>
      <trkpt lat="48.48055" lon="7.23532">
        <ele>361.1945</ele>
        <time>2026-09-03T14:38:40Z</time>
      </trkpt>
      <trkpt lat="48.48057" lon="7.23524">
        <ele>359.1518</ele>
        <time>2026-09-03T14:38:46Z</time>
      </trkpt>
      <trkpt lat="48.48059" lon="7.23518">
        <ele>357.1091</ele>
        <time>2026-09-03T14:38:51Z</time>
      </trkpt>
      <trkpt lat="48.48063" lon="7.23512">
        <ele>355.06644</ele>
        <time>2026-09-03T14:38:57Z</time>
      </trkpt>
      <trkpt lat="48.48066" lon="7.23506">
        <ele>353.02374</ele>
        <time>2026-09-03T14:39:03Z</time>
      </trkpt>
      <trkpt lat="48.48069" lon="7.23501">
        <ele>350.98105</ele>
        <time>2026-09-03T14:39:09Z</time>
      </trkpt>
      <trkpt lat="48.48074" lon="7.23497">
        <ele>350.98105</ele>
        <time>2026-09-03T14:39:16Z</time>
      </trkpt>
      <trkpt lat="48.48078" lon="7.23492">
        <ele>350.98105</ele>
        <time>2026-09-03T14:39:21Z</time>
      </trkpt>
      <trkpt lat="48.48082" lon="7.23488">
        <ele>350.98105</ele>
        <time>2026-09-03T14:39:28Z</time>
      </trkpt>
      <trkpt lat="48.48087" lon="7.23484">
        <ele>350.98105</ele>
        <time>2026-09-03T14:39:34Z</time>
      </trkpt>
      <trkpt lat="48.48091" lon="7.2348">
        <ele>350.98105</ele>
        <time>2026-09-03T14:39:40Z</time>
      </trkpt>
      <trkpt lat="48.48095" lon="7.23476">
        <ele>350.98105</ele>
        <time>2026-09-03T14:39:45Z</time>
      </trkpt>
      <trkpt lat="48.48099" lon="7.23472">
        <ele>350.98105</ele>
        <time>2026-09-03T14:39:51Z</time>
      </trkpt>
      <trkpt lat="48.48101" lon="7.23465">
        <ele>350.98105</ele>
        <time>2026-09-03T14:39:55Z</time>
      </trkpt>
      <trkpt lat="48.48106" lon="7.23462">
        <ele>350.98105</ele>
        <time>2026-09-03T14:40:00Z</time>
      </trkpt>
      <trkpt lat="48.4811" lon="7.23457">
        <ele>350.98105</ele>
        <time>2026-09-03T14:40:06Z</time>
      </trkpt>
      <trkpt lat="48.48114" lon="7.23453">
        <ele>350.98105</ele>
        <time>2026-09-03T14:40:12Z</time>
      </trkpt>
      <trkpt lat="48.48117" lon="7.23448">
        <ele>350.98105</ele>
        <time>2026-09-03T14:40:18Z</time>
      </trkpt>
      <trkpt lat="48.48122" lon="7.23444">
        <ele>350.98105</ele>
        <time>2026-09-03T14:40:23Z</time>
      </trkpt>
      <trkpt lat="48.48124" lon="7.23437">
        <ele>350.98105</ele>
        <time>2026-09-03T14:40:29Z</time>
      </trkpt>
      <trkpt lat="48.48127" lon="7.23432">
        <ele>350.98105</ele>
        <time>2026-09-03T14:40:34Z</time>
      </trkpt>
      <trkpt lat="48.48131" lon="7.23425">
        <ele>350.98105</ele>
        <time>2026-09-03T14:40:42Z</time>
      </trkpt>
      <trkpt lat="48.48131" lon="7.23418">
        <ele>350.98105</ele>
        <time>2026-09-03T14:40:48Z</time>
      </trkpt>
      <trkpt lat="48.48134" lon="7.23412">
        <ele>350.98105</ele>
        <time>2026-09-03T14:40:54Z</time>
      </trkpt>
      <trkpt lat="48.48136" lon="7.23405">
        <ele>350.98105</ele>
        <time>2026-09-03T14:40:59Z</time>
      </trkpt>
      <trkpt lat="48.48137" lon="7.23398">
        <ele>350.98105</ele>
        <time>2026-09-03T14:41:04Z</time>
      </trkpt>
      <trkpt lat="48.4814" lon="7.23391">
        <ele>350.98105</ele>
        <time>2026-09-03T14:41:10Z</time>
      </trkpt>
      <trkpt lat="48.48142" lon="7.23385">
        <ele>350.98105</ele>
        <time>2026-09-03T14:41:17Z</time>
      </trkpt>
      <trkpt lat="48.48142" lon="7.23378">
        <ele>350.98105</ele>
        <time>2026-09-03T14:42:46Z</time>
      </trkpt>
      <trkpt lat="48.48143" lon="7.23371">
        <ele>350.98105</ele>
        <time>2026-09-03T14:42:54Z</time>
      </trkpt>
      <trkpt lat="48.48145" lon="7.23364">
        <ele>350.98105</ele>
        <time>2026-09-03T14:43:00Z</time>
      </trkpt>
      <trkpt lat="48.48145" lon="7.23356">
        <ele>350.98105</ele>
        <time>2026-09-03T14:43:07Z</time>
      </trkpt>
      <trkpt lat="48.48146" lon="7.23349">
        <ele>350.98105</ele>
        <time>2026-09-03T14:43:12Z</time>
      </trkpt>
      <trkpt lat="48.48146" lon="7.23342">
        <ele>350.98105</ele>
        <time>2026-09-03T14:43:18Z</time>
      </trkpt>
      <trkpt lat="48.48146" lon="7.23333">
        <ele>350.98105</ele>
        <time>2026-09-03T14:43:23Z</time>
      </trkpt>
      <trkpt lat="48.48145" lon="7.23326">
        <ele>350.98105</ele>
        <time>2026-09-03T14:43:29Z</time>
      </trkpt>
      <trkpt lat="48.48145" lon="7.23319">
        <ele>350.98105</ele>
        <time>2026-09-03T14:43:34Z</time>
      </trkpt>
      <trkpt lat="48.48144" lon="7.23311">
        <ele>350.98105</ele>
        <time>2026-09-03T14:43:43Z</time>
      </trkpt>
      <trkpt lat="48.48143" lon="7.23304">
        <ele>350.98105</ele>
        <time>2026-09-03T14:43:47Z</time>
      </trkpt>
      <trkpt lat="48.4814" lon="7.23298">
        <ele>350.98105</ele>
        <time>2026-09-03T14:43:55Z</time>
      </trkpt>
      <trkpt lat="48.4814" lon="7.23289">
        <ele>350.98105</ele>
        <time>2026-09-03T14:43:59Z</time>
      </trkpt>
      <trkpt lat="48.4814" lon="7.23282">
        <ele>350.98105</ele>
        <time>2026-09-03T14:44:04Z</time>
      </trkpt>
      <trkpt lat="48.48137" lon="7.23276">
        <ele>350.98105</ele>
        <time>2026-09-03T14:44:12Z</time>
      </trkpt>
      <trkpt lat="48.48135" lon="7.23269">
        <ele>350.98105</ele>
        <time>2026-09-03T14:44:18Z</time>
      </trkpt>
      <trkpt lat="48.48133" lon="7.23262">
        <ele>350.98105</ele>
        <time>2026-09-03T14:44:23Z</time>
      </trkpt>
      <trkpt lat="48.48129" lon="7.23256">
        <ele>350.98105</ele>
        <time>2026-09-03T14:44:28Z</time>
      </trkpt>
      <trkpt lat="48.48126" lon="7.23252">
        <ele>350.98105</ele>
        <time>2026-09-03T14:44:34Z</time>
      </trkpt>
      <trkpt lat="48.48123" lon="7.23246">
        <ele>350.98105</ele>
        <time>2026-09-03T14:44:39Z</time>
      </trkpt>
      <trkpt lat="48.48117" lon="7.23244">
        <ele>350.98105</ele>
        <time>2026-09-03T14:44:46Z</time>
      </trkpt>
      <trkpt lat="48.48116" lon="7.23237">
        <ele>350.98105</ele>
        <time>2026-09-03T14:44:52Z</time>
      </trkpt>
      <trkpt lat="48.48114" lon="7.23231">
        <ele>348.8576</ele>
        <time>2026-09-03T14:44:59Z</time>
      </trkpt>
      <trkpt lat="48.48111" lon="7.23224">
        <ele>346.73413</ele>
        <time>2026-09-03T14:45:04Z</time>
      </trkpt>
      <trkpt lat="48.48106" lon="7.23221">
        <ele>344.6107</ele>
        <time>2026-09-03T14:45:11Z</time>
      </trkpt>
      <trkpt lat="48.48103" lon="7.23216">
        <ele>342.4872</ele>
        <time>2026-09-03T14:45:17Z</time>
      </trkpt>
      <trkpt lat="48.481" lon="7.23211">
        <ele>340.36377</ele>
        <time>2026-09-03T14:45:21Z</time>
      </trkpt>
      <trkpt lat="48.48098" lon="7.23204">
        <ele>340.36377</ele>
        <time>2026-09-03T14:45:26Z</time>
      </trkpt>
      <trkpt lat="48.48093" lon="7.23203">
        <ele>340.36377</ele>
        <time>2026-09-03T14:45:31Z</time>
      </trkpt>
      <trkpt lat="48.48092" lon="7.23197">
        <ele>340.36377</ele>
        <time>2026-09-03T14:45:35Z</time>
      </trkpt>
      <trkpt lat="48.4809" lon="7.23191">
        <ele>340.36377</ele>
        <time>2026-09-03T14:45:39Z</time>
      </trkpt>
      <trkpt lat="48.48087" lon="7.23184">
        <ele>340.36377</ele>
        <time>2026-09-03T14:45:44Z</time>
      </trkpt>
      <trkpt lat="48.48083" lon="7.23179">
        <ele>340.36377</ele>
        <time>2026-09-03T14:45:49Z</time>
      </trkpt>
      <trkpt lat="48.4808" lon="7.23173">
        <ele>340.36377</ele>
        <time>2026-09-03T14:45:53Z</time>
      </trkpt>
      <trkpt lat="48.48076" lon="7.23167">
        <ele>340.36377</ele>
        <time>2026-09-03T14:45:58Z</time>
      </trkpt>
      <trkpt lat="48.48073" lon="7.23161">
        <ele>340.36377</ele>
        <time>2026-09-03T14:46:03Z</time>
      </trkpt>
      <trkpt lat="48.48071" lon="7.23155">
        <ele>340.36377</ele>
        <time>2026-09-03T14:46:07Z</time>
      </trkpt>
      <trkpt lat="48.48066" lon="7.2315">
        <ele>340.36377</ele>
        <time>2026-09-03T14:46:14Z</time>
      </trkpt>
      <trkpt lat="48.48063" lon="7.23144">
        <ele>340.36377</ele>
        <time>2026-09-03T14:46:19Z</time>
      </trkpt>
      <trkpt lat="48.48061" lon="7.23137">
        <ele>340.36377</ele>
        <time>2026-09-03T14:46:23Z</time>
      </trkpt>
      <trkpt lat="48.48056" lon="7.23136">
        <ele>340.36377</ele>
        <time>2026-09-03T14:46:28Z</time>
      </trkpt>
      <trkpt lat="48.48054" lon="7.2313">
        <ele>340.36377</ele>
        <time>2026-09-03T14:46:32Z</time>
      </trkpt>
      <trkpt lat="48.48051" lon="7.23124">
        <ele>340.36377</ele>
        <time>2026-09-03T14:46:37Z</time>
      </trkpt>
      <trkpt lat="48.48048" lon="7.23117">
        <ele>340.36377</ele>
        <time>2026-09-03T14:46:41Z</time>
      </trkpt>
      <trkpt lat="48.48045" lon="7.23112">
        <ele>340.36377</ele>
        <time>2026-09-03T14:46:45Z</time>
      </trkpt>
      <trkpt lat="48.48042" lon="7.23107">
        <ele>340.36377</ele>
        <time>2026-09-03T14:46:50Z</time>
      </trkpt>
      <trkpt lat="48.48037" lon="7.23104">
        <ele>340.36377</ele>
        <time>2026-09-03T14:46:55Z</time>
      </trkpt>
      <trkpt lat="48.48034" lon="7.23099">
        <ele>340.36377</ele>
        <time>2026-09-03T14:47:00Z</time>
      </trkpt>
      <trkpt lat="48.48029" lon="7.23095">
        <ele>340.36377</ele>
        <time>2026-09-03T14:47:05Z</time>
      </trkpt>
      <trkpt lat="48.48024" lon="7.23093">
        <ele>340.36377</ele>
        <time>2026-09-03T14:47:09Z</time>
      </trkpt>
      <trkpt lat="48.4802" lon="7.23091">
        <ele>340.36377</ele>
        <time>2026-09-03T14:47:13Z</time>
      </trkpt>
      <trkpt lat="48.48015" lon="7.2309">
        <ele>340.36377</ele>
        <time>2026-09-03T14:47:17Z</time>
      </trkpt>
      <trkpt lat="48.48011" lon="7.23088">
        <ele>340.36377</ele>
        <time>2026-09-03T14:47:21Z</time>
      </trkpt>
      <trkpt lat="48.48007" lon="7.23084">
        <ele>340.36377</ele>
        <time>2026-09-03T14:47:25Z</time>
      </trkpt>
      <trkpt lat="48.48003" lon="7.2308">
        <ele>340.36377</ele>
        <time>2026-09-03T14:47:29Z</time>
      </trkpt>
      <trkpt lat="48.47997" lon="7.23079">
        <ele>340.36377</ele>
        <time>2026-09-03T14:47:34Z</time>
      </trkpt>
      <trkpt lat="48.47992" lon="7.23077">
        <ele>340.36377</ele>
        <time>2026-09-03T14:47:39Z</time>
      </trkpt>
      <trkpt lat="48.47988" lon="7.23078">
        <ele>340.36377</ele>
        <time>2026-09-03T14:47:43Z</time>
      </trkpt>
      <trkpt lat="48.47983" lon="7.23076">
        <ele>340.36377</ele>
        <time>2026-09-03T14:47:47Z</time>
      </trkpt>
      <trkpt lat="48.47977" lon="7.23075">
        <ele>340.36377</ele>
        <time>2026-09-03T14:47:53Z</time>
      </trkpt>
      <trkpt lat="48.47972" lon="7.23073">
        <ele>340.36377</ele>
        <time>2026-09-03T14:47:56Z</time>
      </trkpt>
      <trkpt lat="48.47967" lon="7.23071">
        <ele>340.36377</ele>
        <time>2026-09-03T14:48:01Z</time>
      </trkpt>
      <trkpt lat="48.47962" lon="7.23072">
        <ele>340.36377</ele>
        <time>2026-09-03T14:48:07Z</time>
      </trkpt>
      <trkpt lat="48.47958" lon="7.23071">
        <ele>340.36377</ele>
        <time>2026-09-03T14:48:11Z</time>
      </trkpt>
      <trkpt lat="48.47953" lon="7.23069">
        <ele>340.36377</ele>
        <time>2026-09-03T14:48:16Z</time>
      </trkpt>
      <trkpt lat="48.47947" lon="7.23066">
        <ele>340.36377</ele>
        <time>2026-09-03T14:48:21Z</time>
      </trkpt>
      <trkpt lat="48.47943" lon="7.23067">
        <ele>340.36377</ele>
        <time>2026-09-03T14:48:24Z</time>
      </trkpt>
      <trkpt lat="48.47937" lon="7.23064">
        <ele>340.36377</ele>
        <time>2026-09-03T14:48:29Z</time>
      </trkpt>
      <trkpt lat="48.47933" lon="7.23064">
        <ele>340.36377</ele>
        <time>2026-09-03T14:48:33Z</time>
      </trkpt>
      <trkpt lat="48.47928" lon="7.23062">
        <ele>340.36377</ele>
        <time>2026-09-03T14:48:37Z</time>
      </trkpt>
      <trkpt lat="48.47924" lon="7.23061">
        <ele>340.36377</ele>
        <time>2026-09-03T14:48:41Z</time>
      </trkpt>
      <trkpt lat="48.47919" lon="7.23061">
        <ele>340.36377</ele>
        <time>2026-09-03T14:48:45Z</time>
      </trkpt>
      <trkpt lat="48.47914" lon="7.23059">
        <ele>340.36377</ele>
        <time>2026-09-03T14:48:50Z</time>
      </trkpt>
      <trkpt lat="48.47908" lon="7.23059">
        <ele>340.36377</ele>
        <time>2026-09-03T14:48:54Z</time>
      </trkpt>
      <trkpt lat="48.47903" lon="7.23057">
        <ele>340.36377</ele>
        <time>2026-09-03T14:48:58Z</time>
      </trkpt>
      <trkpt lat="48.47899" lon="7.23057">
        <ele>340.36377</ele>
        <time>2026-09-03T14:49:03Z</time>
      </trkpt>
      <trkpt lat="48.47894" lon="7.23055">
        <ele>340.36377</ele>
        <time>2026-09-03T14:49:09Z</time>
      </trkpt>
      <trkpt lat="48.47889" lon="7.23055">
        <ele>340.36377</ele>
        <time>2026-09-03T14:49:13Z</time>
      </trkpt>
      <trkpt lat="48.47884" lon="7.23054">
        <ele>340.36377</ele>
        <time>2026-09-03T14:49:16Z</time>
      </trkpt>
      <trkpt lat="48.47879" lon="7.23053">
        <ele>340.36377</ele>
        <time>2026-09-03T14:49:21Z</time>
      </trkpt>
      <trkpt lat="48.47874" lon="7.23053">
        <ele>340.36377</ele>
        <time>2026-09-03T14:49:26Z</time>
      </trkpt>
      <trkpt lat="48.47869" lon="7.2305">
        <ele>340.36377</ele>
        <time>2026-09-03T14:49:31Z</time>
      </trkpt>
      <trkpt lat="48.47864" lon="7.23049">
        <ele>340.36377</ele>
        <time>2026-09-03T14:49:35Z</time>
      </trkpt>
      <trkpt lat="48.47858" lon="7.23048">
        <ele>340.36377</ele>
        <time>2026-09-03T14:49:40Z</time>
      </trkpt>
      <trkpt lat="48.47854" lon="7.23052">
        <ele>340.36377</ele>
        <time>2026-09-03T14:49:46Z</time>
      </trkpt>
      <trkpt lat="48.47849" lon="7.23051">
        <ele>340.36377</ele>
        <time>2026-09-03T14:49:51Z</time>
      </trkpt>
      <trkpt lat="48.47845" lon="7.23051">
        <ele>340.36377</ele>
        <time>2026-09-03T14:49:56Z</time>
      </trkpt>
      <trkpt lat="48.4784" lon="7.23052">
        <ele>340.36377</ele>
        <time>2026-09-03T14:50:00Z</time>
      </trkpt>
      <trkpt lat="48.47835" lon="7.23049">
        <ele>340.36377</ele>
        <time>2026-09-03T14:50:06Z</time>
      </trkpt>
      <trkpt lat="48.4783" lon="7.2305">
        <ele>340.36377</ele>
        <time>2026-09-03T14:50:08Z</time>
      </trkpt>
      <trkpt lat="48.47825" lon="7.23049">
        <ele>340.36377</ele>
        <time>2026-09-03T14:50:13Z</time>
      </trkpt>
      <trkpt lat="48.47821" lon="7.23051">
        <ele>340.36377</ele>
        <time>2026-09-03T14:50:17Z</time>
      </trkpt>
      <trkpt lat="48.47816" lon="7.2305">
        <ele>340.36377</ele>
        <time>2026-09-03T14:50:22Z</time>
      </trkpt>
      <trkpt lat="48.47811" lon="7.23047">
        <ele>340.36377</ele>
        <time>2026-09-03T14:50:27Z</time>
      </trkpt>
      <trkpt lat="48.47806" lon="7.23049">
        <ele>340.36377</ele>
        <time>2026-09-03T14:50:31Z</time>
      </trkpt>
      <trkpt lat="48.47801" lon="7.23051">
        <ele>340.36377</ele>
        <time>2026-09-03T14:50:34Z</time>
      </trkpt>
      <trkpt lat="48.47794" lon="7.2305">
        <ele>340.36377</ele>
        <time>2026-09-03T14:50:40Z</time>
      </trkpt>
      <trkpt lat="48.47788" lon="7.2305">
        <ele>340.36377</ele>
        <time>2026-09-03T14:50:45Z</time>
      </trkpt>
      <trkpt lat="48.47783" lon="7.23049">
        <ele>340.36377</ele>
        <time>2026-09-03T14:50:50Z</time>
      </trkpt>
      <trkpt lat="48.47779" lon="7.23047">
        <ele>340.36377</ele>
        <time>2026-09-03T14:50:53Z</time>
      </trkpt>
      <trkpt lat="48.47774" lon="7.23049">
        <ele>340.36377</ele>
        <time>2026-09-03T14:50:59Z</time>
      </trkpt>
      <trkpt lat="48.47768" lon="7.2305">
        <ele>340.36377</ele>
        <time>2026-09-03T14:51:04Z</time>
      </trkpt>
      <trkpt lat="48.47763" lon="7.2305">
        <ele>340.36377</ele>
        <time>2026-09-03T14:51:08Z</time>
      </trkpt>
      <trkpt lat="48.47757" lon="7.23054">
        <ele>342.4285</ele>
        <time>2026-09-03T14:52:00Z</time>
      </trkpt>
      <trkpt lat="48.47763" lon="7.23047">
        <ele>344.49323</ele>
        <time>2026-09-03T14:52:42Z</time>
      </trkpt>
      <trkpt lat="48.47758" lon="7.23049">
        <ele>346.55795</ele>
        <time>2026-09-03T14:52:49Z</time>
      </trkpt>
      <trkpt lat="48.47754" lon="7.23045">
        <ele>348.62268</ele>
        <time>2026-09-03T14:52:55Z</time>
      </trkpt>
      <trkpt lat="48.47752" lon="7.23038">
        <ele>350.6874</ele>
        <time>2026-09-03T14:53:01Z</time>
      </trkpt>
      <trkpt lat="48.4775" lon="7.23031">
        <ele>350.6874</ele>
        <time>2026-09-03T14:53:07Z</time>
      </trkpt>
      <trkpt lat="48.4775" lon="7.23023">
        <ele>350.6874</ele>
        <time>2026-09-03T14:53:12Z</time>
      </trkpt>
      <trkpt lat="48.47747" lon="7.23016">
        <ele>350.6874</ele>
        <time>2026-09-03T14:53:17Z</time>
      </trkpt>
      <trkpt lat="48.47746" lon="7.23008">
        <ele>348.64343</ele>
        <time>2026-09-03T14:53:22Z</time>
      </trkpt>
      <trkpt lat="48.47744" lon="7.23001">
        <ele>346.59946</ele>
        <time>2026-09-03T14:53:25Z</time>
      </trkpt>
      <trkpt lat="48.47742" lon="7.22994">
        <ele>344.5555</ele>
        <time>2026-09-03T14:53:30Z</time>
      </trkpt>
      <trkpt lat="48.47739" lon="7.22986">
        <ele>342.51154</ele>
        <time>2026-09-03T14:53:36Z</time>
      </trkpt>
      <trkpt lat="48.47736" lon="7.2298">
        <ele>340.46756</ele>
        <time>2026-09-03T14:53:44Z</time>
      </trkpt>
      <trkpt lat="48.47732" lon="7.22976">
        <ele>340.46756</ele>
        <time>2026-09-03T14:53:48Z</time>
      </trkpt>
      <trkpt lat="48.4773" lon="7.2297">
        <ele>340.46756</ele>
        <time>2026-09-03T14:53:51Z</time>
      </trkpt>
      <trkpt lat="48.4773" lon="7.22963">
        <ele>340.46756</ele>
        <time>2026-09-03T14:53:57Z</time>
      </trkpt>
      <trkpt lat="48.4773" lon="7.22955">
        <ele>340.46756</ele>
        <time>2026-09-03T14:54:03Z</time>
      </trkpt>
      <trkpt lat="48.47729" lon="7.22948">
        <ele>340.46756</ele>
        <time>2026-09-03T14:54:07Z</time>
      </trkpt>
      <trkpt lat="48.47733" lon="7.22945">
        <ele>340.46756</ele>
        <time>2026-09-03T14:54:11Z</time>
      </trkpt>
      <trkpt lat="48.47733" lon="7.22938">
        <ele>340.46756</ele>
        <time>2026-09-03T14:54:15Z</time>
      </trkpt>
      <trkpt lat="48.47731" lon="7.2293">
        <ele>340.46756</ele>
        <time>2026-09-03T14:54:19Z</time>
      </trkpt>
      <trkpt lat="48.47729" lon="7.22924">
        <ele>340.46756</ele>
        <time>2026-09-03T14:54:24Z</time>
      </trkpt>
      <trkpt lat="48.47725" lon="7.22919">
        <ele>340.46756</ele>
        <time>2026-09-03T14:54:30Z</time>
      </trkpt>
      <trkpt lat="48.47725" lon="7.22911">
        <ele>340.46756</ele>
        <time>2026-09-03T14:54:36Z</time>
      </trkpt>
      <trkpt lat="48.47725" lon="7.22904">
        <ele>340.46756</ele>
        <time>2026-09-03T14:54:43Z</time>
      </trkpt>
      <trkpt lat="48.47723" lon="7.22896">
        <ele>340.46756</ele>
        <time>2026-09-03T14:54:48Z</time>
      </trkpt>
      <trkpt lat="48.47723" lon="7.22889">
        <ele>340.46756</ele>
        <time>2026-09-03T14:54:52Z</time>
      </trkpt>
      <trkpt lat="48.47722" lon="7.22882">
        <ele>340.46756</ele>
        <time>2026-09-03T14:54:58Z</time>
      </trkpt>
      <trkpt lat="48.47722" lon="7.22874">
        <ele>340.46756</ele>
        <time>2026-09-03T14:55:02Z</time>
      </trkpt>
      <trkpt lat="48.47723" lon="7.22867">
        <ele>340.46756</ele>
        <time>2026-09-03T14:55:04Z</time>
      </trkpt>
      <trkpt lat="48.47725" lon="7.22859">
        <ele>340.46756</ele>
        <time>2026-09-03T14:55:09Z</time>
      </trkpt>
      <trkpt lat="48.47727" lon="7.22852">
        <ele>340.46756</ele>
        <time>2026-09-03T14:55:14Z</time>
      </trkpt>
      <trkpt lat="48.47729" lon="7.22844">
        <ele>340.46756</ele>
        <time>2026-09-03T14:55:18Z</time>
      </trkpt>
      <trkpt lat="48.47731" lon="7.22838">
        <ele>340.46756</ele>
        <time>2026-09-03T14:55:23Z</time>
      </trkpt>
      <trkpt lat="48.47732" lon="7.22831">
        <ele>340.46756</ele>
        <time>2026-09-03T14:55:27Z</time>
      </trkpt>
      <trkpt lat="48.4773" lon="7.22823">
        <ele>340.46756</ele>
        <time>2026-09-03T14:55:33Z</time>
      </trkpt>
      <trkpt lat="48.47733" lon="7.22817">
        <ele>340.46756</ele>
        <time>2026-09-03T14:55:37Z</time>
      </trkpt>
      <trkpt lat="48.47735" lon="7.22811">
        <ele>340.46756</ele>
        <time>2026-09-03T14:55:42Z</time>
      </trkpt>
      <trkpt lat="48.47737" lon="7.22803">
        <ele>340.46756</ele>
        <time>2026-09-03T14:55:47Z</time>
      </trkpt>
      <trkpt lat="48.47741" lon="7.22799">
        <ele>340.46756</ele>
        <time>2026-09-03T14:55:50Z</time>
      </trkpt>
      <trkpt lat="48.47744" lon="7.22793">
        <ele>340.46756</ele>
        <time>2026-09-03T14:55:53Z</time>
      </trkpt>
      <trkpt lat="48.47749" lon="7.2279">
        <ele>340.46756</ele>
        <time>2026-09-03T14:55:57Z</time>
      </trkpt>
      <trkpt lat="48.47754" lon="7.22789">
        <ele>340.46756</ele>
        <time>2026-09-03T14:56:00Z</time>
      </trkpt>
      <trkpt lat="48.4776" lon="7.22788">
        <ele>340.46756</ele>
        <time>2026-09-03T14:56:05Z</time>
      </trkpt>
      <trkpt lat="48.47765" lon="7.22785">
        <ele>340.46756</ele>
        <time>2026-09-03T14:56:09Z</time>
      </trkpt>
      <trkpt lat="48.4777" lon="7.22784">
        <ele>340.46756</ele>
        <time>2026-09-03T14:56:14Z</time>
      </trkpt>
      <trkpt lat="48.47775" lon="7.22786">
        <ele>340.46756</ele>
        <time>2026-09-03T14:56:19Z</time>
      </trkpt>
      <trkpt lat="48.4778" lon="7.22786">
        <ele>340.46756</ele>
        <time>2026-09-03T14:56:22Z</time>
      </trkpt>
      <trkpt lat="48.47785" lon="7.22786">
        <ele>340.46756</ele>
        <time>2026-09-03T14:56:26Z</time>
      </trkpt>
      <trkpt lat="48.4779" lon="7.22784">
        <ele>340.46756</ele>
        <time>2026-09-03T14:56:32Z</time>
      </trkpt>
      <trkpt lat="48.47795" lon="7.22783">
        <ele>340.46756</ele>
        <time>2026-09-03T14:56:36Z</time>
      </trkpt>
      <trkpt lat="48.478" lon="7.22782">
        <ele>340.46756</ele>
        <time>2026-09-03T14:56:42Z</time>
      </trkpt>
      <trkpt lat="48.47806" lon="7.22781">
        <ele>340.46756</ele>
        <time>2026-09-03T14:56:46Z</time>
      </trkpt>
      <trkpt lat="48.4781" lon="7.22778">
        <ele>340.46756</ele>
        <time>2026-09-03T14:56:51Z</time>
      </trkpt>
      <trkpt lat="48.47815" lon="7.22778">
        <ele>340.46756</ele>
        <time>2026-09-03T14:56:55Z</time>
      </trkpt>
      <trkpt lat="48.4782" lon="7.22777">
        <ele>340.46756</ele>
        <time>2026-09-03T14:57:00Z</time>
      </trkpt>
      <trkpt lat="48.47825" lon="7.22774">
        <ele>340.46756</ele>
        <time>2026-09-03T14:57:05Z</time>
      </trkpt>
      <trkpt lat="48.47829" lon="7.22773">
        <ele>340.46756</ele>
        <time>2026-09-03T14:57:10Z</time>
      </trkpt>
      <trkpt lat="48.47835" lon="7.2277">
        <ele>340.46756</ele>
        <time>2026-09-03T14:57:15Z</time>
      </trkpt>
      <trkpt lat="48.4784" lon="7.22769">
        <ele>340.46756</ele>
        <time>2026-09-03T14:57:20Z</time>
      </trkpt>
      <trkpt lat="48.47843" lon="7.22764">
        <ele>340.46756</ele>
        <time>2026-09-03T14:57:25Z</time>
      </trkpt>
      <trkpt lat="48.47847" lon="7.2276">
        <ele>340.46756</ele>
        <time>2026-09-03T14:57:29Z</time>
      </trkpt>
      <trkpt lat="48.47851" lon="7.22755">
        <ele>340.46756</ele>
        <time>2026-09-03T14:57:33Z</time>
      </trkpt>
      <trkpt lat="48.47854" lon="7.22751">
        <ele>340.46756</ele>
        <time>2026-09-03T14:57:37Z</time>
      </trkpt>
      <trkpt lat="48.47859" lon="7.22746">
        <ele>340.46756</ele>
        <time>2026-09-03T14:57:42Z</time>
      </trkpt>
      <trkpt lat="48.47862" lon="7.2274">
        <ele>340.46756</ele>
        <time>2026-09-03T14:57:47Z</time>
      </trkpt>
      <trkpt lat="48.47865" lon="7.22734">
        <ele>340.46756</ele>
        <time>2026-09-03T14:57:52Z</time>
      </trkpt>
      <trkpt lat="48.47869" lon="7.2273">
        <ele>340.46756</ele>
        <time>2026-09-03T14:57:57Z</time>
      </trkpt>
      <trkpt lat="48.47872" lon="7.22725">
        <ele>340.46756</ele>
        <time>2026-09-03T14:58:01Z</time>
      </trkpt>
      <trkpt lat="48.47875" lon="7.22719">
        <ele>340.46756</ele>
        <time>2026-09-03T14:58:06Z</time>
      </trkpt>
      <trkpt lat="48.47878" lon="7.22711">
        <ele>340.46756</ele>
        <time>2026-09-03T14:58:12Z</time>
      </trkpt>
      <trkpt lat="48.47879" lon="7.22704">
        <ele>340.46756</ele>
        <time>2026-09-03T14:58:17Z</time>
      </trkpt>
      <trkpt lat="48.47881" lon="7.22697">
        <ele>340.46756</ele>
        <time>2026-09-03T14:58:22Z</time>
      </trkpt>
      <trkpt lat="48.47884" lon="7.2269">
        <ele>340.46756</ele>
        <time>2026-09-03T14:58:27Z</time>
      </trkpt>
      <trkpt lat="48.47886" lon="7.22684">
        <ele>340.46756</ele>
        <time>2026-09-03T14:58:33Z</time>
      </trkpt>
      <trkpt lat="48.4789" lon="7.22679">
        <ele>340.46756</ele>
        <time>2026-09-03T14:58:36Z</time>
      </trkpt>
      <trkpt lat="48.47892" lon="7.22673">
        <ele>340.46756</ele>
        <time>2026-09-03T14:58:39Z</time>
      </trkpt>
      <trkpt lat="48.47895" lon="7.22666">
        <ele>340.46756</ele>
        <time>2026-09-03T14:58:44Z</time>
      </trkpt>
      <trkpt lat="48.47898" lon="7.22661">
        <ele>340.46756</ele>
        <time>2026-09-03T14:58:49Z</time>
      </trkpt>
      <trkpt lat="48.47902" lon="7.22656">
        <ele>340.46756</ele>
        <time>2026-09-03T14:58:53Z</time>
      </trkpt>
      <trkpt lat="48.47905" lon="7.2265">
        <ele>340.46756</ele>
        <time>2026-09-03T14:58:57Z</time>
      </trkpt>
      <trkpt lat="48.47908" lon="7.22645">
        <ele>340.46756</ele>
        <time>2026-09-03T14:59:01Z</time>
      </trkpt>
      <trkpt lat="48.47911" lon="7.2264">
        <ele>340.46756</ele>
        <time>2026-09-03T14:59:05Z</time>
      </trkpt>
      <trkpt lat="48.47914" lon="7.22635">
        <ele>340.46756</ele>
        <time>2026-09-03T14:59:09Z</time>
      </trkpt>
      <trkpt lat="48.47917" lon="7.2263">
        <ele>340.46756</ele>
        <time>2026-09-03T14:59:13Z</time>
      </trkpt>
      <trkpt lat="48.47921" lon="7.22625">
        <ele>340.46756</ele>
        <time>2026-09-03T14:59:17Z</time>
      </trkpt>
      <trkpt lat="48.47925" lon="7.2262">
        <ele>340.46756</ele>
        <time>2026-09-03T14:59:23Z</time>
      </trkpt>
      <trkpt lat="48.47927" lon="7.22613">
        <ele>340.46756</ele>
        <time>2026-09-03T14:59:27Z</time>
      </trkpt>
      <trkpt lat="48.4793" lon="7.22606">
        <ele>340.46756</ele>
        <time>2026-09-03T14:59:33Z</time>
      </trkpt>
      <trkpt lat="48.47932" lon="7.22599">
        <ele>340.46756</ele>
        <time>2026-09-03T14:59:39Z</time>
      </trkpt>
      <trkpt lat="48.47935" lon="7.22593">
        <ele>340.46756</ele>
        <time>2026-09-03T14:59:47Z</time>
      </trkpt>
      <trkpt lat="48.47937" lon="7.22586">
        <ele>340.46756</ele>
        <time>2026-09-03T14:59:51Z</time>
      </trkpt>
      <trkpt lat="48.4794" lon="7.2258">
        <ele>340.46756</ele>
        <time>2026-09-03T14:59:55Z</time>
      </trkpt>
      <trkpt lat="48.47942" lon="7.22573">
        <ele>340.46756</ele>
        <time>2026-09-03T14:59:59Z</time>
      </trkpt>
      <trkpt lat="48.47945" lon="7.22568">
        <ele>340.46756</ele>
        <time>2026-09-03T15:00:03Z</time>
      </trkpt>
      <trkpt lat="48.47947" lon="7.22562">
        <ele>340.46756</ele>
        <time>2026-09-03T15:00:07Z</time>
      </trkpt>
      <trkpt lat="48.47949" lon="7.22555">
        <ele>340.46756</ele>
        <time>2026-09-03T15:00:12Z</time>
      </trkpt>
      <trkpt lat="48.4795" lon="7.22547">
        <ele>340.46756</ele>
        <time>2026-09-03T15:00:17Z</time>
      </trkpt>
      <trkpt lat="48.47951" lon="7.22539">
        <ele>340.46756</ele>
        <time>2026-09-03T15:00:22Z</time>
      </trkpt>
      <trkpt lat="48.47955" lon="7.22533">
        <ele>340.46756</ele>
        <time>2026-09-03T15:00:26Z</time>
      </trkpt>
      <trkpt lat="48.47956" lon="7.22526">
        <ele>340.46756</ele>
        <time>2026-09-03T15:00:31Z</time>
      </trkpt>
      <trkpt lat="48.47959" lon="7.22519">
        <ele>340.46756</ele>
        <time>2026-09-03T15:00:36Z</time>
      </trkpt>
      <trkpt lat="48.47963" lon="7.22513">
        <ele>340.46756</ele>
        <time>2026-09-03T15:00:40Z</time>
      </trkpt>
      <trkpt lat="48.47965" lon="7.22506">
        <ele>340.46756</ele>
        <time>2026-09-03T15:00:45Z</time>
      </trkpt>
      <trkpt lat="48.47968" lon="7.22498">
        <ele>340.46756</ele>
        <time>2026-09-03T15:00:50Z</time>
      </trkpt>
      <trkpt lat="48.4797" lon="7.22493">
        <ele>340.46756</ele>
        <time>2026-09-03T15:00:54Z</time>
      </trkpt>
      <trkpt lat="48.47974" lon="7.2249">
        <ele>340.46756</ele>
        <time>2026-09-03T15:00:59Z</time>
      </trkpt>
      <trkpt lat="48.47976" lon="7.22482">
        <ele>340.46756</ele>
        <time>2026-09-03T15:01:04Z</time>
      </trkpt>
      <trkpt lat="48.47979" lon="7.22476">
        <ele>340.46756</ele>
        <time>2026-09-03T15:01:08Z</time>
      </trkpt>
      <trkpt lat="48.47982" lon="7.2247">
        <ele>340.46756</ele>
        <time>2026-09-03T15:01:13Z</time>
      </trkpt>
      <trkpt lat="48.47984" lon="7.22462">
        <ele>340.46756</ele>
        <time>2026-09-03T15:01:18Z</time>
      </trkpt>
      <trkpt lat="48.47986" lon="7.22456">
        <ele>340.46756</ele>
        <time>2026-09-03T15:01:23Z</time>
      </trkpt>
      <trkpt lat="48.4799" lon="7.22449">
        <ele>340.46756</ele>
        <time>2026-09-03T15:01:28Z</time>
      </trkpt>
      <trkpt lat="48.47992" lon="7.22442">
        <ele>340.46756</ele>
        <time>2026-09-03T15:01:33Z</time>
      </trkpt>
      <trkpt lat="48.47995" lon="7.22435">
        <ele>340.46756</ele>
        <time>2026-09-03T15:01:38Z</time>
      </trkpt>
      <trkpt lat="48.47998" lon="7.22429">
        <ele>340.46756</ele>
        <time>2026-09-03T15:01:42Z</time>
      </trkpt>
      <trkpt lat="48.48002" lon="7.22423">
        <ele>340.46756</ele>
        <time>2026-09-03T15:01:47Z</time>
      </trkpt>
      <trkpt lat="48.48005" lon="7.22416">
        <ele>340.46756</ele>
        <time>2026-09-03T15:01:52Z</time>
      </trkpt>
      <trkpt lat="48.48009" lon="7.2241">
        <ele>340.46756</ele>
        <time>2026-09-03T15:01:57Z</time>
      </trkpt>
      <trkpt lat="48.48014" lon="7.22406">
        <ele>340.46756</ele>
        <time>2026-09-03T15:02:02Z</time>
      </trkpt>
      <trkpt lat="48.48018" lon="7.22402">
        <ele>340.46756</ele>
        <time>2026-09-03T15:02:07Z</time>
      </trkpt>
      <trkpt lat="48.48021" lon="7.22396">
        <ele>340.46756</ele>
        <time>2026-09-03T15:02:12Z</time>
      </trkpt>
      <trkpt lat="48.48025" lon="7.2239">
        <ele>340.46756</ele>
        <time>2026-09-03T15:02:17Z</time>
      </trkpt>
      <trkpt lat="48.48027" lon="7.22384">
        <ele>340.46756</ele>
        <time>2026-09-03T15:02:22Z</time>
      </trkpt>
      <trkpt lat="48.4803" lon="7.22378">
        <ele>340.46756</ele>
        <time>2026-09-03T15:02:28Z</time>
      </trkpt>
      <trkpt lat="48.48032" lon="7.22385">
        <ele>340.46756</ele>
        <time>2026-09-03T15:03:24Z</time>
      </trkpt>
      <trkpt lat="48.48032" lon="7.22393">
        <ele>340.46756</ele>
        <time>2026-09-03T15:03:40Z</time>
      </trkpt>
      <trkpt lat="48.48031" lon="7.22384">
        <ele>340.46756</ele>
        <time>2026-09-03T15:04:02Z</time>
      </trkpt>
      <trkpt lat="48.48035" lon="7.22379">
        <ele>340.46756</ele>
        <time>2026-09-03T15:04:14Z</time>
      </trkpt>
      <trkpt lat="48.48037" lon="7.22373">
        <ele>340.46756</ele>
        <time>2026-09-03T15:04:19Z</time>
      </trkpt>
      <trkpt lat="48.48037" lon="7.22366">
        <ele>340.46756</ele>
        <time>2026-09-03T15:04:24Z</time>
      </trkpt>
      <trkpt lat="48.48039" lon="7.22358">
        <ele>340.46756</ele>
        <time>2026-09-03T15:04:29Z</time>
      </trkpt>
      <trkpt lat="48.48039" lon="7.22351">
        <ele>340.46756</ele>
        <time>2026-09-03T15:04:34Z</time>
      </trkpt>
      <trkpt lat="48.4804" lon="7.22344">
        <ele>340.46756</ele>
        <time>2026-09-03T15:04:39Z</time>
      </trkpt>
      <trkpt lat="48.48041" lon="7.22337">
        <ele>340.46756</ele>
        <time>2026-09-03T15:04:43Z</time>
      </trkpt>
      <trkpt lat="48.48043" lon="7.22329">
        <ele>340.46756</ele>
        <time>2026-09-03T15:04:47Z</time>
      </trkpt>
      <trkpt lat="48.48044" lon="7.22321">
        <ele>340.46756</ele>
        <time>2026-09-03T15:04:53Z</time>
      </trkpt>
      <trkpt lat="48.48045" lon="7.22314">
        <ele>340.46756</ele>
        <time>2026-09-03T15:04:57Z</time>
      </trkpt>
      <trkpt lat="48.48047" lon="7.22308">
        <ele>340.46756</ele>
        <time>2026-09-03T15:05:01Z</time>
      </trkpt>
      <trkpt lat="48.48048" lon="7.223">
        <ele>340.46756</ele>
        <time>2026-09-03T15:05:06Z</time>
      </trkpt>
      <trkpt lat="48.48047" lon="7.22292">
        <ele>340.46756</ele>
        <time>2026-09-03T15:05:10Z</time>
      </trkpt>
      <trkpt lat="48.48049" lon="7.22285">
        <ele>340.46756</ele>
        <time>2026-09-03T15:05:14Z</time>
      </trkpt>
      <trkpt lat="48.48048" lon="7.22278">
        <ele>340.46756</ele>
        <time>2026-09-03T15:05:19Z</time>
      </trkpt>
      <trkpt lat="48.48048" lon="7.2227">
        <ele>340.46756</ele>
        <time>2026-09-03T15:05:24Z</time>
      </trkpt>
      <trkpt lat="48.48049" lon="7.22263">
        <ele>340.46756</ele>
        <time>2026-09-03T15:05:29Z</time>
      </trkpt>
      <trkpt lat="48.4805" lon="7.22256">
        <ele>338.3228</ele>
        <time>2026-09-03T15:05:33Z</time>
      </trkpt>
      <trkpt lat="48.48048" lon="7.22248">
        <ele>336.17804</ele>
        <time>2026-09-03T15:05:38Z</time>
      </trkpt>
      <trkpt lat="48.4805" lon="7.22239">
        <ele>334.0333</ele>
        <time>2026-09-03T15:05:44Z</time>
      </trkpt>
      <trkpt lat="48.48051" lon="7.22231">
        <ele>331.88852</ele>
        <time>2026-09-03T15:05:48Z</time>
      </trkpt>
      <trkpt lat="48.4805" lon="7.22223">
        <ele>329.74377</ele>
        <time>2026-09-03T15:05:53Z</time>
      </trkpt>
      <trkpt lat="48.48051" lon="7.22215">
        <ele>329.74377</ele>
        <time>2026-09-03T15:05:58Z</time>
      </trkpt>
      <trkpt lat="48.48051" lon="7.22208">
        <ele>329.74377</ele>
        <time>2026-09-03T15:06:03Z</time>
      </trkpt>
      <trkpt lat="48.48052" lon="7.222">
        <ele>329.74377</ele>
        <time>2026-09-03T15:06:07Z</time>
      </trkpt>
      <trkpt lat="48.48053" lon="7.22192">
        <ele>329.74377</ele>
        <time>2026-09-03T15:06:11Z</time>
      </trkpt>
      <trkpt lat="48.48052" lon="7.22184">
        <ele>329.74377</ele>
        <time>2026-09-03T15:06:16Z</time>
      </trkpt>
      <trkpt lat="48.48049" lon="7.22178">
        <ele>329.74377</ele>
        <time>2026-09-03T15:06:20Z</time>
      </trkpt>
      <trkpt lat="48.48046" lon="7.22174">
        <ele>329.74377</ele>
        <time>2026-09-03T15:06:24Z</time>
      </trkpt>
      <trkpt lat="48.48041" lon="7.22168">
        <ele>329.74377</ele>
        <time>2026-09-03T15:06:28Z</time>
      </trkpt>
      <trkpt lat="48.48037" lon="7.22165">
        <ele>329.74377</ele>
        <time>2026-09-03T15:06:33Z</time>
      </trkpt>
      <trkpt lat="48.48032" lon="7.22162">
        <ele>329.74377</ele>
        <time>2026-09-03T15:06:38Z</time>
      </trkpt>
      <trkpt lat="48.48027" lon="7.22158">
        <ele>329.74377</ele>
        <time>2026-09-03T15:06:43Z</time>
      </trkpt>
      <trkpt lat="48.48022" lon="7.22155">
        <ele>329.74377</ele>
        <time>2026-09-03T15:06:48Z</time>
      </trkpt>
      <trkpt lat="48.48017" lon="7.22151">
        <ele>329.74377</ele>
        <time>2026-09-03T15:06:52Z</time>
      </trkpt>
      <trkpt lat="48.48013" lon="7.22149">
        <ele>329.74377</ele>
        <time>2026-09-03T15:06:55Z</time>
      </trkpt>
      <trkpt lat="48.48008" lon="7.22147">
        <ele>329.74377</ele>
        <time>2026-09-03T15:07:00Z</time>
      </trkpt>
      <trkpt lat="48.48003" lon="7.22143">
        <ele>329.74377</ele>
        <time>2026-09-03T15:07:05Z</time>
      </trkpt>
      <trkpt lat="48.47999" lon="7.22139">
        <ele>329.74377</ele>
        <time>2026-09-03T15:07:11Z</time>
      </trkpt>
      <trkpt lat="48.47995" lon="7.22135">
        <ele>329.74377</ele>
        <time>2026-09-03T15:07:16Z</time>
      </trkpt>
      <trkpt lat="48.4799" lon="7.2213">
        <ele>329.74377</ele>
        <time>2026-09-03T15:07:21Z</time>
      </trkpt>
      <trkpt lat="48.47987" lon="7.22125">
        <ele>329.74377</ele>
        <time>2026-09-03T15:07:26Z</time>
      </trkpt>
      <trkpt lat="48.47984" lon="7.22118">
        <ele>327.66403</ele>
        <time>2026-09-03T15:07:35Z</time>
      </trkpt>
      <trkpt lat="48.47982" lon="7.22112">
        <ele>325.5843</ele>
        <time>2026-09-03T15:07:39Z</time>
      </trkpt>
      <trkpt lat="48.47978" lon="7.22106">
        <ele>323.50455</ele>
        <time>2026-09-03T15:07:44Z</time>
      </trkpt>
      <trkpt lat="48.47976" lon="7.221">
        <ele>321.4248</ele>
        <time>2026-09-03T15:07:48Z</time>
      </trkpt>
      <trkpt lat="48.47973" lon="7.22093">
        <ele>319.34506</ele>
        <time>2026-09-03T15:07:54Z</time>
      </trkpt>
      <trkpt lat="48.47969" lon="7.22086">
        <ele>319.34506</ele>
        <time>2026-09-03T15:07:59Z</time>
      </trkpt>
      <trkpt lat="48.47967" lon="7.2208">
        <ele>319.34506</ele>
        <time>2026-09-03T15:08:03Z</time>
      </trkpt>
      <trkpt lat="48.47963" lon="7.22075">
        <ele>319.34506</ele>
        <time>2026-09-03T15:08:08Z</time>
      </trkpt>
      <trkpt lat="48.47961" lon="7.22069">
        <ele>319.34506</ele>
        <time>2026-09-03T15:08:13Z</time>
      </trkpt>
      <trkpt lat="48.47957" lon="7.22065">
        <ele>319.34506</ele>
        <time>2026-09-03T15:08:17Z</time>
      </trkpt>
      <trkpt lat="48.47953" lon="7.22061">
        <ele>319.34506</ele>
        <time>2026-09-03T15:08:22Z</time>
      </trkpt>
      <trkpt lat="48.47949" lon="7.22057">
        <ele>319.34506</ele>
        <time>2026-09-03T15:08:27Z</time>
      </trkpt>
      <trkpt lat="48.47944" lon="7.22053">
        <ele>319.34506</ele>
        <time>2026-09-03T15:08:32Z</time>
      </trkpt>
      <trkpt lat="48.47939" lon="7.22049">
        <ele>319.34506</ele>
        <time>2026-09-03T15:08:38Z</time>
      </trkpt>
      <trkpt lat="48.47935" lon="7.22046">
        <ele>319.34506</ele>
        <time>2026-09-03T15:08:42Z</time>
      </trkpt>
      <trkpt lat="48.4793" lon="7.22041">
        <ele>319.34506</ele>
        <time>2026-09-03T15:08:48Z</time>
      </trkpt>
      <trkpt lat="48.47926" lon="7.22036">
        <ele>319.34506</ele>
        <time>2026-09-03T15:09:22Z</time>
      </trkpt>
      <trkpt lat="48.47923" lon="7.22029">
        <ele>319.34506</ele>
        <time>2026-09-03T15:09:26Z</time>
      </trkpt>
      <trkpt lat="48.47916" lon="7.22027">
        <ele>319.34506</ele>
        <time>2026-09-03T15:09:31Z</time>
      </trkpt>
      <trkpt lat="48.47913" lon="7.22021">
        <ele>319.34506</ele>
        <time>2026-09-03T15:09:36Z</time>
      </trkpt>
      <trkpt lat="48.4791" lon="7.22014">
        <ele>319.34506</ele>
        <time>2026-09-03T15:09:43Z</time>
      </trkpt>
      <trkpt lat="48.47908" lon="7.22007">
        <ele>319.34506</ele>
        <time>2026-09-03T15:09:50Z</time>
      </trkpt>
      <trkpt lat="48.47912" lon="7.22002">
        <ele>319.34506</ele>
        <time>2026-09-03T15:09:54Z</time>
      </trkpt>
      <trkpt lat="48.47918" lon="7.21999">
        <ele>319.34506</ele>
        <time>2026-09-03T15:09:57Z</time>
      </trkpt>
      <trkpt lat="48.47922" lon="7.22002">
        <ele>319.34506</ele>
        <time>2026-09-03T15:10:00Z</time>
      </trkpt>
      <trkpt lat="48.47927" lon="7.22003">
        <ele>319.34506</ele>
        <time>2026-09-03T15:10:04Z</time>
      </trkpt>
      <trkpt lat="48.47932" lon="7.22003">
        <ele>319.34506</ele>
        <time>2026-09-03T15:10:08Z</time>
      </trkpt>
      <trkpt lat="48.47936" lon="7.22007">
        <ele>319.34506</ele>
        <time>2026-09-03T15:10:12Z</time>
      </trkpt>
      <trkpt lat="48.47941" lon="7.22009">
        <ele>319.34506</ele>
        <time>2026-09-03T15:10:17Z</time>
      </trkpt>
      <trkpt lat="48.47945" lon="7.22015">
        <ele>319.34506</ele>
        <time>2026-09-03T15:10:22Z</time>
      </trkpt>
      <trkpt lat="48.47949" lon="7.22019">
        <ele>319.34506</ele>
        <time>2026-09-03T15:10:27Z</time>
      </trkpt>
      <trkpt lat="48.47953" lon="7.22019">
        <ele>319.34506</ele>
        <time>2026-09-03T15:10:30Z</time>
      </trkpt>
      <trkpt lat="48.47958" lon="7.22022">
        <ele>319.34506</ele>
        <time>2026-09-03T15:10:34Z</time>
      </trkpt>
      <trkpt lat="48.4796" lon="7.22029">
        <ele>319.34506</ele>
        <time>2026-09-03T15:10:40Z</time>
      </trkpt>
      <trkpt lat="48.47965" lon="7.2203">
        <ele>317.3449</ele>
        <time>2026-09-03T15:10:43Z</time>
      </trkpt>
      <trkpt lat="48.47969" lon="7.22035">
        <ele>315.34473</ele>
        <time>2026-09-03T15:10:49Z</time>
      </trkpt>
      <trkpt lat="48.47973" lon="7.2204">
        <ele>313.34457</ele>
        <time>2026-09-03T15:10:55Z</time>
      </trkpt>
      <trkpt lat="48.47978" lon="7.22042">
        <ele>311.3444</ele>
        <time>2026-09-03T15:10:59Z</time>
      </trkpt>
      <trkpt lat="48.47981" lon="7.22046">
        <ele>309.34424</ele>
        <time>2026-09-03T15:11:03Z</time>
      </trkpt>
      <trkpt lat="48.47986" lon="7.22051">
        <ele>309.34424</ele>
        <time>2026-09-03T15:11:09Z</time>
      </trkpt>
      <trkpt lat="48.47991" lon="7.2205">
        <ele>309.34424</ele>
        <time>2026-09-03T15:11:14Z</time>
      </trkpt>
      <trkpt lat="48.47996" lon="7.22048">
        <ele>309.34424</ele>
        <time>2026-09-03T15:11:22Z</time>
      </trkpt>
      <trkpt lat="48.48" lon="7.22045">
        <ele>309.34424</ele>
        <time>2026-09-03T15:11:28Z</time>
      </trkpt>
      <trkpt lat="48.48003" lon="7.2204">
        <ele>309.34424</ele>
        <time>2026-09-03T15:11:31Z</time>
      </trkpt>
      <trkpt lat="48.48008" lon="7.22035">
        <ele>309.34424</ele>
        <time>2026-09-03T15:11:35Z</time>
      </trkpt>
      <trkpt lat="48.48011" lon="7.2203">
        <ele>309.34424</ele>
        <time>2026-09-03T15:11:39Z</time>
      </trkpt>
      <trkpt lat="48.48015" lon="7.22025">
        <ele>309.34424</ele>
        <time>2026-09-03T15:11:43Z</time>
      </trkpt>
      <trkpt lat="48.48018" lon="7.22019">
        <ele>309.34424</ele>
        <time>2026-09-03T15:11:48Z</time>
      </trkpt>
      <trkpt lat="48.48022" lon="7.22016">
        <ele>309.34424</ele>
        <time>2026-09-03T15:11:52Z</time>
      </trkpt>
      <trkpt lat="48.48027" lon="7.22013">
        <ele>309.34424</ele>
        <time>2026-09-03T15:11:56Z</time>
      </trkpt>
      <trkpt lat="48.48032" lon="7.22011">
        <ele>309.34424</ele>
        <time>2026-09-03T15:12:01Z</time>
      </trkpt>
      <trkpt lat="48.48037" lon="7.22013">
        <ele>309.34424</ele>
        <time>2026-09-03T15:12:07Z</time>
      </trkpt>
      <trkpt lat="48.4804" lon="7.22019">
        <ele>309.34424</ele>
        <time>2026-09-03T15:12:14Z</time>
      </trkpt>
    </trkseg>
  </trk>
</gpx>